<?xml version="1.0" encoding="UTF-8" standalone="no" ?>
<gpx xmlns="http://www.topografix.com/GPX/1/1" xmlns:xsi="http://www.w3.org/2001/XMLSchema-instance" xsi:schemaLocation="http://www.topografix.com/GPX/1/1 http://www.topografix.com/GPX/1/1/gpx.xsd" version="1.1" creator="VisuGPX - https://www.visugpx.com">
  <metadata>
    <name>albertville grenoble ajusté 2</name>
  </metadata>
  <trk>
    <name><![CDATA[albertville grenoble ajusté 2]]></name>
    <extensions>
      <line xmlns="http://www.topografix.com/GPX/gpx_style/0/2">
        <color>0000FF</color>
        <width>4</width>
      </line>
    </extensions>
    <trkseg>
      <trkpt lat="45.66823" lon="6.39115">
        <ele>348</ele>
        <time>2011-07-10T09:08:22+02:00</time>
      </trkpt>
      <trkpt lat="45.66857" lon="6.39113">
        <ele>347</ele>
        <time>2011-07-10T09:12:49+02:00</time>
      </trkpt>
      <trkpt lat="45.6685" lon="6.39282">
        <ele>347</ele>
        <time>2011-07-10T09:13:22+02:00</time>
      </trkpt>
      <trkpt lat="45.67612" lon="6.39487">
        <ele>354</ele>
        <time>2011-07-10T09:17:03+02:00</time>
      </trkpt>
      <trkpt lat="45.67589" lon="6.39526">
        <ele>352</ele>
        <time>2011-07-10T09:17:13+02:00</time>
      </trkpt>
      <trkpt lat="45.67741" lon="6.3962">
        <ele>364</ele>
        <time>2011-07-10T09:18:09+02:00</time>
      </trkpt>
      <trkpt lat="45.67737" lon="6.39664">
        <ele>371</ele>
        <time>2011-07-10T09:18:31+02:00</time>
      </trkpt>
      <trkpt lat="45.67668" lon="6.39609">
        <ele>377</ele>
        <time>2011-07-10T09:19:22+02:00</time>
      </trkpt>
      <trkpt lat="45.67696" lon="6.39685">
        <ele>386</ele>
        <time>2011-07-10T09:20:02+02:00</time>
      </trkpt>
      <trkpt lat="45.67768" lon="6.39725">
        <ele>391</ele>
        <time>2011-07-10T09:20:39+02:00</time>
      </trkpt>
      <trkpt lat="45.6775" lon="6.3971">
        <ele>390</ele>
        <time>2011-07-10T09:21:26+02:00</time>
      </trkpt>
      <trkpt lat="45.67796" lon="6.39774">
        <ele>397</ele>
        <time>2011-07-10T09:22:18+02:00</time>
      </trkpt>
      <trkpt lat="45.67742" lon="6.39775">
        <ele>402</ele>
        <time>2011-07-10T09:22:44+02:00</time>
      </trkpt>
      <trkpt lat="45.67758" lon="6.3986">
        <ele>408</ele>
        <time>2011-07-10T09:23:14+02:00</time>
      </trkpt>
      <trkpt lat="45.67915" lon="6.40049">
        <ele>426</ele>
        <time>2011-07-10T09:24:56+02:00</time>
      </trkpt>
      <trkpt lat="45.68075" lon="6.39984">
        <ele>443</ele>
        <time>2011-07-10T09:26:33+02:00</time>
      </trkpt>
      <trkpt lat="45.68195" lon="6.3999">
        <ele>454</ele>
        <time>2011-07-10T09:27:29+02:00</time>
      </trkpt>
      <trkpt lat="45.68246" lon="6.40035">
        <ele>459</ele>
        <time>2011-07-10T09:27:58+02:00</time>
      </trkpt>
      <trkpt lat="45.68258" lon="6.40134">
        <ele>459</ele>
        <time>2011-07-10T09:28:24+02:00</time>
      </trkpt>
      <trkpt lat="45.68418" lon="6.40247">
        <ele>466</ele>
        <time>2011-07-10T09:29:29+02:00</time>
      </trkpt>
      <trkpt lat="45.68517" lon="6.40426">
        <ele>474</ele>
        <time>2011-07-10T09:30:28+02:00</time>
      </trkpt>
      <trkpt lat="45.68548" lon="6.4064">
        <ele>474</ele>
        <time>2011-07-10T09:31:11+02:00</time>
      </trkpt>
      <trkpt lat="45.68629" lon="6.40739">
        <ele>477</ele>
        <time>2011-07-10T09:31:44+02:00</time>
      </trkpt>
      <trkpt lat="45.68685" lon="6.41028">
        <ele>491</ele>
        <time>2011-07-10T09:33:05+02:00</time>
      </trkpt>
      <trkpt lat="45.68755" lon="6.41207">
        <ele>502</ele>
        <time>2011-07-10T09:34:09+02:00</time>
      </trkpt>
      <trkpt lat="45.68863" lon="6.41304">
        <ele>505</ele>
        <time>2011-07-10T09:34:51+02:00</time>
      </trkpt>
      <trkpt lat="45.68798" lon="6.41446">
        <ele>525</ele>
        <time>2011-07-10T09:36:06+02:00</time>
      </trkpt>
      <trkpt lat="45.68843" lon="6.41583">
        <ele>534</ele>
        <time>2011-07-10T09:37:02+02:00</time>
      </trkpt>
      <trkpt lat="45.68827" lon="6.41615">
        <ele>537</ele>
        <time>2011-07-10T09:37:16+02:00</time>
      </trkpt>
      <trkpt lat="45.68973" lon="6.41992">
        <ele>552</ele>
        <time>2011-07-10T09:42:16+02:00</time>
      </trkpt>
      <trkpt lat="45.69052" lon="6.42028">
        <ele>549</ele>
        <time>2011-07-10T09:42:29+02:00</time>
      </trkpt>
      <trkpt lat="45.69089" lon="6.42167">
        <ele>545</ele>
        <time>2011-07-10T09:42:46+02:00</time>
      </trkpt>
      <trkpt lat="45.69257" lon="6.4219">
        <ele>540</ele>
        <time>2011-07-10T09:43:16+02:00</time>
      </trkpt>
      <trkpt lat="45.69367" lon="6.42337">
        <ele>533</ele>
        <time>2011-07-10T09:44:15+02:00</time>
      </trkpt>
      <trkpt lat="45.69355" lon="6.42374">
        <ele>538</ele>
        <time>2011-07-10T09:44:49+02:00</time>
      </trkpt>
      <trkpt lat="45.69414" lon="6.42523">
        <ele>541</ele>
        <time>2011-07-10T09:46:01+02:00</time>
      </trkpt>
      <trkpt lat="45.69562" lon="6.42637">
        <ele>535</ele>
        <time>2011-07-10T09:46:29+02:00</time>
      </trkpt>
      <trkpt lat="45.69542" lon="6.42703">
        <ele>536</ele>
        <time>2011-07-10T09:46:49+02:00</time>
      </trkpt>
      <trkpt lat="45.69719" lon="6.42914">
        <ele>527</ele>
        <time>2011-07-10T09:49:40+02:00</time>
      </trkpt>
      <trkpt lat="45.69944" lon="6.43014">
        <ele>514</ele>
        <time>2011-07-10T09:50:14+02:00</time>
      </trkpt>
      <trkpt lat="45.70015" lon="6.42996">
        <ele>513</ele>
        <time>2011-07-10T09:50:20+02:00</time>
      </trkpt>
      <trkpt lat="45.70143" lon="6.43049">
        <ele>515</ele>
        <time>2011-07-10T09:50:42+02:00</time>
      </trkpt>
      <trkpt lat="45.70239" lon="6.43157">
        <ele>509</ele>
        <time>2011-07-10T09:51:50+02:00</time>
      </trkpt>
      <trkpt lat="45.70218" lon="6.43244">
        <ele>515</ele>
        <time>2011-07-10T09:52:37+02:00</time>
      </trkpt>
      <trkpt lat="45.70312" lon="6.43269">
        <ele>520</ele>
        <time>2011-07-10T09:53:31+02:00</time>
      </trkpt>
      <trkpt lat="45.7039" lon="6.43365">
        <ele>521</ele>
        <time>2011-07-10T09:54:13+02:00</time>
      </trkpt>
      <trkpt lat="45.70464" lon="6.4359">
        <ele>527</ele>
        <time>2011-07-10T09:55:44+02:00</time>
      </trkpt>
      <trkpt lat="45.70545" lon="6.43591">
        <ele>524</ele>
        <time>2011-07-10T09:56:14+02:00</time>
      </trkpt>
      <trkpt lat="45.70702" lon="6.43707">
        <ele>518</ele>
        <time>2011-07-10T09:57:32+02:00</time>
      </trkpt>
      <trkpt lat="45.70748" lon="6.43812">
        <ele>503</ele>
        <time>2011-07-10T09:58:05+02:00</time>
      </trkpt>
      <trkpt lat="45.71094" lon="6.44132">
        <ele>518</ele>
        <time>2011-07-10T10:00:18+02:00</time>
      </trkpt>
      <trkpt lat="45.71201" lon="6.44301">
        <ele>523</ele>
        <time>2011-07-10T10:03:43+02:00</time>
      </trkpt>
      <trkpt lat="45.71204" lon="6.44398">
        <ele>521</ele>
        <time>2011-07-10T10:04:06+02:00</time>
      </trkpt>
      <trkpt lat="45.71273" lon="6.44302">
        <ele>523</ele>
        <time>2011-07-10T10:04:17+02:00</time>
      </trkpt>
      <trkpt lat="45.71245" lon="6.44411">
        <ele>526</ele>
        <time>2011-07-10T10:04:45+02:00</time>
      </trkpt>
      <trkpt lat="45.71327" lon="6.44545">
        <ele>524</ele>
        <time>2011-07-10T10:05:32+02:00</time>
      </trkpt>
      <trkpt lat="45.71307" lon="6.44628">
        <ele>526</ele>
        <time>2011-07-10T10:06:29+02:00</time>
      </trkpt>
      <trkpt lat="45.71367" lon="6.44686">
        <ele>525</ele>
        <time>2011-07-10T10:06:57+02:00</time>
      </trkpt>
      <trkpt lat="45.7136" lon="6.44749">
        <ele>528</ele>
        <time>2011-07-10T10:07:29+02:00</time>
      </trkpt>
      <trkpt lat="45.7144" lon="6.44811">
        <ele>529</ele>
        <time>2011-07-10T10:07:42+02:00</time>
      </trkpt>
      <trkpt lat="45.7153" lon="6.44988">
        <ele>525</ele>
        <time>2011-07-10T10:09:31+02:00</time>
      </trkpt>
      <trkpt lat="45.71606" lon="6.45003">
        <ele>523</ele>
        <time>2011-07-10T10:10:30+02:00</time>
      </trkpt>
      <trkpt lat="45.71528" lon="6.45226">
        <ele>517</ele>
        <time>2011-07-10T10:12:48+02:00</time>
      </trkpt>
      <trkpt lat="45.71553" lon="6.45201">
        <ele>507</ele>
        <time>2011-07-10T10:13:01+02:00</time>
      </trkpt>
      <trkpt lat="45.71589" lon="6.45426">
        <ele>513</ele>
        <time>2011-07-10T10:13:39+02:00</time>
      </trkpt>
      <trkpt lat="45.71597" lon="6.45385">
        <ele>512</ele>
        <time>2011-07-10T10:13:40+02:00</time>
      </trkpt>
      <trkpt lat="45.71636" lon="6.4549">
        <ele>512</ele>
        <time>2011-07-10T10:13:56+02:00</time>
      </trkpt>
      <trkpt lat="45.71529" lon="6.45603">
        <ele>525</ele>
        <time>2011-07-10T10:15:22+02:00</time>
      </trkpt>
      <trkpt lat="45.71579" lon="6.45801">
        <ele>543</ele>
        <time>2011-07-10T10:16:44+02:00</time>
      </trkpt>
      <trkpt lat="45.71429" lon="6.46266">
        <ele>538</ele>
        <time>2011-07-10T10:19:28+02:00</time>
      </trkpt>
      <trkpt lat="45.71445" lon="6.46323">
        <ele>538</ele>
        <time>2011-07-10T10:19:35+02:00</time>
      </trkpt>
      <trkpt lat="45.71377" lon="6.46421">
        <ele>535</ele>
        <time>2011-07-10T10:21:21+02:00</time>
      </trkpt>
      <trkpt lat="45.71374" lon="6.47238">
        <ele>549</ele>
        <time>2011-07-10T10:29:47+02:00</time>
      </trkpt>
      <trkpt lat="45.71288" lon="6.47369">
        <ele>569</ele>
        <time>2011-07-10T10:31:37+02:00</time>
      </trkpt>
      <trkpt lat="45.71291" lon="6.4747">
        <ele>575</ele>
        <time>2011-07-10T10:32:33+02:00</time>
      </trkpt>
      <trkpt lat="45.71354" lon="6.47688">
        <ele>579</ele>
        <time>2011-07-10T10:33:47+02:00</time>
      </trkpt>
      <trkpt lat="45.71286" lon="6.47954">
        <ele>576</ele>
        <time>2011-07-10T10:34:53+02:00</time>
      </trkpt>
      <trkpt lat="45.71283" lon="6.4821">
        <ele>576</ele>
        <time>2011-07-10T10:35:27+02:00</time>
      </trkpt>
      <trkpt lat="45.71364" lon="6.48444">
        <ele>591</ele>
        <time>2011-07-10T10:36:53+02:00</time>
      </trkpt>
      <trkpt lat="45.71357" lon="6.48612">
        <ele>603</ele>
        <time>2011-07-10T10:37:55+02:00</time>
      </trkpt>
      <trkpt lat="45.71392" lon="6.48695">
        <ele>611</ele>
        <time>2011-07-10T10:38:37+02:00</time>
      </trkpt>
      <trkpt lat="45.71466" lon="6.4876">
        <ele>620</ele>
        <time>2011-07-10T10:39:10+02:00</time>
      </trkpt>
      <trkpt lat="45.71458" lon="6.48835">
        <ele>627</ele>
        <time>2011-07-10T10:39:37+02:00</time>
      </trkpt>
      <trkpt lat="45.71521" lon="6.49004">
        <ele>642</ele>
        <time>2011-07-10T10:40:40+02:00</time>
      </trkpt>
      <trkpt lat="45.71561" lon="6.49322">
        <ele>668</ele>
        <time>2011-07-10T10:53:39+02:00</time>
      </trkpt>
      <trkpt lat="45.71602" lon="6.4936">
        <ele>666</ele>
        <time>2011-07-10T10:54:28+02:00</time>
      </trkpt>
      <trkpt lat="45.71573" lon="6.49445">
        <ele>664</ele>
        <time>2011-07-10T10:54:47+02:00</time>
      </trkpt>
      <trkpt lat="45.71645" lon="6.49467">
        <ele>663</ele>
        <time>2011-07-10T10:55:04+02:00</time>
      </trkpt>
      <trkpt lat="45.71632" lon="6.49968">
        <ele>666</ele>
        <time>2011-07-10T10:56:28+02:00</time>
      </trkpt>
      <trkpt lat="45.71583" lon="6.50426">
        <ele>644</ele>
        <time>2011-07-10T10:57:03+02:00</time>
      </trkpt>
      <trkpt lat="45.71607" lon="6.50588">
        <ele>649</ele>
        <time>2011-07-10T10:57:34+02:00</time>
      </trkpt>
      <trkpt lat="45.71697" lon="6.50714">
        <ele>651</ele>
        <time>2011-07-10T10:58:18+02:00</time>
      </trkpt>
      <trkpt lat="45.71722" lon="6.50811">
        <ele>653</ele>
        <time>2011-07-10T10:58:32+02:00</time>
      </trkpt>
      <trkpt lat="45.71666" lon="6.51094">
        <ele>644</ele>
        <time>2011-07-10T10:59:23+02:00</time>
      </trkpt>
      <trkpt lat="45.71697" lon="6.51">
        <ele>642</ele>
        <time>2011-07-10T10:59:43+02:00</time>
      </trkpt>
      <trkpt lat="45.71774" lon="6.50992">
        <ele>642</ele>
        <time>2011-07-10T11:00:01+02:00</time>
      </trkpt>
      <trkpt lat="45.7188" lon="6.50769">
        <ele>642</ele>
        <time>2011-07-10T11:00:51+02:00</time>
      </trkpt>
      <trkpt lat="45.72008" lon="6.50931">
        <ele>646</ele>
        <time>2011-07-10T11:01:45+02:00</time>
      </trkpt>
      <trkpt lat="45.72072" lon="6.51213">
        <ele>665</ele>
        <time>2011-07-10T11:03:14+02:00</time>
      </trkpt>
      <trkpt lat="45.72202" lon="6.51437">
        <ele>669</ele>
        <time>2011-07-10T11:04:39+02:00</time>
      </trkpt>
      <trkpt lat="45.72222" lon="6.51548">
        <ele>663</ele>
        <time>2011-07-10T11:04:55+02:00</time>
      </trkpt>
      <trkpt lat="45.72212" lon="6.51857">
        <ele>671</ele>
        <time>2011-07-10T11:06:39+02:00</time>
      </trkpt>
      <trkpt lat="45.72244" lon="6.5195">
        <ele>675</ele>
        <time>2011-07-10T11:07:05+02:00</time>
      </trkpt>
      <trkpt lat="45.72231" lon="6.52088">
        <ele>670</ele>
        <time>2011-07-10T11:07:33+02:00</time>
      </trkpt>
      <trkpt lat="45.72278" lon="6.52118">
        <ele>674</ele>
        <time>2011-07-10T11:07:56+02:00</time>
      </trkpt>
      <trkpt lat="45.72282" lon="6.52056">
        <ele>679</ele>
        <time>2011-07-10T11:08:24+02:00</time>
      </trkpt>
      <trkpt lat="45.72417" lon="6.51964">
        <ele>706</ele>
        <time>2011-07-10T11:11:16+02:00</time>
      </trkpt>
      <trkpt lat="45.72525" lon="6.52142">
        <ele>689</ele>
        <time>2011-07-10T11:13:03+02:00</time>
      </trkpt>
      <trkpt lat="45.72563" lon="6.52367">
        <ele>687</ele>
        <time>2011-07-10T11:16:04+02:00</time>
      </trkpt>
      <trkpt lat="45.72632" lon="6.52553">
        <ele>709</ele>
        <time>2011-07-10T11:17:44+02:00</time>
      </trkpt>
      <trkpt lat="45.72603" lon="6.52654">
        <ele>713</ele>
        <time>2011-07-10T11:18:19+02:00</time>
      </trkpt>
      <trkpt lat="45.7261" lon="6.5284">
        <ele>712</ele>
        <time>2011-07-10T11:22:41+02:00</time>
      </trkpt>
      <trkpt lat="45.72687" lon="6.53164">
        <ele>710</ele>
        <time>2011-07-10T11:23:40+02:00</time>
      </trkpt>
      <trkpt lat="45.72764" lon="6.53264">
        <ele>715</ele>
        <time>2011-07-10T11:24:05+02:00</time>
      </trkpt>
      <trkpt lat="45.72738" lon="6.5361">
        <ele>733</ele>
        <time>2011-07-10T11:25:30+02:00</time>
      </trkpt>
      <trkpt lat="45.7267" lon="6.53743">
        <ele>729</ele>
        <time>2011-07-10T11:25:53+02:00</time>
      </trkpt>
      <trkpt lat="45.72626" lon="6.5406">
        <ele>713</ele>
        <time>2011-07-10T11:26:22+02:00</time>
      </trkpt>
      <trkpt lat="45.72648" lon="6.54524">
        <ele>700</ele>
        <time>2011-07-10T11:46:32+02:00</time>
      </trkpt>
      <trkpt lat="45.72572" lon="6.54929">
        <ele>700</ele>
        <time>2011-07-10T11:47:41+02:00</time>
      </trkpt>
      <trkpt lat="45.72311" lon="6.54724">
        <ele>699</ele>
        <time>2011-07-10T11:48:33+02:00</time>
      </trkpt>
      <trkpt lat="45.72216" lon="6.54811">
        <ele>699</ele>
        <time>2011-07-10T11:48:54+02:00</time>
      </trkpt>
      <trkpt lat="45.72099" lon="6.54809">
        <ele>699</ele>
        <time>2011-07-10T11:49:16+02:00</time>
      </trkpt>
      <trkpt lat="45.72058" lon="6.54767">
        <ele>699</ele>
        <time>2011-07-10T11:49:28+02:00</time>
      </trkpt>
      <trkpt lat="45.71992" lon="6.54787">
        <ele>699</ele>
        <time>2011-07-10T11:49:43+02:00</time>
      </trkpt>
      <trkpt lat="45.71992" lon="6.54924">
        <ele>700</ele>
        <time>2011-07-10T11:50:06+02:00</time>
      </trkpt>
      <trkpt lat="45.7189" lon="6.55222">
        <ele>706</ele>
        <time>2011-07-10T11:51:36+02:00</time>
      </trkpt>
      <trkpt lat="45.71851" lon="6.55524">
        <ele>749</ele>
        <time>2011-07-10T11:55:41+02:00</time>
      </trkpt>
      <trkpt lat="45.71875" lon="6.55666">
        <ele>730</ele>
        <time>2011-07-10T11:57:56+02:00</time>
      </trkpt>
      <trkpt lat="45.71852" lon="6.55761">
        <ele>721</ele>
        <time>2011-07-10T11:58:10+02:00</time>
      </trkpt>
      <trkpt lat="45.71869" lon="6.55795">
        <ele>716</ele>
        <time>2011-07-10T11:58:17+02:00</time>
      </trkpt>
      <trkpt lat="45.7177" lon="6.56269">
        <ele>719</ele>
        <time>2011-07-10T12:00:15+02:00</time>
      </trkpt>
      <trkpt lat="45.71725" lon="6.56731">
        <ele>723</ele>
        <time>2011-07-10T12:01:53+02:00</time>
      </trkpt>
      <trkpt lat="45.71812" lon="6.56759">
        <ele>722</ele>
        <time>2011-07-10T12:02:09+02:00</time>
      </trkpt>
      <trkpt lat="45.71884" lon="6.56832">
        <ele>723</ele>
        <time>2011-07-10T12:02:36+02:00</time>
      </trkpt>
      <trkpt lat="45.71932" lon="6.57107">
        <ele>729</ele>
        <time>2011-07-10T12:03:54+02:00</time>
      </trkpt>
      <trkpt lat="45.71894" lon="6.57252">
        <ele>738</ele>
        <time>2011-07-10T12:04:41+02:00</time>
      </trkpt>
      <trkpt lat="45.71802" lon="6.5722">
        <ele>741</ele>
        <time>2011-07-10T12:05:19+02:00</time>
      </trkpt>
      <trkpt lat="45.71746" lon="6.57308">
        <ele>737</ele>
        <time>2011-07-10T12:05:55+02:00</time>
      </trkpt>
      <trkpt lat="45.71766" lon="6.57475">
        <ele>741</ele>
        <time>2011-07-10T12:07:59+02:00</time>
      </trkpt>
      <trkpt lat="45.71805" lon="6.57522">
        <ele>740</ele>
        <time>2011-07-10T12:08:25+02:00</time>
      </trkpt>
      <trkpt lat="45.71562" lon="6.57265">
        <ele>758</ele>
        <time>2011-07-10T12:17:18+02:00</time>
      </trkpt>
      <trkpt lat="45.71576" lon="6.57327">
        <ele>762</ele>
        <time>2011-07-10T12:17:39+02:00</time>
      </trkpt>
      <trkpt lat="45.71537" lon="6.57219">
        <ele>770</ele>
        <time>2011-07-10T12:18:09+02:00</time>
      </trkpt>
      <trkpt lat="45.71538" lon="6.57363">
        <ele>778</ele>
        <time>2011-07-10T12:18:49+02:00</time>
      </trkpt>
      <trkpt lat="45.71457" lon="6.57239">
        <ele>789</ele>
        <time>2011-07-10T12:19:30+02:00</time>
      </trkpt>
      <trkpt lat="45.7146" lon="6.57369">
        <ele>797</ele>
        <time>2011-07-10T12:20:03+02:00</time>
      </trkpt>
      <trkpt lat="45.71363" lon="6.5754">
        <ele>809</ele>
        <time>2011-07-10T12:20:56+02:00</time>
      </trkpt>
      <trkpt lat="45.71336" lon="6.57529">
        <ele>812</ele>
        <time>2011-07-10T12:21:07+02:00</time>
      </trkpt>
      <trkpt lat="45.71304" lon="6.57298">
        <ele>823</ele>
        <time>2011-07-10T12:22:01+02:00</time>
      </trkpt>
      <trkpt lat="45.71178" lon="6.571">
        <ele>837</ele>
        <time>2011-07-10T12:23:06+02:00</time>
      </trkpt>
      <trkpt lat="45.71193" lon="6.57203">
        <ele>843</ele>
        <time>2011-07-10T12:23:33+02:00</time>
      </trkpt>
      <trkpt lat="45.70974" lon="6.56855">
        <ele>872</ele>
        <time>2011-07-10T12:25:30+02:00</time>
      </trkpt>
      <trkpt lat="45.70985" lon="6.57051">
        <ele>883</ele>
        <time>2011-07-10T12:26:20+02:00</time>
      </trkpt>
      <trkpt lat="45.71038" lon="6.57157">
        <ele>891</ele>
        <time>2011-07-10T12:26:54+02:00</time>
      </trkpt>
      <trkpt lat="45.70937" lon="6.57081">
        <ele>901</ele>
        <time>2011-07-10T12:27:37+02:00</time>
      </trkpt>
      <trkpt lat="45.70874" lon="6.56964">
        <ele>911</ele>
        <time>2011-07-10T12:28:15+02:00</time>
      </trkpt>
      <trkpt lat="45.7074" lon="6.56827">
        <ele>926</ele>
        <time>2011-07-10T12:29:16+02:00</time>
      </trkpt>
      <trkpt lat="45.70548" lon="6.56852">
        <ele>941</ele>
        <time>2011-07-10T12:30:23+02:00</time>
      </trkpt>
      <trkpt lat="45.70394" lon="6.56774">
        <ele>956</ele>
        <time>2011-07-10T12:31:22+02:00</time>
      </trkpt>
      <trkpt lat="45.69917" lon="6.56656">
        <ele>988</ele>
        <time>2011-07-10T12:34:03+02:00</time>
      </trkpt>
      <trkpt lat="45.69995" lon="6.56791">
        <ele>1007</ele>
        <time>2011-07-10T12:56:22+02:00</time>
      </trkpt>
      <trkpt lat="45.70489" lon="6.57198">
        <ele>1066</ele>
        <time>2011-07-10T13:03:03+02:00</time>
      </trkpt>
      <trkpt lat="45.70599" lon="6.57227">
        <ele>1078</ele>
        <time>2011-07-10T13:04:26+02:00</time>
      </trkpt>
      <trkpt lat="45.7073" lon="6.57501">
        <ele>1104</ele>
        <time>2011-07-10T13:06:58+02:00</time>
      </trkpt>
      <trkpt lat="45.70708" lon="6.57591">
        <ele>1111</ele>
        <time>2011-07-10T13:07:44+02:00</time>
      </trkpt>
      <trkpt lat="45.70754" lon="6.57741">
        <ele>1122</ele>
        <time>2011-07-10T13:09:03+02:00</time>
      </trkpt>
      <trkpt lat="45.70643" lon="6.57755">
        <ele>1133</ele>
        <time>2011-07-10T13:18:39+02:00</time>
      </trkpt>
      <trkpt lat="45.70492" lon="6.57949">
        <ele>1156</ele>
        <time>2011-07-10T13:20:46+02:00</time>
      </trkpt>
      <trkpt lat="45.7045" lon="6.5808">
        <ele>1171</ele>
        <time>2011-07-10T13:21:58+02:00</time>
      </trkpt>
      <trkpt lat="45.70391" lon="6.58114">
        <ele>1178</ele>
        <time>2011-07-10T13:22:39+02:00</time>
      </trkpt>
      <trkpt lat="45.70347" lon="6.58232">
        <ele>1189</ele>
        <time>2011-07-10T13:23:40+02:00</time>
      </trkpt>
      <trkpt lat="45.70373" lon="6.58297">
        <ele>1194</ele>
        <time>2011-07-10T13:24:07+02:00</time>
      </trkpt>
      <trkpt lat="45.70287" lon="6.58489">
        <ele>1212</ele>
        <time>2011-07-10T13:25:52+02:00</time>
      </trkpt>
      <trkpt lat="45.70302" lon="6.583">
        <ele>1226</ele>
        <time>2011-07-10T13:27:15+02:00</time>
      </trkpt>
      <trkpt lat="45.70265" lon="6.58184">
        <ele>1239</ele>
        <time>2011-07-10T13:28:16+02:00</time>
      </trkpt>
      <trkpt lat="45.70335" lon="6.57785">
        <ele>1278</ele>
        <time>2011-07-10T13:31:35+02:00</time>
      </trkpt>
      <trkpt lat="45.70304" lon="6.57584">
        <ele>1298</ele>
        <time>2011-07-10T13:33:22+02:00</time>
      </trkpt>
      <trkpt lat="45.7029" lon="6.57749">
        <ele>1312</ele>
        <time>2011-07-10T13:34:46+02:00</time>
      </trkpt>
      <trkpt lat="45.70155" lon="6.58011">
        <ele>1338</ele>
        <time>2011-07-10T13:37:52+02:00</time>
      </trkpt>
      <trkpt lat="45.70208" lon="6.57725">
        <ele>1366</ele>
        <time>2011-07-10T13:51:27+02:00</time>
      </trkpt>
      <trkpt lat="45.70074" lon="6.58011">
        <ele>1393</ele>
        <time>2011-07-10T13:54:11+02:00</time>
      </trkpt>
      <trkpt lat="45.70097" lon="6.57665">
        <ele>1420</ele>
        <time>2011-07-10T13:56:31+02:00</time>
      </trkpt>
      <trkpt lat="45.69956" lon="6.5789">
        <ele>1496</ele>
        <time>2021-06-22T10:01:57+02:00</time>
      </trkpt>
      <trkpt lat="45.69841" lon="6.58044">
        <ele>1516</ele>
        <time>2021-06-22T10:02:02+02:00</time>
      </trkpt>
      <trkpt lat="45.6979" lon="6.58346">
        <ele>1544</ele>
        <time>2021-06-22T10:02:07+02:00</time>
      </trkpt>
      <trkpt lat="45.69721" lon="6.58659">
        <ele>1578</ele>
        <time>2021-06-22T10:02:12+02:00</time>
      </trkpt>
      <trkpt lat="45.69673" lon="6.58431">
        <ele>1604</ele>
        <time>2021-06-22T10:02:17+02:00</time>
      </trkpt>
      <trkpt lat="45.69566" lon="6.58808">
        <ele>1655</ele>
        <time>2021-06-22T10:02:22+02:00</time>
      </trkpt>
      <trkpt lat="45.69603" lon="6.59057">
        <ele>1667</ele>
        <time>2021-06-22T10:02:27+02:00</time>
      </trkpt>
      <trkpt lat="45.69651" lon="6.59293">
        <ele>1678</ele>
        <time>2021-06-22T10:02:32+02:00</time>
      </trkpt>
      <trkpt lat="45.69709" lon="6.59446">
        <ele>1694</ele>
        <time>2021-06-22T10:02:37+02:00</time>
      </trkpt>
      <trkpt lat="45.6965" lon="6.59572">
        <ele>1696</ele>
        <time>2021-06-22T10:02:42+02:00</time>
      </trkpt>
      <trkpt lat="45.69563" lon="6.59264">
        <ele>1724</ele>
        <time>2021-06-22T10:02:47+02:00</time>
      </trkpt>
      <trkpt lat="45.69564" lon="6.59388">
        <ele>1731</ele>
        <time>2021-06-22T10:02:52+02:00</time>
      </trkpt>
      <trkpt lat="45.69523" lon="6.59342">
        <ele>1738</ele>
        <time>2021-06-22T10:02:57+02:00</time>
      </trkpt>
      <trkpt lat="45.69501" lon="6.59235">
        <ele>1751</ele>
        <time>2021-06-22T10:03:02+02:00</time>
      </trkpt>
      <trkpt lat="45.69435" lon="6.59138">
        <ele>1752</ele>
        <time>2021-06-22T10:03:07+02:00</time>
      </trkpt>
      <trkpt lat="45.69335" lon="6.59112">
        <ele>1745</ele>
        <time>2021-06-22T10:03:12+02:00</time>
      </trkpt>
      <trkpt lat="45.6924" lon="6.59031">
        <ele>1738</ele>
        <time>2021-06-22T10:03:17+02:00</time>
      </trkpt>
      <trkpt lat="45.69126" lon="6.59087">
        <ele>1736</ele>
        <time>2021-06-22T10:03:22+02:00</time>
      </trkpt>
      <trkpt lat="45.69017" lon="6.59259">
        <ele>1739</ele>
        <time>2021-06-22T10:03:27+02:00</time>
      </trkpt>
      <trkpt lat="45.69034" lon="6.59463">
        <ele>1728</ele>
        <time>2021-06-22T10:03:32+02:00</time>
      </trkpt>
      <trkpt lat="45.69075" lon="6.59801">
        <ele>1704</ele>
        <time>2021-06-22T10:03:37+02:00</time>
      </trkpt>
      <trkpt lat="45.68774" lon="6.6041">
        <ele>1723</ele>
        <time>2021-06-22T10:03:42+02:00</time>
      </trkpt>
      <trkpt lat="45.6871" lon="6.60568">
        <ele>1734</ele>
        <time>2021-06-22T10:03:47+02:00</time>
      </trkpt>
      <trkpt lat="45.68668" lon="6.60561">
        <ele>1745</ele>
        <time>2021-06-22T10:03:52+02:00</time>
      </trkpt>
      <trkpt lat="45.68401" lon="6.60648">
        <ele>1770</ele>
        <time>2021-06-22T10:03:57+02:00</time>
      </trkpt>
      <trkpt lat="45.68592" lon="6.6027">
        <ele>1806</ele>
        <time>2021-06-22T10:04:02+02:00</time>
      </trkpt>
      <trkpt lat="45.68308" lon="6.60332">
        <ele>1840</ele>
        <time>2021-06-22T10:04:07+02:00</time>
      </trkpt>
      <trkpt lat="45.68216" lon="6.60524">
        <ele>1859</ele>
        <time>2021-06-22T10:04:12+02:00</time>
      </trkpt>
      <trkpt lat="45.68217" lon="6.60412">
        <ele>1870</ele>
        <time>2021-06-22T10:04:17+02:00</time>
      </trkpt>
      <trkpt lat="45.68128" lon="6.60595">
        <ele>1880</ele>
        <time>2021-06-22T10:04:22+02:00</time>
      </trkpt>
      <trkpt lat="45.67858" lon="6.6039">
        <ele>1921</ele>
        <time>2021-06-22T10:04:27+02:00</time>
      </trkpt>
      <trkpt lat="45.6743" lon="6.60567">
        <ele>1959</ele>
        <time>2021-06-22T10:04:32+02:00</time>
      </trkpt>
      <trkpt lat="45.67234" lon="6.60258">
        <ele>1991</ele>
        <time>2021-06-22T10:04:37+02:00</time>
      </trkpt>
      <trkpt lat="45.67087" lon="6.59912">
        <ele>2035</ele>
        <time>2021-06-22T10:04:42+02:00</time>
      </trkpt>
      <trkpt lat="45.67023" lon="6.59826">
        <ele>2040</ele>
        <time>2021-06-22T10:04:47+02:00</time>
      </trkpt>
      <trkpt lat="45.66924" lon="6.59788">
        <ele>2051</ele>
        <time>2021-06-22T10:04:52+02:00</time>
      </trkpt>
      <trkpt lat="45.66814" lon="6.59899">
        <ele>2057</ele>
        <time>2021-06-22T10:04:57+02:00</time>
      </trkpt>
      <trkpt lat="45.66636" lon="6.59777">
        <ele>2068</ele>
        <time>2021-06-22T10:05:02+02:00</time>
      </trkpt>
      <trkpt lat="45.66555" lon="6.59605">
        <ele>2079</ele>
        <time>2021-06-22T10:05:07+02:00</time>
      </trkpt>
      <trkpt lat="45.66282" lon="6.59458">
        <ele>2056</ele>
        <time>2021-06-22T10:05:12+02:00</time>
      </trkpt>
      <trkpt lat="45.66434" lon="6.59458">
        <ele>2022</ele>
        <time>2021-06-22T10:05:17+02:00</time>
      </trkpt>
      <trkpt lat="45.66528" lon="6.59355">
        <ele>1977</ele>
        <time>2021-06-22T10:05:22+02:00</time>
      </trkpt>
      <trkpt lat="45.66771" lon="6.59371">
        <ele>1938</ele>
        <time>2021-06-22T10:05:27+02:00</time>
      </trkpt>
      <trkpt lat="45.66665" lon="6.59099">
        <ele>1872</ele>
        <time>2021-06-22T10:05:32+02:00</time>
      </trkpt>
      <trkpt lat="45.66808" lon="6.5916">
        <ele>1855</ele>
        <time>2021-06-22T10:05:37+02:00</time>
      </trkpt>
      <trkpt lat="45.66712" lon="6.59021">
        <ele>1835</ele>
        <time>2021-06-22T10:05:42+02:00</time>
      </trkpt>
      <trkpt lat="45.66818" lon="6.59049">
        <ele>1814</ele>
        <time>2021-06-22T10:05:47+02:00</time>
      </trkpt>
      <trkpt lat="45.66699" lon="6.58879">
        <ele>1782</ele>
        <time>2021-06-22T10:05:52+02:00</time>
      </trkpt>
      <trkpt lat="45.6692" lon="6.58906">
        <ele>1729</ele>
        <time>2021-06-22T10:05:57+02:00</time>
      </trkpt>
      <trkpt lat="45.66949" lon="6.58813">
        <ele>1708</ele>
        <time>2021-06-22T10:06:02+02:00</time>
      </trkpt>
      <trkpt lat="45.66649" lon="6.58485">
        <ele>1652</ele>
        <time>2021-06-22T10:06:07+02:00</time>
      </trkpt>
      <trkpt lat="45.66437" lon="6.58451">
        <ele>1670</ele>
        <time>2021-06-22T10:06:12+02:00</time>
      </trkpt>
      <trkpt lat="45.66116" lon="6.58569">
        <ele>1693</ele>
        <time>2021-06-22T10:06:17+02:00</time>
      </trkpt>
      <trkpt lat="45.65199" lon="6.58133">
        <ele>1619</ele>
        <time>2011-07-11T11:03:56+02:00</time>
      </trkpt>
      <trkpt lat="45.65224" lon="6.58351">
        <ele>1614</ele>
        <time>2021-06-22T10:06:27+02:00</time>
      </trkpt>
      <trkpt lat="45.65172" lon="6.58432">
        <ele>1607</ele>
        <time>2021-06-22T10:06:32+02:00</time>
      </trkpt>
      <trkpt lat="45.65078" lon="6.58616">
        <ele>1611</ele>
        <time>2021-06-22T10:06:37+02:00</time>
      </trkpt>
      <trkpt lat="45.64854" lon="6.58717">
        <ele>1655</ele>
        <time>2011-07-11T11:04:38+02:00</time>
      </trkpt>
      <trkpt lat="45.64625" lon="6.58533">
        <ele>1675</ele>
        <time>2011-07-11T11:06:32+02:00</time>
      </trkpt>
      <trkpt lat="45.64449" lon="6.58458">
        <ele>1681</ele>
        <time>2011-07-11T11:07:31+02:00</time>
      </trkpt>
      <trkpt lat="45.64213" lon="6.58312">
        <ele>1561</ele>
        <time>2021-06-21T11:30:49+02:00</time>
      </trkpt>
      <trkpt lat="45.6413" lon="6.57737">
        <ele>1568</ele>
        <time>2021-06-21T11:30:54+02:00</time>
      </trkpt>
      <trkpt lat="45.63931" lon="6.57318">
        <ele>1602</ele>
        <time>2021-06-21T11:30:59+02:00</time>
      </trkpt>
      <trkpt lat="45.63865" lon="6.57215">
        <ele>1621</ele>
        <time>2011-07-11T11:08:18+02:00</time>
      </trkpt>
      <trkpt lat="45.63764" lon="6.57109">
        <ele>1634</ele>
        <time>2021-06-21T11:31:09+02:00</time>
      </trkpt>
      <trkpt lat="45.63623" lon="6.5699">
        <ele>1689</ele>
        <time>2011-07-11T11:09:03+02:00</time>
      </trkpt>
      <trkpt lat="45.63572" lon="6.56931">
        <ele>1698</ele>
        <time>2011-07-11T11:09:29+02:00</time>
      </trkpt>
      <trkpt lat="45.63494" lon="6.5684">
        <ele>1713</ele>
        <time>2011-07-11T11:09:54+02:00</time>
      </trkpt>
      <trkpt lat="45.63044" lon="6.56193">
        <ele>1889</ele>
        <time>2011-07-11T11:11:04+02:00</time>
      </trkpt>
      <trkpt lat="45.62865" lon="6.55948">
        <ele>1959</ele>
        <time>2011-07-11T11:12:15+02:00</time>
      </trkpt>
      <trkpt lat="45.62615" lon="6.55665">
        <ele>2053</ele>
        <time>2011-07-11T11:14:25+02:00</time>
      </trkpt>
      <trkpt lat="45.62573" lon="6.55611">
        <ele>2072</ele>
        <time>2011-07-11T11:16:17+02:00</time>
      </trkpt>
      <trkpt lat="45.62578" lon="6.55578">
        <ele>2084</ele>
        <time>2011-07-11T11:18:10+02:00</time>
      </trkpt>
      <trkpt lat="45.6247" lon="6.55478">
        <ele>2109</ele>
        <time>2011-07-11T11:19:00+02:00</time>
      </trkpt>
      <trkpt lat="45.62369" lon="6.55399">
        <ele>2098</ele>
        <time>2011-07-11T11:21:47+02:00</time>
      </trkpt>
      <trkpt lat="45.62195" lon="6.55526">
        <ele>2064</ele>
        <time>2011-07-11T11:22:49+02:00</time>
      </trkpt>
      <trkpt lat="45.62066" lon="6.55551">
        <ele>2045</ele>
        <time>2011-07-11T11:23:16+02:00</time>
      </trkpt>
      <trkpt lat="45.61988" lon="6.55512">
        <ele>2015</ele>
        <time>2011-07-11T11:25:04+02:00</time>
      </trkpt>
      <trkpt lat="45.61935" lon="6.55482">
        <ele>1993</ele>
        <time>2011-07-11T11:27:46+02:00</time>
      </trkpt>
      <trkpt lat="45.61895" lon="6.55316">
        <ele>1949</ele>
        <time>2011-07-11T11:28:53+02:00</time>
      </trkpt>
      <trkpt lat="45.61802" lon="6.55263">
        <ele>1922</ele>
        <time>2011-07-11T11:30:39+02:00</time>
      </trkpt>
      <trkpt lat="45.61713" lon="6.55222">
        <ele>1897</ele>
        <time>2011-07-11T11:32:38+02:00</time>
      </trkpt>
      <trkpt lat="45.61613" lon="6.55181">
        <ele>1866</ele>
        <time>2011-07-11T11:33:27+02:00</time>
      </trkpt>
      <trkpt lat="45.61516" lon="6.55046">
        <ele>1848</ele>
        <time>2011-07-11T11:34:20+02:00</time>
      </trkpt>
      <trkpt lat="45.61441" lon="6.55089">
        <ele>1853</ele>
        <time>2011-07-11T11:35:12+02:00</time>
      </trkpt>
      <trkpt lat="45.61342" lon="6.55091">
        <ele>1850</ele>
        <time>2011-07-11T11:36:58+02:00</time>
      </trkpt>
      <trkpt lat="45.6123" lon="6.55058">
        <ele>1834</ele>
        <time>2011-07-11T11:37:53+02:00</time>
      </trkpt>
      <trkpt lat="45.61149" lon="6.55081">
        <ele>1815</ele>
        <time>2011-07-11T11:39:14+02:00</time>
      </trkpt>
      <trkpt lat="45.61052" lon="6.55077">
        <ele>1794</ele>
        <time>2011-07-11T11:41:11+02:00</time>
      </trkpt>
      <trkpt lat="45.60953" lon="6.55078">
        <ele>1766</ele>
        <time>2011-07-11T11:44:22+02:00</time>
      </trkpt>
      <trkpt lat="45.60874" lon="6.55095">
        <ele>1755</ele>
        <time>2011-07-11T11:45:35+02:00</time>
      </trkpt>
      <trkpt lat="45.60714" lon="6.55118">
        <ele>1723</ele>
        <time>2011-07-11T11:48:34+02:00</time>
      </trkpt>
      <trkpt lat="45.60771" lon="6.55028">
        <ele>1714</ele>
        <time>2011-07-11T11:49:30+02:00</time>
      </trkpt>
      <trkpt lat="45.60855" lon="6.54929">
        <ele>1711</ele>
        <time>2011-07-11T11:50:40+02:00</time>
      </trkpt>
      <trkpt lat="45.60868" lon="6.54829">
        <ele>1702</ele>
        <time>2011-07-11T11:53:18+02:00</time>
      </trkpt>
      <trkpt lat="45.60741" lon="6.54794">
        <ele>1704</ele>
        <time>2011-07-11T11:53:37+02:00</time>
      </trkpt>
      <trkpt lat="45.60583" lon="6.5478">
        <ele>1671</ele>
        <time>2011-07-11T12:57:39+02:00</time>
      </trkpt>
      <trkpt lat="45.60504" lon="6.54706">
        <ele>1664</ele>
        <time>2011-07-11T12:59:29+02:00</time>
      </trkpt>
      <trkpt lat="45.60416" lon="6.546">
        <ele>1660</ele>
        <time>2011-07-11T13:00:24+02:00</time>
      </trkpt>
      <trkpt lat="45.60329" lon="6.5454">
        <ele>1646</ele>
        <time>2011-07-11T13:02:28+02:00</time>
      </trkpt>
      <trkpt lat="45.60228" lon="6.54434">
        <ele>1636</ele>
        <time>2011-07-11T13:03:56+02:00</time>
      </trkpt>
      <trkpt lat="45.60172" lon="6.54364">
        <ele>1630</ele>
        <time>2011-07-11T13:51:59+02:00</time>
      </trkpt>
      <trkpt lat="45.60111" lon="6.54175">
        <ele>1626</ele>
        <time>2011-07-11T13:52:13+02:00</time>
      </trkpt>
      <trkpt lat="45.59726" lon="6.53493">
        <ele>1617</ele>
        <time>2011-07-11T13:54:41+02:00</time>
      </trkpt>
      <trkpt lat="45.59104" lon="6.53038">
        <ele>1522</ele>
        <time>2011-07-11T13:54:57+02:00</time>
      </trkpt>
      <trkpt lat="45.58692" lon="6.52566">
        <ele>1491</ele>
        <time>2011-07-11T13:55:33+02:00</time>
      </trkpt>
      <trkpt lat="45.58358" lon="6.52073">
        <ele>1465</ele>
        <time>2011-07-11T13:55:57+02:00</time>
      </trkpt>
      <trkpt lat="45.58097" lon="6.51693">
        <ele>1458</ele>
        <time>2021-06-21T11:34:44+02:00</time>
      </trkpt>
      <trkpt lat="45.58309" lon="6.52151">
        <ele>1448</ele>
        <time>2021-06-21T11:34:49+02:00</time>
      </trkpt>
      <trkpt lat="45.57783" lon="6.51744">
        <ele>1526</ele>
        <time>2021-06-21T11:34:54+02:00</time>
      </trkpt>
      <trkpt lat="45.5712" lon="6.5104">
        <ele>1660</ele>
        <time>2021-06-21T11:34:59+02:00</time>
      </trkpt>
      <trkpt lat="45.56843" lon="6.5079">
        <ele>1687</ele>
        <time>2011-07-11T14:51:21+02:00</time>
      </trkpt>
      <trkpt lat="45.5663" lon="6.50748">
        <ele>1703</ele>
        <time>2011-07-11T14:52:39+02:00</time>
      </trkpt>
      <trkpt lat="45.56537" lon="6.50847">
        <ele>1703</ele>
        <time>2011-07-11T14:53:04+02:00</time>
      </trkpt>
      <trkpt lat="45.56577" lon="6.51384">
        <ele>1664</ele>
        <time>2011-07-11T14:53:20+02:00</time>
      </trkpt>
      <trkpt lat="45.56453" lon="6.5113">
        <ele>1618</ele>
        <time>2011-07-11T14:55:00+02:00</time>
      </trkpt>
      <trkpt lat="45.56394" lon="6.51362">
        <ele>1576</ele>
        <time>2011-07-11T14:55:34+02:00</time>
      </trkpt>
      <trkpt lat="45.55877" lon="6.50297">
        <ele>1510</ele>
        <time>2011-07-11T14:56:23+02:00</time>
      </trkpt>
      <trkpt lat="45.55727" lon="6.50049">
        <ele>1481</ele>
        <time>2011-07-11T14:57:39+02:00</time>
      </trkpt>
      <trkpt lat="45.55656" lon="6.50155">
        <ele>1485</ele>
        <time>2011-07-11T14:58:15+02:00</time>
      </trkpt>
      <trkpt lat="45.55371" lon="6.4966">
        <ele>1435</ele>
        <time>2011-07-11T14:58:49+02:00</time>
      </trkpt>
      <trkpt lat="45.55092" lon="6.49372">
        <ele>1396</ele>
        <time>2011-07-11T14:59:19+02:00</time>
      </trkpt>
      <trkpt lat="45.54982" lon="6.4936">
        <ele>1395</ele>
        <time>2021-06-21T11:35:59+02:00</time>
      </trkpt>
      <trkpt lat="45.54717" lon="6.49238">
        <ele>1360</ele>
        <time>2011-07-11T15:15:37+02:00</time>
      </trkpt>
      <trkpt lat="45.54493" lon="6.49043">
        <ele>1355</ele>
        <time>2011-07-11T15:16:05+02:00</time>
      </trkpt>
      <trkpt lat="45.54245" lon="6.48853">
        <ele>1280</ele>
        <time>2011-07-11T15:19:06+02:00</time>
      </trkpt>
      <trkpt lat="45.54014" lon="6.48616">
        <ele>1251</ele>
        <time>2011-07-11T15:20:42+02:00</time>
      </trkpt>
      <trkpt lat="45.53783" lon="6.48574">
        <ele>1202</ele>
        <time>2021-06-21T11:36:24+02:00</time>
      </trkpt>
      <trkpt lat="45.53705" lon="6.48391">
        <ele>1181</ele>
        <time>2011-07-11T15:41:06+02:00</time>
      </trkpt>
      <trkpt lat="45.53667" lon="6.48366">
        <ele>1167</ele>
        <time>2011-07-11T15:43:27+02:00</time>
      </trkpt>
      <trkpt lat="45.53749" lon="6.48398">
        <ele>1161</ele>
        <time>2011-07-11T15:44:33+02:00</time>
      </trkpt>
      <trkpt lat="45.53775" lon="6.48374">
        <ele>1155</ele>
        <time>2011-07-11T15:45:21+02:00</time>
      </trkpt>
      <trkpt lat="45.53708" lon="6.48335">
        <ele>1136</ele>
        <time>2011-07-11T15:47:12+02:00</time>
      </trkpt>
      <trkpt lat="45.53743" lon="6.48298">
        <ele>1128</ele>
        <time>2011-07-11T15:47:45+02:00</time>
      </trkpt>
      <trkpt lat="45.53623" lon="6.48248">
        <ele>1097</ele>
        <time>2011-07-11T15:50:48+02:00</time>
      </trkpt>
      <trkpt lat="45.53691" lon="6.48218">
        <ele>1085</ele>
        <time>2011-07-11T15:51:31+02:00</time>
      </trkpt>
      <trkpt lat="45.53653" lon="6.48206">
        <ele>1078</ele>
        <time>2011-07-11T15:51:57+02:00</time>
      </trkpt>
      <trkpt lat="45.53817" lon="6.48176">
        <ele>1037</ele>
        <time>2011-07-11T15:55:53+02:00</time>
      </trkpt>
      <trkpt lat="45.53655" lon="6.48027">
        <ele>990</ele>
        <time>2011-07-11T15:59:05+02:00</time>
      </trkpt>
      <trkpt lat="45.53531" lon="6.48012">
        <ele>959</ele>
        <time>2011-07-11T16:00:14+02:00</time>
      </trkpt>
      <trkpt lat="45.53543" lon="6.47968">
        <ele>950</ele>
        <time>2011-07-11T16:00:57+02:00</time>
      </trkpt>
      <trkpt lat="45.53672" lon="6.47946">
        <ele>925</ele>
        <time>2011-07-11T16:01:47+02:00</time>
      </trkpt>
      <trkpt lat="45.53634" lon="6.47912">
        <ele>914</ele>
        <time>2011-07-11T16:02:24+02:00</time>
      </trkpt>
      <trkpt lat="45.53893" lon="6.47936">
        <ele>871</ele>
        <time>2011-07-11T16:05:42+02:00</time>
      </trkpt>
      <trkpt lat="45.53831" lon="6.47872">
        <ele>849</ele>
        <time>2011-07-11T16:07:15+02:00</time>
      </trkpt>
      <trkpt lat="45.5355" lon="6.4774">
        <ele>785</ele>
        <time>2011-07-11T16:09:40+02:00</time>
      </trkpt>
      <trkpt lat="45.53554" lon="6.4771">
        <ele>773</ele>
        <time>2011-07-11T16:10:07+02:00</time>
      </trkpt>
      <trkpt lat="45.53494" lon="6.47696">
        <ele>753</ele>
        <time>2011-07-11T16:10:30+02:00</time>
      </trkpt>
      <trkpt lat="45.53528" lon="6.47686">
        <ele>743</ele>
        <time>2011-07-11T16:10:41+02:00</time>
      </trkpt>
      <trkpt lat="45.53487" lon="6.47653">
        <ele>732</ele>
        <time>2011-07-11T16:11:04+02:00</time>
      </trkpt>
      <trkpt lat="45.53509" lon="6.47644">
        <ele>724</ele>
        <time>2011-07-11T16:11:15+02:00</time>
      </trkpt>
      <trkpt lat="45.53493" lon="6.47622">
        <ele>718</ele>
        <time>2011-07-11T16:11:25+02:00</time>
      </trkpt>
      <trkpt lat="45.53542" lon="6.4758">
        <ele>697</ele>
        <time>2011-07-11T16:11:54+02:00</time>
      </trkpt>
      <trkpt lat="45.53485" lon="6.4753">
        <ele>678</ele>
        <time>2011-07-11T16:13:16+02:00</time>
      </trkpt>
      <trkpt lat="45.53431" lon="6.47616">
        <ele>663</ele>
        <time>2011-07-11T16:13:35+02:00</time>
      </trkpt>
      <trkpt lat="45.53392" lon="6.47575">
        <ele>649</ele>
        <time>2011-07-11T16:13:49+02:00</time>
      </trkpt>
      <trkpt lat="45.53292" lon="6.47618">
        <ele>620</ele>
        <time>2011-07-11T16:14:33+02:00</time>
      </trkpt>
      <trkpt lat="45.53268" lon="6.47676">
        <ele>607</ele>
        <time>2011-07-11T16:14:52+02:00</time>
      </trkpt>
      <trkpt lat="45.53174" lon="6.47627">
        <ele>555</ele>
        <time>2011-07-11T16:16:16+02:00</time>
      </trkpt>
      <trkpt lat="45.53174" lon="6.47592">
        <ele>548</ele>
        <time>2011-07-11T16:16:27+02:00</time>
      </trkpt>
      <trkpt lat="45.53077" lon="6.47618">
        <ele>522</ele>
        <time>2011-07-11T16:17:40+02:00</time>
      </trkpt>
      <trkpt lat="45.53093" lon="6.47587">
        <ele>513</ele>
        <time>2011-07-11T16:17:55+02:00</time>
      </trkpt>
      <trkpt lat="45.5296" lon="6.4769">
        <ele>485</ele>
        <time>2011-07-11T16:18:35+02:00</time>
      </trkpt>
      <trkpt lat="45.53007" lon="6.47692">
        <ele>485</ele>
        <time>2011-07-11T16:19:19+02:00</time>
      </trkpt>
      <trkpt lat="45.53154" lon="6.47501">
        <ele>487</ele>
        <time>2011-07-11T16:20:18+02:00</time>
      </trkpt>
      <trkpt lat="45.53146" lon="6.47426">
        <ele>487</ele>
        <time>2011-07-11T16:20:30+02:00</time>
      </trkpt>
      <trkpt lat="45.5319" lon="6.47347">
        <ele>486</ele>
        <time>2011-07-11T16:20:49+02:00</time>
      </trkpt>
      <trkpt lat="45.53274" lon="6.47356">
        <ele>485</ele>
        <time>2011-07-11T16:21:09+02:00</time>
      </trkpt>
      <trkpt lat="45.53538" lon="6.46845">
        <ele>478</ele>
        <time>2011-07-11T16:22:32+02:00</time>
      </trkpt>
      <trkpt lat="45.5384" lon="6.46648">
        <ele>473</ele>
        <time>2011-07-11T16:23:27+02:00</time>
      </trkpt>
      <trkpt lat="45.54056" lon="6.46606">
        <ele>477</ele>
        <time>2011-07-11T16:25:21+02:00</time>
      </trkpt>
      <trkpt lat="45.54158" lon="6.46634">
        <ele>486</ele>
        <time>2011-07-11T16:25:54+02:00</time>
      </trkpt>
      <trkpt lat="45.54504" lon="6.4645">
        <ele>517</ele>
        <time>2011-07-11T16:28:56+02:00</time>
      </trkpt>
      <trkpt lat="45.54711" lon="6.46414">
        <ele>537</ele>
        <time>2011-07-11T16:31:04+02:00</time>
      </trkpt>
      <trkpt lat="45.54405" lon="6.46392">
        <ele>555</ele>
        <time>2011-07-11T16:33:29+02:00</time>
      </trkpt>
      <trkpt lat="45.54527" lon="6.46349">
        <ele>565</ele>
        <time>2011-07-11T16:34:33+02:00</time>
      </trkpt>
      <trkpt lat="45.54766" lon="6.46349">
        <ele>588</ele>
        <time>2011-07-11T16:36:20+02:00</time>
      </trkpt>
      <trkpt lat="45.54671" lon="6.46285">
        <ele>598</ele>
        <time>2011-07-11T16:37:06+02:00</time>
      </trkpt>
      <trkpt lat="45.54492" lon="6.46244">
        <ele>620</ele>
        <time>2011-07-11T16:38:36+02:00</time>
      </trkpt>
      <trkpt lat="45.54714" lon="6.46268">
        <ele>644</ele>
        <time>2011-07-11T16:40:14+02:00</time>
      </trkpt>
      <trkpt lat="45.54839" lon="6.46133">
        <ele>662</ele>
        <time>2011-07-11T16:41:33+02:00</time>
      </trkpt>
      <trkpt lat="45.54966" lon="6.46117">
        <ele>673</ele>
        <time>2011-07-11T16:42:24+02:00</time>
      </trkpt>
      <trkpt lat="45.54926" lon="6.46057">
        <ele>677</ele>
        <time>2011-07-11T16:42:47+02:00</time>
      </trkpt>
      <trkpt lat="45.54764" lon="6.46013">
        <ele>692</ele>
        <time>2011-07-11T16:44:07+02:00</time>
      </trkpt>
      <trkpt lat="45.54647" lon="6.46102">
        <ele>705</ele>
        <time>2011-07-11T16:45:08+02:00</time>
      </trkpt>
      <trkpt lat="45.54638" lon="6.46053">
        <ele>709</ele>
        <time>2011-07-11T16:45:27+02:00</time>
      </trkpt>
      <trkpt lat="45.54722" lon="6.45974">
        <ele>718</ele>
        <time>2011-07-11T16:46:19+02:00</time>
      </trkpt>
      <trkpt lat="45.54744" lon="6.45899">
        <ele>723</ele>
        <time>2011-07-11T16:46:45+02:00</time>
      </trkpt>
      <trkpt lat="45.54816" lon="6.45818">
        <ele>732</ele>
        <time>2011-07-11T16:47:34+02:00</time>
      </trkpt>
      <trkpt lat="45.54917" lon="6.45802">
        <ele>740</ele>
        <time>2011-07-11T16:48:21+02:00</time>
      </trkpt>
      <trkpt lat="45.54923" lon="6.45728">
        <ele>744</ele>
        <time>2011-07-11T16:48:48+02:00</time>
      </trkpt>
      <trkpt lat="45.54998" lon="6.45685">
        <ele>750</ele>
        <time>2011-07-11T16:49:28+02:00</time>
      </trkpt>
      <trkpt lat="45.55021" lon="6.45563">
        <ele>754</ele>
        <time>2011-07-11T16:50:04+02:00</time>
      </trkpt>
      <trkpt lat="45.55076" lon="6.45577">
        <ele>757</ele>
        <time>2011-07-11T16:50:35+02:00</time>
      </trkpt>
      <trkpt lat="45.55049" lon="6.45619">
        <ele>748</ele>
        <time>2011-07-12T07:50:30+02:00</time>
      </trkpt>
      <trkpt lat="45.55061" lon="6.4558">
        <ele>742</ele>
        <time>2011-07-12T07:52:49+02:00</time>
      </trkpt>
      <trkpt lat="45.55025" lon="6.4556">
        <ele>741</ele>
        <time>2011-07-12T07:53:37+02:00</time>
      </trkpt>
      <trkpt lat="45.54985" lon="6.457">
        <ele>736</ele>
        <time>2011-07-12T07:53:57+02:00</time>
      </trkpt>
      <trkpt lat="45.54924" lon="6.45721">
        <ele>731</ele>
        <time>2011-07-12T07:54:06+02:00</time>
      </trkpt>
      <trkpt lat="45.54927" lon="6.45777">
        <ele>727</ele>
        <time>2011-07-12T07:54:11+02:00</time>
      </trkpt>
      <trkpt lat="45.54812" lon="6.45818">
        <ele>716</ele>
        <time>2011-07-12T07:54:26+02:00</time>
      </trkpt>
      <trkpt lat="45.54682" lon="6.45988">
        <ele>707</ele>
        <time>2011-07-12T07:54:49+02:00</time>
      </trkpt>
      <trkpt lat="45.54401" lon="6.46098">
        <ele>730</ele>
        <time>2011-07-12T07:57:33+02:00</time>
      </trkpt>
      <trkpt lat="45.54153" lon="6.45979">
        <ele>747</ele>
        <time>2011-07-12T07:59:19+02:00</time>
      </trkpt>
      <trkpt lat="45.54118" lon="6.46004">
        <ele>750</ele>
        <time>2011-07-12T07:59:34+02:00</time>
      </trkpt>
      <trkpt lat="45.54" lon="6.45958">
        <ele>759</ele>
        <time>2011-07-12T08:00:26+02:00</time>
      </trkpt>
      <trkpt lat="45.53712" lon="6.45979">
        <ele>780</ele>
        <time>2011-07-12T08:02:22+02:00</time>
      </trkpt>
      <trkpt lat="45.5356" lon="6.46175">
        <ele>799</ele>
        <time>2011-07-12T08:03:53+02:00</time>
      </trkpt>
      <trkpt lat="45.53384" lon="6.46219">
        <ele>810</ele>
        <time>2011-07-12T08:05:02+02:00</time>
      </trkpt>
      <trkpt lat="45.5335" lon="6.46279">
        <ele>814</ele>
        <time>2011-07-12T08:05:26+02:00</time>
      </trkpt>
      <trkpt lat="45.52996" lon="6.46385">
        <ele>835</ele>
        <time>2011-07-12T08:07:39+02:00</time>
      </trkpt>
      <trkpt lat="45.52833" lon="6.46274">
        <ele>844</ele>
        <time>2011-07-12T08:08:43+02:00</time>
      </trkpt>
      <trkpt lat="45.52729" lon="6.46096">
        <ele>852</ele>
        <time>2011-07-12T08:09:38+02:00</time>
      </trkpt>
      <trkpt lat="45.5258" lon="6.46087">
        <ele>845</ele>
        <time>2011-07-12T08:11:32+02:00</time>
      </trkpt>
      <trkpt lat="45.5243" lon="6.46078">
        <ele>848</ele>
        <time>2021-06-21T11:43:39+02:00</time>
      </trkpt>
      <trkpt lat="45.52376" lon="6.46044">
        <ele>849</ele>
        <time>2011-07-12T08:16:30+02:00</time>
      </trkpt>
      <trkpt lat="45.52378" lon="6.46131">
        <ele>817</ele>
        <time>2021-06-21T11:43:49+02:00</time>
      </trkpt>
      <trkpt lat="45.52315" lon="6.46189">
        <ele>785</ele>
        <time>2021-06-21T11:43:54+02:00</time>
      </trkpt>
      <trkpt lat="45.52303" lon="6.46315">
        <ele>752</ele>
        <time>2021-06-21T11:43:59+02:00</time>
      </trkpt>
      <trkpt lat="45.52221" lon="6.46348">
        <ele>707</ele>
        <time>2021-06-21T11:44:04+02:00</time>
      </trkpt>
      <trkpt lat="45.52287" lon="6.46467">
        <ele>651</ele>
        <time>2021-06-21T11:44:09+02:00</time>
      </trkpt>
      <trkpt lat="45.52449" lon="6.46518">
        <ele>636</ele>
        <time>2021-06-21T11:44:14+02:00</time>
      </trkpt>
      <trkpt lat="45.52583" lon="6.46781">
        <ele>711</ele>
        <time>2011-07-12T08:18:12+02:00</time>
      </trkpt>
      <trkpt lat="45.52693" lon="6.46971">
        <ele>721</ele>
        <time>2011-07-12T08:18:42+02:00</time>
      </trkpt>
      <trkpt lat="45.52402" lon="6.46759">
        <ele>770</ele>
        <time>2011-07-12T08:19:35+02:00</time>
      </trkpt>
      <trkpt lat="45.52119" lon="6.46676">
        <ele>799</ele>
        <time>2011-07-12T08:19:39+02:00</time>
      </trkpt>
      <trkpt lat="45.52143" lon="6.46638">
        <ele>776</ele>
        <time>2021-06-21T11:44:39+02:00</time>
      </trkpt>
      <trkpt lat="45.51738" lon="6.46156">
        <ele>828</ele>
        <time>2011-07-12T08:20:24+02:00</time>
      </trkpt>
      <trkpt lat="45.51396" lon="6.45766">
        <ele>888</ele>
        <time>2011-07-12T08:20:55+02:00</time>
      </trkpt>
      <trkpt lat="45.51561" lon="6.46106">
        <ele>908</ele>
        <time>2011-07-12T08:21:37+02:00</time>
      </trkpt>
      <trkpt lat="45.51811" lon="6.46477">
        <ele>917</ele>
        <time>2011-07-12T08:23:17+02:00</time>
      </trkpt>
      <trkpt lat="45.51912" lon="6.46846">
        <ele>946</ele>
        <time>2011-07-12T08:23:56+02:00</time>
      </trkpt>
      <trkpt lat="45.52107" lon="6.47125">
        <ele>969</ele>
        <time>2011-07-12T08:24:40+02:00</time>
      </trkpt>
      <trkpt lat="45.51824" lon="6.46787">
        <ele>998</ele>
        <time>2011-07-12T08:25:40+02:00</time>
      </trkpt>
      <trkpt lat="45.51647" lon="6.46462">
        <ele>1001</ele>
        <time>2011-07-12T08:26:42+02:00</time>
      </trkpt>
      <trkpt lat="45.51912" lon="6.47179">
        <ele>1051</ele>
        <time>2011-07-12T08:27:45+02:00</time>
      </trkpt>
      <trkpt lat="45.51463" lon="6.46632">
        <ele>1094</ele>
        <time>2011-07-12T08:28:32+02:00</time>
      </trkpt>
      <trkpt lat="45.51405" lon="6.46383">
        <ele>1102</ele>
        <time>2011-07-12T08:29:00+02:00</time>
      </trkpt>
      <trkpt lat="45.51489" lon="6.46819">
        <ele>1104</ele>
        <time>2021-06-21T11:45:39+02:00</time>
      </trkpt>
      <trkpt lat="45.51152" lon="6.46533">
        <ele>1190</ele>
        <time>2021-06-21T11:45:44+02:00</time>
      </trkpt>
      <trkpt lat="45.5093" lon="6.46542">
        <ele>1214</ele>
        <time>2021-06-21T11:45:49+02:00</time>
      </trkpt>
      <trkpt lat="45.5048" lon="6.46081">
        <ele>1246</ele>
        <time>2011-07-12T08:29:33+02:00</time>
      </trkpt>
      <trkpt lat="45.50109" lon="6.45669">
        <ele>1265</ele>
        <time>2021-06-21T11:45:59+02:00</time>
      </trkpt>
      <trkpt lat="45.49498" lon="6.45337">
        <ele>1260</ele>
        <time>2011-07-12T08:30:05+02:00</time>
      </trkpt>
      <trkpt lat="45.48617" lon="6.43929">
        <ele>1401</ele>
        <time>2011-07-12T10:11:09+02:00</time>
      </trkpt>
      <trkpt lat="45.48598" lon="6.43767">
        <ele>1414</ele>
        <time>2011-07-12T10:12:35+02:00</time>
      </trkpt>
      <trkpt lat="45.48403" lon="6.43445">
        <ele>1435</ele>
        <time>2011-07-12T10:14:59+02:00</time>
      </trkpt>
      <trkpt lat="45.48334" lon="6.43435">
        <ele>1441</ele>
        <time>2011-07-12T10:15:41+02:00</time>
      </trkpt>
      <trkpt lat="45.4829" lon="6.43364">
        <ele>1445</ele>
        <time>2011-07-12T10:16:09+02:00</time>
      </trkpt>
      <trkpt lat="45.481" lon="6.43238">
        <ele>1467</ele>
        <time>2011-07-12T10:18:20+02:00</time>
      </trkpt>
      <trkpt lat="45.48032" lon="6.4313">
        <ele>1477</ele>
        <time>2011-07-12T10:19:25+02:00</time>
      </trkpt>
      <trkpt lat="45.47737" lon="6.42949">
        <ele>1504</ele>
        <time>2011-07-12T10:23:13+02:00</time>
      </trkpt>
      <trkpt lat="45.47695" lon="6.43021">
        <ele>1504</ele>
        <time>2011-07-12T10:23:26+02:00</time>
      </trkpt>
      <trkpt lat="45.47633" lon="6.43009">
        <ele>1507</ele>
        <time>2011-07-12T10:23:52+02:00</time>
      </trkpt>
      <trkpt lat="45.47629" lon="6.42953">
        <ele>1508</ele>
        <time>2011-07-12T10:25:20+02:00</time>
      </trkpt>
      <trkpt lat="45.47417" lon="6.42896">
        <ele>1532</ele>
        <time>2011-07-12T10:27:34+02:00</time>
      </trkpt>
      <trkpt lat="45.47398" lon="6.42924">
        <ele>1534</ele>
        <time>2011-07-12T10:27:50+02:00</time>
      </trkpt>
      <trkpt lat="45.47283" lon="6.42864">
        <ele>1554</ele>
        <time>2011-07-12T10:29:19+02:00</time>
      </trkpt>
      <trkpt lat="45.47003" lon="6.42425">
        <ele>1614</ele>
        <time>2011-07-12T10:34:36+02:00</time>
      </trkpt>
      <trkpt lat="45.46863" lon="6.42376">
        <ele>1631</ele>
        <time>2011-07-12T10:36:20+02:00</time>
      </trkpt>
      <trkpt lat="45.4669" lon="6.42162">
        <ele>1654</ele>
        <time>2011-07-12T10:38:58+02:00</time>
      </trkpt>
      <trkpt lat="45.4649" lon="6.42118">
        <ele>1674</ele>
        <time>2011-07-12T10:41:15+02:00</time>
      </trkpt>
      <trkpt lat="45.46357" lon="6.41988">
        <ele>1688</ele>
        <time>2011-07-12T10:46:59+02:00</time>
      </trkpt>
      <trkpt lat="45.46311" lon="6.41983">
        <ele>1690</ele>
        <time>2011-07-12T10:47:46+02:00</time>
      </trkpt>
      <trkpt lat="45.4618" lon="6.42086">
        <ele>1695</ele>
        <time>2011-07-12T10:48:46+02:00</time>
      </trkpt>
      <trkpt lat="45.45753" lon="6.42001">
        <ele>1706</ele>
        <time>2011-07-12T10:51:24+02:00</time>
      </trkpt>
      <trkpt lat="45.45569" lon="6.41884">
        <ele>1712</ele>
        <time>2011-07-12T10:52:49+02:00</time>
      </trkpt>
      <trkpt lat="45.45395" lon="6.41927">
        <ele>1744</ele>
        <time>2011-07-12T10:55:32+02:00</time>
      </trkpt>
      <trkpt lat="45.45408" lon="6.41886">
        <ele>1749</ele>
        <time>2011-07-12T10:56:04+02:00</time>
      </trkpt>
      <trkpt lat="45.45155" lon="6.419">
        <ele>1798</ele>
        <time>2011-07-12T11:00:04+02:00</time>
      </trkpt>
      <trkpt lat="45.45098" lon="6.4196">
        <ele>1810</ele>
        <time>2011-07-12T11:01:05+02:00</time>
      </trkpt>
      <trkpt lat="45.45004" lon="6.41982">
        <ele>1828</ele>
        <time>2011-07-12T11:06:06+02:00</time>
      </trkpt>
      <trkpt lat="45.4497" lon="6.42115">
        <ele>1840</ele>
        <time>2011-07-12T11:07:19+02:00</time>
      </trkpt>
      <trkpt lat="45.44987" lon="6.42168">
        <ele>1848</ele>
        <time>2011-07-12T11:07:57+02:00</time>
      </trkpt>
      <trkpt lat="45.44621" lon="6.42317">
        <ele>1897</ele>
        <time>2011-07-12T11:12:46+02:00</time>
      </trkpt>
      <trkpt lat="45.44448" lon="6.4197">
        <ele>1936</ele>
        <time>2011-07-12T11:16:56+02:00</time>
      </trkpt>
      <trkpt lat="45.44445" lon="6.41648">
        <ele>1964</ele>
        <time>2011-07-12T11:19:48+02:00</time>
      </trkpt>
      <trkpt lat="45.44477" lon="6.41515">
        <ele>1980</ele>
        <time>2011-07-12T11:21:14+02:00</time>
      </trkpt>
      <trkpt lat="45.44454" lon="6.41467">
        <ele>1986</ele>
        <time>2011-07-12T11:21:51+02:00</time>
      </trkpt>
      <trkpt lat="45.44383" lon="6.41475">
        <ele>1996</ele>
        <time>2011-07-12T11:23:01+02:00</time>
      </trkpt>
      <trkpt lat="45.44395" lon="6.41501">
        <ele>2001</ele>
        <time>2011-07-12T11:26:49+02:00</time>
      </trkpt>
      <trkpt lat="45.44289" lon="6.41452">
        <ele>2006</ele>
        <time>2011-07-12T11:33:23+02:00</time>
      </trkpt>
      <trkpt lat="45.4406" lon="6.41191">
        <ele>1995</ele>
        <time>2011-07-12T11:34:41+02:00</time>
      </trkpt>
      <trkpt lat="45.4401" lon="6.41184">
        <ele>1998</ele>
        <time>2011-07-12T11:35:04+02:00</time>
      </trkpt>
      <trkpt lat="45.43815" lon="6.40952">
        <ele>2022</ele>
        <time>2011-07-12T11:37:49+02:00</time>
      </trkpt>
      <trkpt lat="45.4368" lon="6.40874">
        <ele>2037</ele>
        <time>2011-07-12T11:39:27+02:00</time>
      </trkpt>
      <trkpt lat="45.43547" lon="6.40888">
        <ele>2050</ele>
        <time>2011-07-12T11:41:03+02:00</time>
      </trkpt>
      <trkpt lat="45.43545" lon="6.40752">
        <ele>2055</ele>
        <time>2011-07-12T11:43:22+02:00</time>
      </trkpt>
      <trkpt lat="45.43491" lon="6.40723">
        <ele>2060</ele>
        <time>2011-07-12T11:43:57+02:00</time>
      </trkpt>
      <trkpt lat="45.4347" lon="6.40643">
        <ele>2063</ele>
        <time>2011-07-12T11:44:30+02:00</time>
      </trkpt>
      <trkpt lat="45.43288" lon="6.40473">
        <ele>2083</ele>
        <time>2011-07-12T11:46:43+02:00</time>
      </trkpt>
      <trkpt lat="45.43167" lon="6.40299">
        <ele>2096</ele>
        <time>2011-07-12T11:48:29+02:00</time>
      </trkpt>
      <trkpt lat="45.43176" lon="6.40127">
        <ele>2110</ele>
        <time>2011-07-12T11:50:01+02:00</time>
      </trkpt>
      <trkpt lat="45.43127" lon="6.3979">
        <ele>2141</ele>
        <time>2011-07-12T11:53:12+02:00</time>
      </trkpt>
      <trkpt lat="45.43127" lon="6.39548">
        <ele>2171</ele>
        <time>2011-07-12T11:56:07+02:00</time>
      </trkpt>
      <trkpt lat="45.43086" lon="6.39515">
        <ele>2174</ele>
        <time>2011-07-12T12:01:12+02:00</time>
      </trkpt>
      <trkpt lat="45.42765" lon="6.39559">
        <ele>2131</ele>
        <time>2021-06-21T11:50:29+02:00</time>
      </trkpt>
      <trkpt lat="45.42582" lon="6.39504">
        <ele>2105</ele>
        <time>2011-07-12T12:04:49+02:00</time>
      </trkpt>
      <trkpt lat="45.42353" lon="6.39373">
        <ele>2078</ele>
        <time>2011-07-12T12:08:01+02:00</time>
      </trkpt>
      <trkpt lat="45.42297" lon="6.39184">
        <ele>2037</ele>
        <time>2011-07-12T12:09:58+02:00</time>
      </trkpt>
      <trkpt lat="45.42239" lon="6.38899">
        <ele>1996</ele>
        <time>2011-07-12T12:11:40+02:00</time>
      </trkpt>
      <trkpt lat="45.42109" lon="6.3887">
        <ele>1972</ele>
        <time>2011-07-12T12:12:09+02:00</time>
      </trkpt>
      <trkpt lat="45.42082" lon="6.38418">
        <ele>1932</ele>
        <time>2021-06-21T11:50:59+02:00</time>
      </trkpt>
      <trkpt lat="45.41954" lon="6.37999">
        <ele>1905</ele>
        <time>2011-07-12T13:30:15+02:00</time>
      </trkpt>
      <trkpt lat="45.41889" lon="6.38014">
        <ele>1899</ele>
        <time>2011-07-12T13:30:28+02:00</time>
      </trkpt>
      <trkpt lat="45.41602" lon="6.37865">
        <ele>1870</ele>
        <time>2011-07-12T13:32:12+02:00</time>
      </trkpt>
      <trkpt lat="45.41623" lon="6.37887">
        <ele>1874</ele>
        <time>2011-07-12T13:32:31+02:00</time>
      </trkpt>
      <trkpt lat="45.41509" lon="6.37927">
        <ele>1880</ele>
        <time>2011-07-12T13:33:37+02:00</time>
      </trkpt>
      <trkpt lat="45.41441" lon="6.37909">
        <ele>1883</ele>
        <time>2011-07-12T13:34:05+02:00</time>
      </trkpt>
      <trkpt lat="45.41284" lon="6.38197">
        <ele>1895</ele>
        <time>2011-07-12T13:35:30+02:00</time>
      </trkpt>
      <trkpt lat="45.41255" lon="6.38198">
        <ele>1897</ele>
        <time>2011-07-12T13:35:40+02:00</time>
      </trkpt>
      <trkpt lat="45.41163" lon="6.38035">
        <ele>1895</ele>
        <time>2011-07-12T13:36:49+02:00</time>
      </trkpt>
      <trkpt lat="45.41216" lon="6.38127">
        <ele>1901</ele>
        <time>2011-07-12T13:49:43+02:00</time>
      </trkpt>
      <trkpt lat="45.40978" lon="6.38088">
        <ele>1905</ele>
        <time>2011-07-12T13:50:58+02:00</time>
      </trkpt>
      <trkpt lat="45.40789" lon="6.37878">
        <ele>1908</ele>
        <time>2011-07-12T13:51:59+02:00</time>
      </trkpt>
      <trkpt lat="45.40706" lon="6.37701">
        <ele>1911</ele>
        <time>2011-07-12T13:52:35+02:00</time>
      </trkpt>
      <trkpt lat="45.40749" lon="6.37606">
        <ele>1913</ele>
        <time>2011-07-12T13:52:56+02:00</time>
      </trkpt>
      <trkpt lat="45.40725" lon="6.37361">
        <ele>1916</ele>
        <time>2011-07-12T13:53:43+02:00</time>
      </trkpt>
      <trkpt lat="45.40767" lon="6.3724">
        <ele>1918</ele>
        <time>2011-07-12T13:54:08+02:00</time>
      </trkpt>
      <trkpt lat="45.4062" lon="6.37032">
        <ele>1921</ele>
        <time>2011-07-12T13:55:01+02:00</time>
      </trkpt>
      <trkpt lat="45.40611" lon="6.36946">
        <ele>1920</ele>
        <time>2011-07-12T13:55:14+02:00</time>
      </trkpt>
      <trkpt lat="45.40658" lon="6.36869">
        <ele>1917</ele>
        <time>2011-07-12T13:55:27+02:00</time>
      </trkpt>
      <trkpt lat="45.40756" lon="6.36829">
        <ele>1911</ele>
        <time>2011-07-12T13:55:46+02:00</time>
      </trkpt>
      <trkpt lat="45.40688" lon="6.3668">
        <ele>1903</ele>
        <time>2011-07-12T13:56:07+02:00</time>
      </trkpt>
      <trkpt lat="45.4061" lon="6.3659">
        <ele>1895</ele>
        <time>2011-07-12T13:56:24+02:00</time>
      </trkpt>
      <trkpt lat="45.40526" lon="6.36381">
        <ele>1882</ele>
        <time>2011-07-12T13:56:55+02:00</time>
      </trkpt>
      <trkpt lat="45.40468" lon="6.36372">
        <ele>1878</ele>
        <time>2011-07-12T13:57:07+02:00</time>
      </trkpt>
      <trkpt lat="45.40301" lon="6.36004">
        <ele>1855</ele>
        <time>2011-07-12T13:58:52+02:00</time>
      </trkpt>
      <trkpt lat="45.40193" lon="6.359">
        <ele>1846</ele>
        <time>2011-07-12T13:59:16+02:00</time>
      </trkpt>
      <trkpt lat="45.40188" lon="6.36008">
        <ele>1838</ele>
        <time>2011-07-12T13:59:33+02:00</time>
      </trkpt>
      <trkpt lat="45.40129" lon="6.35839">
        <ele>1824</ele>
        <time>2011-07-12T14:00:03+02:00</time>
      </trkpt>
      <trkpt lat="45.40101" lon="6.36135">
        <ele>1805</ele>
        <time>2011-07-12T14:01:00+02:00</time>
      </trkpt>
      <trkpt lat="45.4014" lon="6.36197">
        <ele>1799</ele>
        <time>2011-07-12T14:01:12+02:00</time>
      </trkpt>
      <trkpt lat="45.40123" lon="6.36308">
        <ele>1791</ele>
        <time>2011-07-12T14:01:27+02:00</time>
      </trkpt>
      <trkpt lat="45.40045" lon="6.36368">
        <ele>1783</ele>
        <time>2011-07-12T14:01:44+02:00</time>
      </trkpt>
      <trkpt lat="45.40022" lon="6.365">
        <ele>1773</ele>
        <time>2011-07-12T14:02:04+02:00</time>
      </trkpt>
      <trkpt lat="45.39926" lon="6.36302">
        <ele>1757</ele>
        <time>2011-07-12T14:02:36+02:00</time>
      </trkpt>
      <trkpt lat="45.39769" lon="6.36428">
        <ele>1742</ele>
        <time>2011-07-12T14:03:14+02:00</time>
      </trkpt>
      <trkpt lat="45.39807" lon="6.36323">
        <ele>1735</ele>
        <time>2011-07-12T14:03:30+02:00</time>
      </trkpt>
      <trkpt lat="45.39781" lon="6.36267">
        <ele>1729</ele>
        <time>2011-07-12T14:03:40+02:00</time>
      </trkpt>
      <trkpt lat="45.39672" lon="6.36399">
        <ele>1717</ele>
        <time>2011-07-12T14:04:08+02:00</time>
      </trkpt>
      <trkpt lat="45.39515" lon="6.3636">
        <ele>1703</ele>
        <time>2011-07-12T14:04:34+02:00</time>
      </trkpt>
      <trkpt lat="45.39532" lon="6.36462">
        <ele>1700</ele>
        <time>2011-07-12T14:04:48+02:00</time>
      </trkpt>
      <trkpt lat="45.394" lon="6.36458">
        <ele>1692</ele>
        <time>2011-07-12T14:05:12+02:00</time>
      </trkpt>
      <trkpt lat="45.39294" lon="6.36395">
        <ele>1681</ele>
        <time>2011-07-12T14:05:32+02:00</time>
      </trkpt>
      <trkpt lat="45.39233" lon="6.3631">
        <ele>1677</ele>
        <time>2011-07-12T14:05:45+02:00</time>
      </trkpt>
      <trkpt lat="45.39143" lon="6.36292">
        <ele>1673</ele>
        <time>2011-07-12T14:06:02+02:00</time>
      </trkpt>
      <trkpt lat="45.39128" lon="6.36326">
        <ele>1673</ele>
        <time>2011-07-12T14:06:11+02:00</time>
      </trkpt>
      <trkpt lat="45.39027" lon="6.36303">
        <ele>1678</ele>
        <time>2011-07-12T14:06:53+02:00</time>
      </trkpt>
      <trkpt lat="45.38977" lon="6.36352">
        <ele>1675</ele>
        <time>2011-07-12T14:07:42+02:00</time>
      </trkpt>
      <trkpt lat="45.38873" lon="6.3635">
        <ele>1669</ele>
        <time>2011-07-12T14:07:59+02:00</time>
      </trkpt>
      <trkpt lat="45.3876" lon="6.36254">
        <ele>1663</ele>
        <time>2011-07-12T14:08:18+02:00</time>
      </trkpt>
      <trkpt lat="45.38663" lon="6.36238">
        <ele>1658</ele>
        <time>2011-07-12T14:08:32+02:00</time>
      </trkpt>
      <trkpt lat="45.38623" lon="6.36268">
        <ele>1656</ele>
        <time>2011-07-12T14:08:40+02:00</time>
      </trkpt>
      <trkpt lat="45.38611" lon="6.36371">
        <ele>1653</ele>
        <time>2011-07-12T14:08:50+02:00</time>
      </trkpt>
      <trkpt lat="45.38549" lon="6.3651">
        <ele>1646</ele>
        <time>2011-07-12T14:09:08+02:00</time>
      </trkpt>
      <trkpt lat="45.38469" lon="6.36531">
        <ele>1641</ele>
        <time>2011-07-12T14:09:20+02:00</time>
      </trkpt>
      <trkpt lat="45.38403" lon="6.36631">
        <ele>1631</ele>
        <time>2011-07-12T14:09:35+02:00</time>
      </trkpt>
      <trkpt lat="45.38291" lon="6.36518">
        <ele>1616</ele>
        <time>2011-07-12T14:10:10+02:00</time>
      </trkpt>
      <trkpt lat="45.38291" lon="6.36587">
        <ele>1610</ele>
        <time>2011-07-12T14:10:56+02:00</time>
      </trkpt>
      <trkpt lat="45.38234" lon="6.36497">
        <ele>1599</ele>
        <time>2011-07-12T14:11:15+02:00</time>
      </trkpt>
      <trkpt lat="45.38204" lon="6.36599">
        <ele>1590</ele>
        <time>2011-07-12T14:11:30+02:00</time>
      </trkpt>
      <trkpt lat="45.38186" lon="6.36468">
        <ele>1579</ele>
        <time>2011-07-12T14:11:49+02:00</time>
      </trkpt>
      <trkpt lat="45.38097" lon="6.36519">
        <ele>1566</ele>
        <time>2011-07-12T14:13:18+02:00</time>
      </trkpt>
      <trkpt lat="45.37968" lon="6.36495">
        <ele>1543</ele>
        <time>2011-07-12T14:16:57+02:00</time>
      </trkpt>
      <trkpt lat="45.38042" lon="6.36214">
        <ele>1496</ele>
        <time>2011-07-12T14:21:08+02:00</time>
      </trkpt>
      <trkpt lat="45.38006" lon="6.36184">
        <ele>1490</ele>
        <time>2011-07-12T14:21:22+02:00</time>
      </trkpt>
      <trkpt lat="45.37984" lon="6.36063">
        <ele>1467</ele>
        <time>2011-07-12T14:21:49+02:00</time>
      </trkpt>
      <trkpt lat="45.37922" lon="6.36012">
        <ele>1448</ele>
        <time>2011-07-12T14:22:11+02:00</time>
      </trkpt>
      <trkpt lat="45.37826" lon="6.36049">
        <ele>1440</ele>
        <time>2011-07-12T14:22:42+02:00</time>
      </trkpt>
      <trkpt lat="45.37676" lon="6.35949">
        <ele>1417</ele>
        <time>2011-07-12T14:23:10+02:00</time>
      </trkpt>
      <trkpt lat="45.37528" lon="6.35959">
        <ele>1392</ele>
        <time>2011-07-12T14:23:49+02:00</time>
      </trkpt>
      <trkpt lat="45.37459" lon="6.35873">
        <ele>1378</ele>
        <time>2011-07-12T14:24:26+02:00</time>
      </trkpt>
      <trkpt lat="45.37421" lon="6.35935">
        <ele>1377</ele>
        <time>2011-07-12T14:25:04+02:00</time>
      </trkpt>
      <trkpt lat="45.3732" lon="6.35949">
        <ele>1380</ele>
        <time>2011-07-12T14:25:44+02:00</time>
      </trkpt>
      <trkpt lat="45.37257" lon="6.36019">
        <ele>1375</ele>
        <time>2011-07-12T14:26:13+02:00</time>
      </trkpt>
      <trkpt lat="45.37229" lon="6.36">
        <ele>1376</ele>
        <time>2011-07-12T14:26:33+02:00</time>
      </trkpt>
      <trkpt lat="45.37127" lon="6.36211">
        <ele>1370</ele>
        <time>2011-07-12T14:31:03+02:00</time>
      </trkpt>
      <trkpt lat="45.37079" lon="6.36166">
        <ele>1373</ele>
        <time>2011-07-12T14:31:19+02:00</time>
      </trkpt>
      <trkpt lat="45.36993" lon="6.36159">
        <ele>1370</ele>
        <time>2011-07-12T14:31:44+02:00</time>
      </trkpt>
      <trkpt lat="45.36774" lon="6.36272">
        <ele>1366</ele>
        <time>2011-07-12T14:32:36+02:00</time>
      </trkpt>
      <trkpt lat="45.36518" lon="6.3624">
        <ele>1374</ele>
        <time>2011-07-12T14:33:54+02:00</time>
      </trkpt>
      <trkpt lat="45.36415" lon="6.36538">
        <ele>1368</ele>
        <time>2011-07-12T14:34:43+02:00</time>
      </trkpt>
      <trkpt lat="45.36345" lon="6.36631">
        <ele>1369</ele>
        <time>2011-07-12T14:35:00+02:00</time>
      </trkpt>
      <trkpt lat="45.36314" lon="6.36784">
        <ele>1362</ele>
        <time>2011-07-12T14:35:21+02:00</time>
      </trkpt>
      <trkpt lat="45.3629" lon="6.36786">
        <ele>1363</ele>
        <time>2011-07-12T14:35:26+02:00</time>
      </trkpt>
      <trkpt lat="45.36205" lon="6.36573">
        <ele>1375</ele>
        <time>2011-07-12T14:36:28+02:00</time>
      </trkpt>
      <trkpt lat="45.36172" lon="6.36553">
        <ele>1377</ele>
        <time>2011-07-12T14:36:40+02:00</time>
      </trkpt>
      <trkpt lat="45.36047" lon="6.3674">
        <ele>1367</ele>
        <time>2011-07-12T14:37:20+02:00</time>
      </trkpt>
      <trkpt lat="45.36088" lon="6.36541">
        <ele>1359</ele>
        <time>2011-07-12T14:38:07+02:00</time>
      </trkpt>
      <trkpt lat="45.36063" lon="6.36495">
        <ele>1361</ele>
        <time>2011-07-12T14:38:32+02:00</time>
      </trkpt>
      <trkpt lat="45.3598" lon="6.36463">
        <ele>1362</ele>
        <time>2011-07-12T14:38:57+02:00</time>
      </trkpt>
      <trkpt lat="45.3594" lon="6.36172">
        <ele>1362</ele>
        <time>2011-07-12T14:39:57+02:00</time>
      </trkpt>
      <trkpt lat="45.35911" lon="6.36132">
        <ele>1363</ele>
        <time>2011-07-12T14:40:07+02:00</time>
      </trkpt>
      <trkpt lat="45.35951" lon="6.36089">
        <ele>1362</ele>
        <time>2011-07-12T14:40:23+02:00</time>
      </trkpt>
      <trkpt lat="45.35832" lon="6.35866">
        <ele>1358</ele>
        <time>2011-07-12T14:41:07+02:00</time>
      </trkpt>
      <trkpt lat="45.3578" lon="6.35659">
        <ele>1351</ele>
        <time>2011-07-12T14:42:04+02:00</time>
      </trkpt>
      <trkpt lat="45.35782" lon="6.35707">
        <ele>1349</ele>
        <time>2011-07-12T14:42:14+02:00</time>
      </trkpt>
      <trkpt lat="45.35839" lon="6.35619">
        <ele>1343</ele>
        <time>2011-07-12T14:42:32+02:00</time>
      </trkpt>
      <trkpt lat="45.3588" lon="6.35447">
        <ele>1329</ele>
        <time>2011-07-12T14:43:02+02:00</time>
      </trkpt>
      <trkpt lat="45.35863" lon="6.35317">
        <ele>1321</ele>
        <time>2011-07-12T14:43:21+02:00</time>
      </trkpt>
      <trkpt lat="45.36029" lon="6.35059">
        <ele>1309</ele>
        <time>2011-07-12T14:46:55+02:00</time>
      </trkpt>
      <trkpt lat="45.35988" lon="6.34814">
        <ele>1299</ele>
        <time>2011-07-12T14:47:21+02:00</time>
      </trkpt>
      <trkpt lat="45.35926" lon="6.3468">
        <ele>1300</ele>
        <time>2011-07-12T14:47:43+02:00</time>
      </trkpt>
      <trkpt lat="45.35751" lon="6.3453">
        <ele>1304</ele>
        <time>2011-07-12T14:48:33+02:00</time>
      </trkpt>
      <trkpt lat="45.35709" lon="6.34444">
        <ele>1304</ele>
        <time>2011-07-12T14:48:48+02:00</time>
      </trkpt>
      <trkpt lat="45.35572" lon="6.3442">
        <ele>1307</ele>
        <time>2011-07-12T14:49:20+02:00</time>
      </trkpt>
      <trkpt lat="45.35433" lon="6.34174">
        <ele>1316</ele>
        <time>2011-07-12T14:50:22+02:00</time>
      </trkpt>
      <trkpt lat="45.35396" lon="6.34022">
        <ele>1320</ele>
        <time>2011-07-12T14:50:57+02:00</time>
      </trkpt>
      <trkpt lat="45.35484" lon="6.33917">
        <ele>1329</ele>
        <time>2011-07-12T14:51:51+02:00</time>
      </trkpt>
      <trkpt lat="45.35487" lon="6.33855">
        <ele>1330</ele>
        <time>2011-07-12T14:52:09+02:00</time>
      </trkpt>
      <trkpt lat="45.35563" lon="6.3376">
        <ele>1334</ele>
        <time>2011-07-12T14:53:05+02:00</time>
      </trkpt>
      <trkpt lat="45.35557" lon="6.33505">
        <ele>1346</ele>
        <time>2011-07-12T14:54:59+02:00</time>
      </trkpt>
      <trkpt lat="45.35494" lon="6.33412">
        <ele>1353</ele>
        <time>2011-07-12T14:55:47+02:00</time>
      </trkpt>
      <trkpt lat="45.35365" lon="6.33646">
        <ele>1361</ele>
        <time>2011-07-12T14:57:46+02:00</time>
      </trkpt>
      <trkpt lat="45.3528" lon="6.33718">
        <ele>1363</ele>
        <time>2011-07-12T14:58:25+02:00</time>
      </trkpt>
      <trkpt lat="45.35247" lon="6.33817">
        <ele>1367</ele>
        <time>2011-07-12T14:58:58+02:00</time>
      </trkpt>
      <trkpt lat="45.35018" lon="6.33957">
        <ele>1384</ele>
        <time>2011-07-12T15:02:04+02:00</time>
      </trkpt>
      <trkpt lat="45.34777" lon="6.33939">
        <ele>1392</ele>
        <time>2011-07-12T15:06:44+02:00</time>
      </trkpt>
      <trkpt lat="45.34237" lon="6.33452">
        <ele>1387</ele>
        <time>2011-07-12T15:09:49+02:00</time>
      </trkpt>
      <trkpt lat="45.34243" lon="6.33478">
        <ele>1390</ele>
        <time>2011-07-12T15:14:15+02:00</time>
      </trkpt>
      <trkpt lat="45.34147" lon="6.33257">
        <ele>1354</ele>
        <time>2011-07-12T15:16:57+02:00</time>
      </trkpt>
      <trkpt lat="45.34194" lon="6.33087">
        <ele>1330</ele>
        <time>2011-07-12T15:17:37+02:00</time>
      </trkpt>
      <trkpt lat="45.3417" lon="6.32985">
        <ele>1311</ele>
        <time>2011-07-12T15:18:11+02:00</time>
      </trkpt>
      <trkpt lat="45.33993" lon="6.32777">
        <ele>1275</ele>
        <time>2011-07-12T15:18:57+02:00</time>
      </trkpt>
      <trkpt lat="45.33609" lon="6.32995">
        <ele>1204</ele>
        <time>2011-07-12T15:21:59+02:00</time>
      </trkpt>
      <trkpt lat="45.33475" lon="6.33182">
        <ele>1173</ele>
        <time>2011-07-12T15:22:57+02:00</time>
      </trkpt>
      <trkpt lat="45.3308" lon="6.33421">
        <ele>1085</ele>
        <time>2011-07-12T15:26:10+02:00</time>
      </trkpt>
      <trkpt lat="45.33032" lon="6.33522">
        <ele>1072</ele>
        <time>2011-07-12T15:26:27+02:00</time>
      </trkpt>
      <trkpt lat="45.32826" lon="6.33685">
        <ele>1039</ele>
        <time>2011-07-12T15:27:16+02:00</time>
      </trkpt>
      <trkpt lat="45.32782" lon="6.33781">
        <ele>1030</ele>
        <time>2011-07-12T15:27:38+02:00</time>
      </trkpt>
      <trkpt lat="45.32745" lon="6.33792">
        <ele>1025</ele>
        <time>2011-07-12T15:27:58+02:00</time>
      </trkpt>
      <trkpt lat="45.32721" lon="6.33712">
        <ele>1015</ele>
        <time>2011-07-12T15:28:58+02:00</time>
      </trkpt>
      <trkpt lat="45.32748" lon="6.33492">
        <ele>993</ele>
        <time>2011-07-12T15:29:40+02:00</time>
      </trkpt>
      <trkpt lat="45.32694" lon="6.33483">
        <ele>985</ele>
        <time>2011-07-12T15:29:52+02:00</time>
      </trkpt>
      <trkpt lat="45.32466" lon="6.33805">
        <ele>945</ele>
        <time>2011-07-12T15:30:51+02:00</time>
      </trkpt>
      <trkpt lat="45.32462" lon="6.33904">
        <ele>933</ele>
        <time>2011-07-12T15:31:08+02:00</time>
      </trkpt>
      <trkpt lat="45.32407" lon="6.34051">
        <ele>906</ele>
        <time>2011-07-12T15:33:01+02:00</time>
      </trkpt>
      <trkpt lat="45.32209" lon="6.34224">
        <ele>877</ele>
        <time>2011-07-12T15:33:51+02:00</time>
      </trkpt>
      <trkpt lat="45.32237" lon="6.34217">
        <ele>879</ele>
        <time>2011-07-12T15:35:02+02:00</time>
      </trkpt>
      <trkpt lat="45.32153" lon="6.34282">
        <ele>857</ele>
        <time>2011-07-12T15:36:59+02:00</time>
      </trkpt>
      <trkpt lat="45.32141" lon="6.34208">
        <ele>843</ele>
        <time>2011-07-12T15:37:30+02:00</time>
      </trkpt>
      <trkpt lat="45.32099" lon="6.34229">
        <ele>832</ele>
        <time>2011-07-12T15:37:44+02:00</time>
      </trkpt>
      <trkpt lat="45.3207" lon="6.34509">
        <ele>831</ele>
        <time>2011-07-12T15:38:29+02:00</time>
      </trkpt>
      <trkpt lat="45.32027" lon="6.34567">
        <ele>827</ele>
        <time>2011-07-12T15:39:06+02:00</time>
      </trkpt>
      <trkpt lat="45.32019" lon="6.3481">
        <ele>820</ele>
        <time>2011-07-12T15:39:39+02:00</time>
      </trkpt>
      <trkpt lat="45.32088" lon="6.34937">
        <ele>809</ele>
        <time>2011-07-12T15:39:55+02:00</time>
      </trkpt>
      <trkpt lat="45.32049" lon="6.34979">
        <ele>809</ele>
        <time>2011-07-12T15:40:04+02:00</time>
      </trkpt>
      <trkpt lat="45.31903" lon="6.34893">
        <ele>801</ele>
        <time>2011-07-12T15:40:29+02:00</time>
      </trkpt>
      <trkpt lat="45.31692" lon="6.34904">
        <ele>786</ele>
        <time>2011-07-12T15:40:54+02:00</time>
      </trkpt>
      <trkpt lat="45.31663" lon="6.34971">
        <ele>782</ele>
        <time>2011-07-12T15:41:02+02:00</time>
      </trkpt>
      <trkpt lat="45.31439" lon="6.34919">
        <ele>768</ele>
        <time>2011-07-12T15:41:32+02:00</time>
      </trkpt>
      <trkpt lat="45.31376" lon="6.3499">
        <ele>767</ele>
        <time>2011-07-12T15:41:45+02:00</time>
      </trkpt>
      <trkpt lat="45.31372" lon="6.3511">
        <ele>769</ele>
        <time>2011-07-12T15:42:02+02:00</time>
      </trkpt>
      <trkpt lat="45.31228" lon="6.35311">
        <ele>781</ele>
        <time>2011-07-12T15:43:16+02:00</time>
      </trkpt>
      <trkpt lat="45.31038" lon="6.35407">
        <ele>795</ele>
        <time>2011-07-12T15:44:33+02:00</time>
      </trkpt>
      <trkpt lat="45.30836" lon="6.35617">
        <ele>807</ele>
        <time>2011-07-12T15:58:02+02:00</time>
      </trkpt>
      <trkpt lat="45.30643" lon="6.36001">
        <ele>804</ele>
        <time>2011-07-12T16:02:25+02:00</time>
      </trkpt>
      <trkpt lat="45.30646" lon="6.35975">
        <ele>796</ele>
        <time>2011-07-12T16:13:45+02:00</time>
      </trkpt>
      <trkpt lat="45.30635" lon="6.35998">
        <ele>795</ele>
        <time>2011-07-12T16:13:55+02:00</time>
      </trkpt>
      <trkpt lat="45.30504" lon="6.3593">
        <ele>774</ele>
        <time>2011-07-12T16:14:35+02:00</time>
      </trkpt>
      <trkpt lat="45.30482" lon="6.36035">
        <ele>773</ele>
        <time>2011-07-12T16:15:01+02:00</time>
      </trkpt>
      <trkpt lat="45.30554" lon="6.36133">
        <ele>769</ele>
        <time>2011-07-12T16:15:30+02:00</time>
      </trkpt>
      <trkpt lat="45.30544" lon="6.36273">
        <ele>775</ele>
        <time>2011-07-12T16:16:10+02:00</time>
      </trkpt>
      <trkpt lat="45.30498" lon="6.36393">
        <ele>760</ele>
        <time>2011-07-12T16:16:58+02:00</time>
      </trkpt>
      <trkpt lat="45.30393" lon="6.3653">
        <ele>735</ele>
        <time>2011-07-12T16:17:47+02:00</time>
      </trkpt>
      <trkpt lat="45.30316" lon="6.36577">
        <ele>718</ele>
        <time>2011-07-12T16:18:21+02:00</time>
      </trkpt>
      <trkpt lat="45.30337" lon="6.36475">
        <ele>702</ele>
        <time>2011-07-12T16:18:56+02:00</time>
      </trkpt>
      <trkpt lat="45.30316" lon="6.36341">
        <ele>683</ele>
        <time>2011-07-12T16:20:01+02:00</time>
      </trkpt>
      <trkpt lat="45.30241" lon="6.36436">
        <ele>661</ele>
        <time>2011-07-12T16:20:37+02:00</time>
      </trkpt>
      <trkpt lat="45.30006" lon="6.36518">
        <ele>619</ele>
        <time>2011-07-12T16:21:53+02:00</time>
      </trkpt>
      <trkpt lat="45.29868" lon="6.36494">
        <ele>609</ele>
        <time>2011-07-12T16:22:21+02:00</time>
      </trkpt>
      <trkpt lat="45.29635" lon="6.36306">
        <ele>582</ele>
        <time>2011-07-12T16:23:53+02:00</time>
      </trkpt>
      <trkpt lat="45.29352" lon="6.36187">
        <ele>560</ele>
        <time>2011-07-12T16:24:25+02:00</time>
      </trkpt>
      <trkpt lat="45.2919" lon="6.36177">
        <ele>551</ele>
        <time>2011-07-12T16:24:41+02:00</time>
      </trkpt>
      <trkpt lat="45.29173" lon="6.35956">
        <ele>550</ele>
        <time>2011-07-12T16:25:09+02:00</time>
      </trkpt>
      <trkpt lat="45.28951" lon="6.35907">
        <ele>551</ele>
        <time>2011-07-12T16:25:57+02:00</time>
      </trkpt>
      <trkpt lat="45.2893" lon="6.35864">
        <ele>552</ele>
        <time>2011-07-12T16:26:06+02:00</time>
      </trkpt>
      <trkpt lat="45.28944" lon="6.35611">
        <ele>553</ele>
        <time>2011-07-12T16:26:45+02:00</time>
      </trkpt>
      <trkpt lat="45.28735" lon="6.3552">
        <ele>555</ele>
        <time>2011-07-12T16:27:27+02:00</time>
      </trkpt>
      <trkpt lat="45.285" lon="6.35572">
        <ele>554</ele>
        <time>2011-07-12T16:28:05+02:00</time>
      </trkpt>
      <trkpt lat="45.28007" lon="6.35783">
        <ele>563</ele>
        <time>2011-07-12T16:29:35+02:00</time>
      </trkpt>
      <trkpt lat="45.27865" lon="6.36214">
        <ele>563</ele>
        <time>2011-07-12T16:30:24+02:00</time>
      </trkpt>
      <trkpt lat="45.2773" lon="6.3636">
        <ele>568</ele>
        <time>2011-07-12T16:30:52+02:00</time>
      </trkpt>
      <trkpt lat="45.27591" lon="6.3629">
        <ele>573</ele>
        <time>2011-07-12T16:31:23+02:00</time>
      </trkpt>
      <trkpt lat="45.27583" lon="6.36229">
        <ele>570</ele>
        <time>2011-07-12T16:31:31+02:00</time>
      </trkpt>
      <trkpt lat="45.27621" lon="6.36158">
        <ele>567</ele>
        <time>2011-07-12T16:31:39+02:00</time>
      </trkpt>
      <trkpt lat="45.27621" lon="6.36029">
        <ele>565</ele>
        <time>2011-07-12T16:31:51+02:00</time>
      </trkpt>
      <trkpt lat="45.27584" lon="6.35898">
        <ele>565</ele>
        <time>2011-07-12T16:32:14+02:00</time>
      </trkpt>
      <trkpt lat="45.27724" lon="6.35654">
        <ele>562</ele>
        <time>2011-07-12T16:32:54+02:00</time>
      </trkpt>
      <trkpt lat="45.27702" lon="6.35606">
        <ele>560</ele>
        <time>2011-07-12T16:32:59+02:00</time>
      </trkpt>
      <trkpt lat="45.27572" lon="6.35541">
        <ele>568</ele>
        <time>2011-07-12T16:33:24+02:00</time>
      </trkpt>
      <trkpt lat="45.27663" lon="6.35308">
        <ele>565</ele>
        <time>2011-07-12T16:34:00+02:00</time>
      </trkpt>
      <trkpt lat="45.27747" lon="6.34771">
        <ele>580</ele>
        <time>2011-07-12T16:35:36+02:00</time>
      </trkpt>
      <trkpt lat="45.27923" lon="6.34726">
        <ele>575</ele>
        <time>2011-07-12T16:36:11+02:00</time>
      </trkpt>
      <trkpt lat="45.27963" lon="6.34555">
        <ele>577</ele>
        <time>2011-07-12T16:36:37+02:00</time>
      </trkpt>
      <trkpt lat="45.27859" lon="6.34461">
        <ele>584</ele>
        <time>2011-07-12T16:37:18+02:00</time>
      </trkpt>
      <trkpt lat="45.27785" lon="6.3433">
        <ele>574</ele>
        <time>2011-07-13T08:54:37+02:00</time>
      </trkpt>
      <trkpt lat="45.27461" lon="6.34759">
        <ele>572</ele>
        <time>2011-07-13T08:58:21+02:00</time>
      </trkpt>
      <trkpt lat="45.27227" lon="6.34366">
        <ele>598</ele>
        <time>2011-07-13T09:00:41+02:00</time>
      </trkpt>
      <trkpt lat="45.27003" lon="6.34181">
        <ele>613</ele>
        <time>2011-07-13T09:02:16+02:00</time>
      </trkpt>
      <trkpt lat="45.26595" lon="6.33704">
        <ele>589</ele>
        <time>2011-07-13T09:03:39+02:00</time>
      </trkpt>
      <trkpt lat="45.26448" lon="6.33422">
        <ele>593</ele>
        <time>2011-07-13T09:04:45+02:00</time>
      </trkpt>
      <trkpt lat="45.25763" lon="6.32613">
        <ele>632</ele>
        <time>2011-07-13T09:09:40+02:00</time>
      </trkpt>
      <trkpt lat="45.25367" lon="6.32333">
        <ele>658</ele>
        <time>2011-07-13T09:12:06+02:00</time>
      </trkpt>
      <trkpt lat="45.24912" lon="6.32674">
        <ele>716</ele>
        <time>2011-07-13T09:17:36+02:00</time>
      </trkpt>
      <trkpt lat="45.24932" lon="6.32716">
        <ele>715</ele>
        <time>2011-07-13T09:18:30+02:00</time>
      </trkpt>
      <trkpt lat="45.24869" lon="6.32805">
        <ele>725</ele>
        <time>2011-07-13T09:19:49+02:00</time>
      </trkpt>
      <trkpt lat="45.24971" lon="6.32794">
        <ele>743</ele>
        <time>2011-07-13T09:21:24+02:00</time>
      </trkpt>
      <trkpt lat="45.25101" lon="6.32961">
        <ele>795</ele>
        <time>2011-07-13T09:29:03+02:00</time>
      </trkpt>
      <trkpt lat="45.25173" lon="6.32945">
        <ele>805</ele>
        <time>2011-07-13T09:29:58+02:00</time>
      </trkpt>
      <trkpt lat="45.2523" lon="6.33056">
        <ele>816</ele>
        <time>2011-07-13T09:31:20+02:00</time>
      </trkpt>
      <trkpt lat="45.25364" lon="6.33128">
        <ele>833</ele>
        <time>2011-07-13T09:33:07+02:00</time>
      </trkpt>
      <trkpt lat="45.25409" lon="6.33242">
        <ele>845</ele>
        <time>2011-07-13T09:34:21+02:00</time>
      </trkpt>
      <trkpt lat="45.25321" lon="6.33154">
        <ele>861</ele>
        <time>2011-07-13T09:35:58+02:00</time>
      </trkpt>
      <trkpt lat="45.25168" lon="6.33181">
        <ele>881</ele>
        <time>2011-07-13T09:37:54+02:00</time>
      </trkpt>
      <trkpt lat="45.25111" lon="6.3314">
        <ele>887</ele>
        <time>2011-07-13T09:38:42+02:00</time>
      </trkpt>
      <trkpt lat="45.25173" lon="6.33198">
        <ele>895</ele>
        <time>2011-07-13T09:39:42+02:00</time>
      </trkpt>
      <trkpt lat="45.25339" lon="6.33243">
        <ele>913</ele>
        <time>2011-07-13T09:42:56+02:00</time>
      </trkpt>
      <trkpt lat="45.25363" lon="6.33311">
        <ele>924</ele>
        <time>2011-07-13T09:46:49+02:00</time>
      </trkpt>
      <trkpt lat="45.25108" lon="6.33238">
        <ele>958</ele>
        <time>2011-07-13T09:50:37+02:00</time>
      </trkpt>
      <trkpt lat="45.25273" lon="6.33404">
        <ele>982</ele>
        <time>2011-07-13T09:53:27+02:00</time>
      </trkpt>
      <trkpt lat="45.25016" lon="6.33334">
        <ele>1024</ele>
        <time>2011-07-13T09:57:30+02:00</time>
      </trkpt>
      <trkpt lat="45.24946" lon="6.33362">
        <ele>1040</ele>
        <time>2011-07-13T09:58:53+02:00</time>
      </trkpt>
      <trkpt lat="45.24848" lon="6.33289">
        <ele>1063</ele>
        <time>2011-07-13T10:01:16+02:00</time>
      </trkpt>
      <trkpt lat="45.24626" lon="6.33394">
        <ele>1104</ele>
        <time>2011-07-13T10:05:02+02:00</time>
      </trkpt>
      <trkpt lat="45.24645" lon="6.33488">
        <ele>1107</ele>
        <time>2011-07-13T10:05:54+02:00</time>
      </trkpt>
      <trkpt lat="45.24667" lon="6.33476">
        <ele>1116</ele>
        <time>2011-07-13T10:17:22+02:00</time>
      </trkpt>
      <trkpt lat="45.24579" lon="6.33715">
        <ele>1130</ele>
        <time>2011-07-13T10:20:23+02:00</time>
      </trkpt>
      <trkpt lat="45.24576" lon="6.33887">
        <ele>1148</ele>
        <time>2011-07-13T10:21:57+02:00</time>
      </trkpt>
      <trkpt lat="45.24454" lon="6.33942">
        <ele>1158</ele>
        <time>2011-07-13T10:23:06+02:00</time>
      </trkpt>
      <trkpt lat="45.24347" lon="6.34065">
        <ele>1142</ele>
        <time>2011-07-13T10:27:56+02:00</time>
      </trkpt>
      <trkpt lat="45.24155" lon="6.34047">
        <ele>1136</ele>
        <time>2011-07-13T10:29:37+02:00</time>
      </trkpt>
      <trkpt lat="45.24029" lon="6.34121">
        <ele>1149</ele>
        <time>2011-07-13T10:31:01+02:00</time>
      </trkpt>
      <trkpt lat="45.23718" lon="6.34164">
        <ele>1161</ele>
        <time>2011-07-13T10:34:07+02:00</time>
      </trkpt>
      <trkpt lat="45.23655" lon="6.34206">
        <ele>1164</ele>
        <time>2011-07-13T10:36:12+02:00</time>
      </trkpt>
      <trkpt lat="45.23588" lon="6.34379">
        <ele>1159</ele>
        <time>2011-07-13T10:37:01+02:00</time>
      </trkpt>
      <trkpt lat="45.23512" lon="6.34418">
        <ele>1159</ele>
        <time>2011-07-13T10:37:34+02:00</time>
      </trkpt>
      <trkpt lat="45.23465" lon="6.34496">
        <ele>1164</ele>
        <time>2011-07-13T10:38:37+02:00</time>
      </trkpt>
      <trkpt lat="45.23435" lon="6.34831">
        <ele>1221</ele>
        <time>2011-07-13T10:53:31+02:00</time>
      </trkpt>
      <trkpt lat="45.23357" lon="6.34656">
        <ele>1244</ele>
        <time>2011-07-13T10:56:48+02:00</time>
      </trkpt>
      <trkpt lat="45.23333" lon="6.34699">
        <ele>1252</ele>
        <time>2011-07-13T10:58:07+02:00</time>
      </trkpt>
      <trkpt lat="45.23323" lon="6.34655">
        <ele>1262</ele>
        <time>2011-07-13T10:59:25+02:00</time>
      </trkpt>
      <trkpt lat="45.23265" lon="6.34742">
        <ele>1297</ele>
        <time>2011-07-13T11:06:02+02:00</time>
      </trkpt>
      <trkpt lat="45.2329" lon="6.3487">
        <ele>1321</ele>
        <time>2011-07-13T11:09:07+02:00</time>
      </trkpt>
      <trkpt lat="45.23193" lon="6.3512">
        <ele>1358</ele>
        <time>2011-07-13T11:16:30+02:00</time>
      </trkpt>
      <trkpt lat="45.23219" lon="6.35241">
        <ele>1365</ele>
        <time>2011-07-13T11:27:04+02:00</time>
      </trkpt>
      <trkpt lat="45.2321" lon="6.35404">
        <ele>1370</ele>
        <time>2011-07-13T11:27:50+02:00</time>
      </trkpt>
      <trkpt lat="45.23242" lon="6.35493">
        <ele>1369</ele>
        <time>2011-07-13T11:28:10+02:00</time>
      </trkpt>
      <trkpt lat="45.2347" lon="6.35313">
        <ele>1371</ele>
        <time>2011-07-13T11:29:18+02:00</time>
      </trkpt>
      <trkpt lat="45.23557" lon="6.35198">
        <ele>1379</ele>
        <time>2011-07-13T11:30:02+02:00</time>
      </trkpt>
      <trkpt lat="45.2325" lon="6.35614">
        <ele>1398</ele>
        <time>2011-07-13T11:32:29+02:00</time>
      </trkpt>
      <trkpt lat="45.2319" lon="6.35512">
        <ele>1403</ele>
        <time>2011-07-13T11:32:59+02:00</time>
      </trkpt>
      <trkpt lat="45.23112" lon="6.35472">
        <ele>1408</ele>
        <time>2011-07-13T11:33:25+02:00</time>
      </trkpt>
      <trkpt lat="45.22998" lon="6.35599">
        <ele>1411</ele>
        <time>2011-07-13T11:34:04+02:00</time>
      </trkpt>
      <trkpt lat="45.22805" lon="6.35595">
        <ele>1425</ele>
        <time>2011-07-13T11:35:12+02:00</time>
      </trkpt>
      <trkpt lat="45.22684" lon="6.35778">
        <ele>1424</ele>
        <time>2011-07-13T11:35:58+02:00</time>
      </trkpt>
      <trkpt lat="45.22624" lon="6.35722">
        <ele>1423</ele>
        <time>2011-07-13T11:36:10+02:00</time>
      </trkpt>
      <trkpt lat="45.22649" lon="6.35581">
        <ele>1432</ele>
        <time>2011-07-13T11:36:42+02:00</time>
      </trkpt>
      <trkpt lat="45.22616" lon="6.35462">
        <ele>1434</ele>
        <time>2011-07-13T11:37:09+02:00</time>
      </trkpt>
      <trkpt lat="45.22528" lon="6.35401">
        <ele>1440</ele>
        <time>2011-07-13T11:37:39+02:00</time>
      </trkpt>
      <trkpt lat="45.22438" lon="6.35421">
        <ele>1449</ele>
        <time>2011-07-13T11:38:16+02:00</time>
      </trkpt>
      <trkpt lat="45.22419" lon="6.35461">
        <ele>1453</ele>
        <time>2011-07-13T11:38:31+02:00</time>
      </trkpt>
      <trkpt lat="45.22149" lon="6.35457">
        <ele>1480</ele>
        <time>2011-07-13T11:40:32+02:00</time>
      </trkpt>
      <trkpt lat="45.22019" lon="6.35345">
        <ele>1495</ele>
        <time>2011-07-13T11:41:42+02:00</time>
      </trkpt>
      <trkpt lat="45.219" lon="6.3535">
        <ele>1502</ele>
        <time>2011-07-13T11:42:29+02:00</time>
      </trkpt>
      <trkpt lat="45.21829" lon="6.35291">
        <ele>1496</ele>
        <time>2011-07-13T11:42:42+02:00</time>
      </trkpt>
      <trkpt lat="45.21833" lon="6.35121">
        <ele>1493</ele>
        <time>2011-07-13T11:42:59+02:00</time>
      </trkpt>
      <trkpt lat="45.21884" lon="6.35044">
        <ele>1495</ele>
        <time>2011-07-13T11:43:14+02:00</time>
      </trkpt>
      <trkpt lat="45.21882" lon="6.34993">
        <ele>1496</ele>
        <time>2011-07-13T11:43:23+02:00</time>
      </trkpt>
      <trkpt lat="45.21791" lon="6.34856">
        <ele>1497</ele>
        <time>2011-07-13T11:43:51+02:00</time>
      </trkpt>
      <trkpt lat="45.21793" lon="6.34675">
        <ele>1503</ele>
        <time>2011-07-13T11:44:23+02:00</time>
      </trkpt>
      <trkpt lat="45.2189" lon="6.34469">
        <ele>1511</ele>
        <time>2011-07-13T11:45:13+02:00</time>
      </trkpt>
      <trkpt lat="45.2187" lon="6.34084">
        <ele>1514</ele>
        <time>2011-07-13T11:46:32+02:00</time>
      </trkpt>
      <trkpt lat="45.21836" lon="6.34017">
        <ele>1512</ele>
        <time>2011-07-13T11:46:49+02:00</time>
      </trkpt>
      <trkpt lat="45.2183" lon="6.3382">
        <ele>1515</ele>
        <time>2011-07-13T12:09:28+02:00</time>
      </trkpt>
      <trkpt lat="45.21787" lon="6.33789">
        <ele>1516</ele>
        <time>2011-07-13T12:09:44+02:00</time>
      </trkpt>
      <trkpt lat="45.21775" lon="6.33696">
        <ele>1517</ele>
        <time>2011-07-13T12:10:02+02:00</time>
      </trkpt>
      <trkpt lat="45.21709" lon="6.33616">
        <ele>1516</ele>
        <time>2011-07-13T12:11:27+02:00</time>
      </trkpt>
      <trkpt lat="45.21721" lon="6.33567">
        <ele>1514</ele>
        <time>2011-07-13T12:20:12+02:00</time>
      </trkpt>
      <trkpt lat="45.21642" lon="6.3353">
        <ele>1513</ele>
        <time>2011-07-13T12:20:36+02:00</time>
      </trkpt>
      <trkpt lat="45.21447" lon="6.33227">
        <ele>1513</ele>
        <time>2011-07-13T12:22:03+02:00</time>
      </trkpt>
      <trkpt lat="45.21396" lon="6.33201">
        <ele>1515</ele>
        <time>2011-07-13T12:22:27+02:00</time>
      </trkpt>
      <trkpt lat="45.21323" lon="6.33047">
        <ele>1525</ele>
        <time>2011-07-13T12:23:31+02:00</time>
      </trkpt>
      <trkpt lat="45.21327" lon="6.32927">
        <ele>1525</ele>
        <time>2011-07-13T12:24:01+02:00</time>
      </trkpt>
      <trkpt lat="45.21248" lon="6.32579">
        <ele>1511</ele>
        <time>2011-07-13T12:25:12+02:00</time>
      </trkpt>
      <trkpt lat="45.21213" lon="6.32582">
        <ele>1509</ele>
        <time>2011-07-13T12:25:20+02:00</time>
      </trkpt>
      <trkpt lat="45.21119" lon="6.32734">
        <ele>1507</ele>
        <time>2011-07-13T12:25:54+02:00</time>
      </trkpt>
      <trkpt lat="45.21026" lon="6.32725">
        <ele>1502</ele>
        <time>2011-07-13T12:26:20+02:00</time>
      </trkpt>
      <trkpt lat="45.20825" lon="6.3257">
        <ele>1490</ele>
        <time>2011-07-13T12:27:19+02:00</time>
      </trkpt>
      <trkpt lat="45.20735" lon="6.3245">
        <ele>1486</ele>
        <time>2011-07-13T12:28:01+02:00</time>
      </trkpt>
      <trkpt lat="45.20657" lon="6.32524">
        <ele>1487</ele>
        <time>2011-07-13T12:28:26+02:00</time>
      </trkpt>
      <trkpt lat="45.2059" lon="6.32684">
        <ele>1487</ele>
        <time>2011-07-13T12:29:02+02:00</time>
      </trkpt>
      <trkpt lat="45.20602" lon="6.32929">
        <ele>1488</ele>
        <time>2011-07-13T12:29:44+02:00</time>
      </trkpt>
      <trkpt lat="45.20559" lon="6.33085">
        <ele>1489</ele>
        <time>2011-07-13T12:30:17+02:00</time>
      </trkpt>
      <trkpt lat="45.20454" lon="6.33193">
        <ele>1490</ele>
        <time>2011-07-13T12:31:07+02:00</time>
      </trkpt>
      <trkpt lat="45.20375" lon="6.33352">
        <ele>1491</ele>
        <time>2011-07-13T12:31:57+02:00</time>
      </trkpt>
      <trkpt lat="45.2014" lon="6.33337">
        <ele>1479</ele>
        <time>2011-07-13T12:33:18+02:00</time>
      </trkpt>
      <trkpt lat="45.19981" lon="6.33399">
        <ele>1468</ele>
        <time>2011-07-13T12:33:51+02:00</time>
      </trkpt>
      <trkpt lat="45.19915" lon="6.33324">
        <ele>1463</ele>
        <time>2011-07-13T12:34:01+02:00</time>
      </trkpt>
      <trkpt lat="45.19788" lon="6.33325">
        <ele>1454</ele>
        <time>2011-07-13T12:34:15+02:00</time>
      </trkpt>
      <trkpt lat="45.19645" lon="6.3321">
        <ele>1448</ele>
        <time>2011-07-13T12:34:34+02:00</time>
      </trkpt>
      <trkpt lat="45.19585" lon="6.33101">
        <ele>1451</ele>
        <time>2011-07-13T12:34:50+02:00</time>
      </trkpt>
      <trkpt lat="45.19607" lon="6.3285">
        <ele>1450</ele>
        <time>2011-07-13T12:35:27+02:00</time>
      </trkpt>
      <trkpt lat="45.1959" lon="6.32725">
        <ele>1443</ele>
        <time>2011-07-13T12:35:40+02:00</time>
      </trkpt>
      <trkpt lat="45.19643" lon="6.3259">
        <ele>1434</ele>
        <time>2011-07-13T12:35:53+02:00</time>
      </trkpt>
      <trkpt lat="45.19744" lon="6.32452">
        <ele>1424</ele>
        <time>2011-07-13T12:36:08+02:00</time>
      </trkpt>
      <trkpt lat="45.19776" lon="6.32334">
        <ele>1416</ele>
        <time>2011-07-13T12:36:17+02:00</time>
      </trkpt>
      <trkpt lat="45.19857" lon="6.32215">
        <ele>1407</ele>
        <time>2011-07-13T12:36:30+02:00</time>
      </trkpt>
      <trkpt lat="45.19888" lon="6.32112">
        <ele>1401</ele>
        <time>2011-07-13T12:36:40+02:00</time>
      </trkpt>
      <trkpt lat="45.19984" lon="6.3204">
        <ele>1394</ele>
        <time>2011-07-13T12:36:53+02:00</time>
      </trkpt>
      <trkpt lat="45.20025" lon="6.31947">
        <ele>1388</ele>
        <time>2011-07-13T12:37:02+02:00</time>
      </trkpt>
      <trkpt lat="45.2015" lon="6.31957">
        <ele>1380</ele>
        <time>2011-07-13T12:37:16+02:00</time>
      </trkpt>
      <trkpt lat="45.20207" lon="6.31698">
        <ele>1363</ele>
        <time>2011-07-13T12:37:39+02:00</time>
      </trkpt>
      <trkpt lat="45.20155" lon="6.31295">
        <ele>1340</ele>
        <time>2011-07-13T12:38:10+02:00</time>
      </trkpt>
      <trkpt lat="45.20108" lon="6.31214">
        <ele>1333</ele>
        <time>2011-07-13T12:38:20+02:00</time>
      </trkpt>
      <trkpt lat="45.20148" lon="6.31152">
        <ele>1328</ele>
        <time>2011-07-13T12:38:30+02:00</time>
      </trkpt>
      <trkpt lat="45.19901" lon="6.30895">
        <ele>1294</ele>
        <time>2011-07-13T12:39:09+02:00</time>
      </trkpt>
      <trkpt lat="45.19921" lon="6.30675">
        <ele>1276</ele>
        <time>2011-07-13T12:39:27+02:00</time>
      </trkpt>
      <trkpt lat="45.19668" lon="6.30396">
        <ele>1243</ele>
        <time>2011-07-13T12:40:00+02:00</time>
      </trkpt>
      <trkpt lat="45.19653" lon="6.30326">
        <ele>1237</ele>
        <time>2011-07-13T12:40:07+02:00</time>
      </trkpt>
      <trkpt lat="45.19698" lon="6.30308">
        <ele>1237</ele>
        <time>2011-07-13T12:40:16+02:00</time>
      </trkpt>
      <trkpt lat="45.19691" lon="6.30126">
        <ele>1229</ele>
        <time>2011-07-13T12:41:02+02:00</time>
      </trkpt>
      <trkpt lat="45.19625" lon="6.30033">
        <ele>1227</ele>
        <time>2011-07-13T12:41:23+02:00</time>
      </trkpt>
      <trkpt lat="45.19578" lon="6.29856">
        <ele>1225</ele>
        <time>2011-07-13T12:41:50+02:00</time>
      </trkpt>
      <trkpt lat="45.19391" lon="6.2973">
        <ele>1232</ele>
        <time>2011-07-13T12:42:44+02:00</time>
      </trkpt>
      <trkpt lat="45.19235" lon="6.2925">
        <ele>1256</ele>
        <time>2011-07-13T12:44:43+02:00</time>
      </trkpt>
      <trkpt lat="45.19286" lon="6.29028">
        <ele>1271</ele>
        <time>2011-07-13T12:51:52+02:00</time>
      </trkpt>
      <trkpt lat="45.1923" lon="6.28949">
        <ele>1274</ele>
        <time>2011-07-13T12:52:20+02:00</time>
      </trkpt>
      <trkpt lat="45.19235" lon="6.28778">
        <ele>1278</ele>
        <time>2011-07-13T12:53:00+02:00</time>
      </trkpt>
      <trkpt lat="45.19276" lon="6.28676">
        <ele>1283</ele>
        <time>2011-07-13T12:53:26+02:00</time>
      </trkpt>
      <trkpt lat="45.19253" lon="6.28584">
        <ele>1285</ele>
        <time>2011-07-13T12:53:48+02:00</time>
      </trkpt>
      <trkpt lat="45.1947" lon="6.28378">
        <ele>1300</ele>
        <time>2011-07-13T12:55:10+02:00</time>
      </trkpt>
      <trkpt lat="45.19604" lon="6.28175">
        <ele>1309</ele>
        <time>2011-07-13T12:56:07+02:00</time>
      </trkpt>
      <trkpt lat="45.19639" lon="6.28196">
        <ele>1311</ele>
        <time>2011-07-13T12:57:25+02:00</time>
      </trkpt>
      <trkpt lat="45.1973" lon="6.27984">
        <ele>1325</ele>
        <time>2011-07-13T12:58:25+02:00</time>
      </trkpt>
      <trkpt lat="45.1978" lon="6.27957">
        <ele>1330</ele>
        <time>2011-07-13T12:58:45+02:00</time>
      </trkpt>
      <trkpt lat="45.20119" lon="6.27404">
        <ele>1355</ele>
        <time>2011-07-13T13:03:16+02:00</time>
      </trkpt>
      <trkpt lat="45.20077" lon="6.27302">
        <ele>1355</ele>
        <time>2011-07-13T13:03:34+02:00</time>
      </trkpt>
      <trkpt lat="45.2018" lon="6.26916">
        <ele>1366</ele>
        <time>2011-07-13T13:04:48+02:00</time>
      </trkpt>
      <trkpt lat="45.20381" lon="6.26603">
        <ele>1384</ele>
        <time>2011-07-13T13:06:19+02:00</time>
      </trkpt>
      <trkpt lat="45.20576" lon="6.26462">
        <ele>1394</ele>
        <time>2011-07-13T13:07:21+02:00</time>
      </trkpt>
      <trkpt lat="45.21596" lon="6.24888">
        <ele>1473</ele>
        <time>2011-07-13T13:12:56+02:00</time>
      </trkpt>
      <trkpt lat="45.22083" lon="6.23623">
        <ele>1503</ele>
        <time>2021-06-21T12:19:24+02:00</time>
      </trkpt>
      <trkpt lat="45.22148" lon="6.22956">
        <ele>1518</ele>
        <time>2021-06-21T12:19:29+02:00</time>
      </trkpt>
      <trkpt lat="45.22016" lon="6.22296">
        <ele>1582</ele>
        <time>2011-07-14T07:53:46+02:00</time>
      </trkpt>
      <trkpt lat="45.21918" lon="6.22359">
        <ele>1593</ele>
        <time>2011-07-14T07:54:45+02:00</time>
      </trkpt>
      <trkpt lat="45.21808" lon="6.22497">
        <ele>1607</ele>
        <time>2011-07-14T07:55:58+02:00</time>
      </trkpt>
      <trkpt lat="45.21591" lon="6.22623">
        <ele>1622</ele>
        <time>2011-07-14T07:57:37+02:00</time>
      </trkpt>
      <trkpt lat="45.21409" lon="6.22556">
        <ele>1624</ele>
        <time>2011-07-14T07:58:46+02:00</time>
      </trkpt>
      <trkpt lat="45.21169" lon="6.22587">
        <ele>1625</ele>
        <time>2011-07-14T07:59:51+02:00</time>
      </trkpt>
      <trkpt lat="45.20979" lon="6.22722">
        <ele>1631</ele>
        <time>2011-07-14T08:01:05+02:00</time>
      </trkpt>
      <trkpt lat="45.20693" lon="6.22689">
        <ele>1644</ele>
        <time>2011-07-14T08:02:53+02:00</time>
      </trkpt>
      <trkpt lat="45.20508" lon="6.22724">
        <ele>1646</ele>
        <time>2011-07-14T08:03:47+02:00</time>
      </trkpt>
      <trkpt lat="45.20358" lon="6.2268">
        <ele>1637</ele>
        <time>2011-07-14T08:04:16+02:00</time>
      </trkpt>
      <trkpt lat="45.20318" lon="6.22744">
        <ele>1635</ele>
        <time>2011-07-14T08:04:23+02:00</time>
      </trkpt>
      <trkpt lat="45.20171" lon="6.22742">
        <ele>1635</ele>
        <time>2011-07-14T08:04:52+02:00</time>
      </trkpt>
      <trkpt lat="45.19656" lon="6.22485">
        <ele>1623</ele>
        <time>2011-07-14T08:07:30+02:00</time>
      </trkpt>
      <trkpt lat="45.19363" lon="6.22168">
        <ele>1604</ele>
        <time>2011-07-14T08:08:19+02:00</time>
      </trkpt>
      <trkpt lat="45.19368" lon="6.22252">
        <ele>1602</ele>
        <time>2011-07-14T08:08:30+02:00</time>
      </trkpt>
      <trkpt lat="45.19327" lon="6.22354">
        <ele>1601</ele>
        <time>2011-07-14T08:18:15+02:00</time>
      </trkpt>
      <trkpt lat="45.19133" lon="6.2232">
        <ele>1611</ele>
        <time>2011-07-14T08:19:35+02:00</time>
      </trkpt>
      <trkpt lat="45.19013" lon="6.2235">
        <ele>1618</ele>
        <time>2011-07-14T08:20:29+02:00</time>
      </trkpt>
      <trkpt lat="45.18981" lon="6.224">
        <ele>1621</ele>
        <time>2011-07-14T08:20:49+02:00</time>
      </trkpt>
      <trkpt lat="45.1886" lon="6.22411">
        <ele>1631</ele>
        <time>2011-07-14T08:21:50+02:00</time>
      </trkpt>
      <trkpt lat="45.18495" lon="6.2218">
        <ele>1656</ele>
        <time>2011-07-14T08:29:56+02:00</time>
      </trkpt>
      <trkpt lat="45.18364" lon="6.22222">
        <ele>1696</ele>
        <time>2011-07-14T08:33:29+02:00</time>
      </trkpt>
      <trkpt lat="45.18365" lon="6.22251">
        <ele>1703</ele>
        <time>2011-07-14T08:34:07+02:00</time>
      </trkpt>
      <trkpt lat="45.18156" lon="6.22291">
        <ele>1740</ele>
        <time>2011-07-14T08:38:31+02:00</time>
      </trkpt>
      <trkpt lat="45.18095" lon="6.22373">
        <ele>1746</ele>
        <time>2011-07-14T08:39:53+02:00</time>
      </trkpt>
      <trkpt lat="45.18039" lon="6.22354">
        <ele>1746</ele>
        <time>2011-07-14T08:40:32+02:00</time>
      </trkpt>
      <trkpt lat="45.1789" lon="6.22164">
        <ele>1743</ele>
        <time>2011-07-14T08:42:36+02:00</time>
      </trkpt>
      <trkpt lat="45.17858" lon="6.22229">
        <ele>1741</ele>
        <time>2011-07-14T08:43:07+02:00</time>
      </trkpt>
      <trkpt lat="45.17807" lon="6.22232">
        <ele>1746</ele>
        <time>2011-07-14T08:43:58+02:00</time>
      </trkpt>
      <trkpt lat="45.17738" lon="6.22111">
        <ele>1750</ele>
        <time>2011-07-14T08:51:19+02:00</time>
      </trkpt>
      <trkpt lat="45.17654" lon="6.22158">
        <ele>1743</ele>
        <time>2011-07-14T08:52:00+02:00</time>
      </trkpt>
      <trkpt lat="45.17504" lon="6.22075">
        <ele>1735</ele>
        <time>2011-07-14T08:56:34+02:00</time>
      </trkpt>
      <trkpt lat="45.17481" lon="6.21998">
        <ele>1742</ele>
        <time>2011-07-14T08:58:07+02:00</time>
      </trkpt>
      <trkpt lat="45.17277" lon="6.21956">
        <ele>1766</ele>
        <time>2011-07-14T09:02:24+02:00</time>
      </trkpt>
      <trkpt lat="45.17114" lon="6.21996">
        <ele>1785</ele>
        <time>2011-07-14T09:05:24+02:00</time>
      </trkpt>
      <trkpt lat="45.17093" lon="6.22039">
        <ele>1784</ele>
        <time>2011-07-14T09:05:50+02:00</time>
      </trkpt>
      <trkpt lat="45.17032" lon="6.22008">
        <ele>1793</ele>
        <time>2011-07-14T09:07:47+02:00</time>
      </trkpt>
      <trkpt lat="45.17016" lon="6.22047">
        <ele>1802</ele>
        <time>2011-07-14T09:10:54+02:00</time>
      </trkpt>
      <trkpt lat="45.17043" lon="6.2207">
        <ele>1808</ele>
        <time>2011-07-14T09:11:35+02:00</time>
      </trkpt>
      <trkpt lat="45.16893" lon="6.22152">
        <ele>1827</ele>
        <time>2011-07-14T09:14:38+02:00</time>
      </trkpt>
      <trkpt lat="45.16858" lon="6.22231">
        <ele>1828</ele>
        <time>2011-07-14T09:15:34+02:00</time>
      </trkpt>
      <trkpt lat="45.16814" lon="6.22223">
        <ele>1819</ele>
        <time>2011-07-14T09:15:51+02:00</time>
      </trkpt>
      <trkpt lat="45.16803" lon="6.22181">
        <ele>1824</ele>
        <time>2011-07-14T09:16:17+02:00</time>
      </trkpt>
      <trkpt lat="45.16595" lon="6.22258">
        <ele>1856</ele>
        <time>2011-07-14T09:24:43+02:00</time>
      </trkpt>
      <trkpt lat="45.16442" lon="6.22436">
        <ele>1887</ele>
        <time>2011-07-14T09:29:39+02:00</time>
      </trkpt>
      <trkpt lat="45.16259" lon="6.22386">
        <ele>1891</ele>
        <time>2011-07-14T09:33:38+02:00</time>
      </trkpt>
      <trkpt lat="45.16256" lon="6.22424">
        <ele>1884</ele>
        <time>2011-07-14T09:34:09+02:00</time>
      </trkpt>
      <trkpt lat="45.16217" lon="6.22441">
        <ele>1872</ele>
        <time>2011-07-14T09:34:57+02:00</time>
      </trkpt>
      <trkpt lat="45.16187" lon="6.22377">
        <ele>1873</ele>
        <time>2011-07-14T09:40:20+02:00</time>
      </trkpt>
      <trkpt lat="45.16148" lon="6.22458">
        <ele>1903</ele>
        <time>2011-07-14T09:43:13+02:00</time>
      </trkpt>
      <trkpt lat="45.16062" lon="6.22498">
        <ele>1942</ele>
        <time>2011-07-14T09:47:24+02:00</time>
      </trkpt>
      <trkpt lat="45.16087" lon="6.22557">
        <ele>1958</ele>
        <time>2011-07-14T09:49:20+02:00</time>
      </trkpt>
      <trkpt lat="45.16067" lon="6.22562">
        <ele>1965</ele>
        <time>2011-07-14T09:49:56+02:00</time>
      </trkpt>
      <trkpt lat="45.16097" lon="6.22599">
        <ele>1976</ele>
        <time>2011-07-14T09:51:32+02:00</time>
      </trkpt>
      <trkpt lat="45.16085" lon="6.22651">
        <ele>2000</ele>
        <time>2011-07-14T09:53:52+02:00</time>
      </trkpt>
      <trkpt lat="45.16058" lon="6.22642">
        <ele>2009</ele>
        <time>2011-07-14T09:54:38+02:00</time>
      </trkpt>
      <trkpt lat="45.16079" lon="6.22688">
        <ele>2020</ele>
        <time>2011-07-14T09:55:50+02:00</time>
      </trkpt>
      <trkpt lat="45.16042" lon="6.22668">
        <ele>2031</ele>
        <time>2011-07-14T09:56:56+02:00</time>
      </trkpt>
      <trkpt lat="45.16056" lon="6.22704">
        <ele>2040</ele>
        <time>2011-07-14T09:57:43+02:00</time>
      </trkpt>
      <trkpt lat="45.15751" lon="6.22684">
        <ele>2096</ele>
        <time>2011-07-14T10:11:44+02:00</time>
      </trkpt>
      <trkpt lat="45.15603" lon="6.22747">
        <ele>2095</ele>
        <time>2011-07-14T10:13:31+02:00</time>
      </trkpt>
      <trkpt lat="45.15493" lon="6.22653">
        <ele>2111</ele>
        <time>2011-07-14T10:20:02+02:00</time>
      </trkpt>
      <trkpt lat="45.1528" lon="6.22616">
        <ele>2123</ele>
        <time>2011-07-14T10:23:22+02:00</time>
      </trkpt>
      <trkpt lat="45.15296" lon="6.22562">
        <ele>2113</ele>
        <time>2011-07-14T10:24:55+02:00</time>
      </trkpt>
      <trkpt lat="45.1504" lon="6.22594">
        <ele>2131</ele>
        <time>2011-07-14T10:33:05+02:00</time>
      </trkpt>
      <trkpt lat="45.15008" lon="6.22548">
        <ele>2134</ele>
        <time>2011-07-14T10:33:46+02:00</time>
      </trkpt>
      <trkpt lat="45.14975" lon="6.22567">
        <ele>2141</ele>
        <time>2011-07-14T10:34:37+02:00</time>
      </trkpt>
      <trkpt lat="45.1497" lon="6.22539">
        <ele>2147</ele>
        <time>2011-07-14T10:35:12+02:00</time>
      </trkpt>
      <trkpt lat="45.14932" lon="6.22567">
        <ele>2155</ele>
        <time>2011-07-14T10:36:09+02:00</time>
      </trkpt>
      <trkpt lat="45.14908" lon="6.22505">
        <ele>2172</ele>
        <time>2011-07-14T10:38:03+02:00</time>
      </trkpt>
      <trkpt lat="45.14682" lon="6.22546">
        <ele>2221</ele>
        <time>2011-07-14T10:44:15+02:00</time>
      </trkpt>
      <trkpt lat="45.14616" lon="6.22513">
        <ele>2240</ele>
        <time>2011-07-14T10:46:09+02:00</time>
      </trkpt>
      <trkpt lat="45.14551" lon="6.22357">
        <ele>2260</ele>
        <time>2011-07-14T10:49:11+02:00</time>
      </trkpt>
      <trkpt lat="45.14456" lon="6.22302">
        <ele>2282</ele>
        <time>2011-07-14T10:51:25+02:00</time>
      </trkpt>
      <trkpt lat="45.14376" lon="6.22158">
        <ele>2295</ele>
        <time>2011-07-14T10:53:56+02:00</time>
      </trkpt>
      <trkpt lat="45.14423" lon="6.22005">
        <ele>2316</ele>
        <time>2011-07-14T11:04:57+02:00</time>
      </trkpt>
      <trkpt lat="45.14416" lon="6.21925">
        <ele>2323</ele>
        <time>2011-07-14T11:06:05+02:00</time>
      </trkpt>
      <trkpt lat="45.14462" lon="6.21813">
        <ele>2341</ele>
        <time>2011-07-14T11:07:59+02:00</time>
      </trkpt>
      <trkpt lat="45.14704" lon="6.21777">
        <ele>2360</ele>
        <time>2011-07-14T11:11:58+02:00</time>
      </trkpt>
      <trkpt lat="45.15051" lon="6.21446">
        <ele>2364</ele>
        <time>2011-07-14T11:18:12+02:00</time>
      </trkpt>
      <trkpt lat="45.15081" lon="6.2135">
        <ele>2365</ele>
        <time>2011-07-14T11:25:09+02:00</time>
      </trkpt>
      <trkpt lat="45.15039" lon="6.21193">
        <ele>2380</ele>
        <time>2011-07-14T11:27:30+02:00</time>
      </trkpt>
      <trkpt lat="45.15091" lon="6.21117">
        <ele>2386</ele>
        <time>2011-07-14T11:28:58+02:00</time>
      </trkpt>
      <trkpt lat="45.15312" lon="6.20963">
        <ele>2347</ele>
        <time>2011-07-14T11:36:08+02:00</time>
      </trkpt>
      <trkpt lat="45.15662" lon="6.20874">
        <ele>2296</ele>
        <time>2011-07-14T11:41:09+02:00</time>
      </trkpt>
      <trkpt lat="45.15712" lon="6.20802">
        <ele>2296</ele>
        <time>2011-07-14T11:43:26+02:00</time>
      </trkpt>
      <trkpt lat="45.15669" lon="6.20728">
        <ele>2308</ele>
        <time>2011-07-14T11:44:47+02:00</time>
      </trkpt>
      <trkpt lat="45.1571" lon="6.20689">
        <ele>2317</ele>
        <time>2011-07-14T11:45:40+02:00</time>
      </trkpt>
      <trkpt lat="45.15726" lon="6.2061">
        <ele>2318</ele>
        <time>2011-07-14T11:48:43+02:00</time>
      </trkpt>
      <trkpt lat="45.15598" lon="6.20123">
        <ele>2324</ele>
        <time>2011-07-14T11:52:45+02:00</time>
      </trkpt>
      <trkpt lat="45.15614" lon="6.19999">
        <ele>2327</ele>
        <time>2011-07-14T11:53:47+02:00</time>
      </trkpt>
      <trkpt lat="45.15587" lon="6.19883">
        <ele>2330</ele>
        <time>2011-07-14T11:55:10+02:00</time>
      </trkpt>
      <trkpt lat="45.15611" lon="6.19788">
        <ele>2323</ele>
        <time>2011-07-14T12:03:41+02:00</time>
      </trkpt>
      <trkpt lat="45.15482" lon="6.19636">
        <ele>2340</ele>
        <time>2011-07-14T12:06:42+02:00</time>
      </trkpt>
      <trkpt lat="45.15302" lon="6.19637">
        <ele>2373</ele>
        <time>2011-07-14T12:10:15+02:00</time>
      </trkpt>
      <trkpt lat="45.15228" lon="6.19698">
        <ele>2385</ele>
        <time>2011-07-14T12:11:51+02:00</time>
      </trkpt>
      <trkpt lat="45.15117" lon="6.19649">
        <ele>2437</ele>
        <time>2011-07-14T12:16:17+02:00</time>
      </trkpt>
      <trkpt lat="45.15133" lon="6.19628">
        <ele>2443</ele>
        <time>2011-07-14T12:17:34+02:00</time>
      </trkpt>
      <trkpt lat="45.15106" lon="6.19619">
        <ele>2454</ele>
        <time>2011-07-14T12:18:26+02:00</time>
      </trkpt>
      <trkpt lat="45.15124" lon="6.19597">
        <ele>2464</ele>
        <time>2011-07-14T12:19:17+02:00</time>
      </trkpt>
      <trkpt lat="45.14728" lon="6.19383">
        <ele>2461</ele>
        <time>2011-07-14T12:34:26+02:00</time>
      </trkpt>
      <trkpt lat="45.14547" lon="6.19363">
        <ele>2441</ele>
        <time>2011-07-14T12:35:12+02:00</time>
      </trkpt>
      <trkpt lat="45.14403" lon="6.19167">
        <ele>2419</ele>
        <time>2011-07-14T12:35:56+02:00</time>
      </trkpt>
      <trkpt lat="45.14363" lon="6.19063">
        <ele>2404</ele>
        <time>2011-07-14T12:37:42+02:00</time>
      </trkpt>
      <trkpt lat="45.14306" lon="6.19009">
        <ele>2390</ele>
        <time>2011-07-14T12:38:29+02:00</time>
      </trkpt>
      <trkpt lat="45.14213" lon="6.19079">
        <ele>2377</ele>
        <time>2011-07-14T12:39:24+02:00</time>
      </trkpt>
      <trkpt lat="45.14116" lon="6.19096">
        <ele>2366</ele>
        <time>2011-07-14T12:40:03+02:00</time>
      </trkpt>
      <trkpt lat="45.1398" lon="6.18956">
        <ele>2352</ele>
        <time>2011-07-14T12:42:11+02:00</time>
      </trkpt>
      <trkpt lat="45.13996" lon="6.18847">
        <ele>2340</ele>
        <time>2011-07-14T12:43:06+02:00</time>
      </trkpt>
      <trkpt lat="45.14045" lon="6.18778">
        <ele>2330</ele>
        <time>2011-07-14T12:44:36+02:00</time>
      </trkpt>
      <trkpt lat="45.1403" lon="6.18726">
        <ele>2323</ele>
        <time>2011-07-14T12:50:33+02:00</time>
      </trkpt>
      <trkpt lat="45.14145" lon="6.18766">
        <ele>2344</ele>
        <time>2011-07-14T12:52:42+02:00</time>
      </trkpt>
      <trkpt lat="45.14173" lon="6.18742">
        <ele>2340</ele>
        <time>2011-07-14T12:53:20+02:00</time>
      </trkpt>
      <trkpt lat="45.14003" lon="6.18651">
        <ele>2315</ele>
        <time>2011-07-14T12:55:16+02:00</time>
      </trkpt>
      <trkpt lat="45.14013" lon="6.1851">
        <ele>2294</ele>
        <time>2011-07-14T12:56:53+02:00</time>
      </trkpt>
      <trkpt lat="45.14111" lon="6.18261">
        <ele>2255</ele>
        <time>2011-07-14T12:59:31+02:00</time>
      </trkpt>
      <trkpt lat="45.14104" lon="6.18168">
        <ele>2229</ele>
        <time>2011-07-14T13:00:31+02:00</time>
      </trkpt>
      <trkpt lat="45.13998" lon="6.18211">
        <ele>2200</ele>
        <time>2011-07-14T13:01:38+02:00</time>
      </trkpt>
      <trkpt lat="45.13963" lon="6.1819">
        <ele>2184</ele>
        <time>2011-07-14T13:02:05+02:00</time>
      </trkpt>
      <trkpt lat="45.13973" lon="6.18117">
        <ele>2173</ele>
        <time>2011-07-14T13:02:34+02:00</time>
      </trkpt>
      <trkpt lat="45.13675" lon="6.18257">
        <ele>2106</ele>
        <time>2011-07-14T13:30:35+02:00</time>
      </trkpt>
      <trkpt lat="45.13676" lon="6.18215">
        <ele>2098</ele>
        <time>2011-07-14T13:30:50+02:00</time>
      </trkpt>
      <trkpt lat="45.13564" lon="6.18147">
        <ele>2064</ele>
        <time>2011-07-14T13:33:57+02:00</time>
      </trkpt>
      <trkpt lat="45.13476" lon="6.17954">
        <ele>2041</ele>
        <time>2011-07-14T13:36:21+02:00</time>
      </trkpt>
      <trkpt lat="45.13504" lon="6.17946">
        <ele>2042</ele>
        <time>2011-07-14T13:37:05+02:00</time>
      </trkpt>
      <trkpt lat="45.13369" lon="6.17915">
        <ele>2037</ele>
        <time>2011-07-14T13:40:09+02:00</time>
      </trkpt>
      <trkpt lat="45.13341" lon="6.17872">
        <ele>2032</ele>
        <time>2011-07-14T13:56:50+02:00</time>
      </trkpt>
      <trkpt lat="45.13256" lon="6.17856">
        <ele>2025</ele>
        <time>2011-07-14T13:59:31+02:00</time>
      </trkpt>
      <trkpt lat="45.1312" lon="6.17901">
        <ele>2010</ele>
        <time>2011-07-14T14:01:28+02:00</time>
      </trkpt>
      <trkpt lat="45.12869" lon="6.17848">
        <ele>2002</ele>
        <time>2011-07-14T14:03:26+02:00</time>
      </trkpt>
      <trkpt lat="45.12574" lon="6.17636">
        <ele>1987</ele>
        <time>2011-07-14T14:08:06+02:00</time>
      </trkpt>
      <trkpt lat="45.12547" lon="6.17584">
        <ele>1987</ele>
        <time>2011-07-14T14:08:31+02:00</time>
      </trkpt>
      <trkpt lat="45.12434" lon="6.17624">
        <ele>1986</ele>
        <time>2011-07-14T14:09:46+02:00</time>
      </trkpt>
      <trkpt lat="45.12291" lon="6.17611">
        <ele>1990</ele>
        <time>2011-07-14T14:10:59+02:00</time>
      </trkpt>
      <trkpt lat="45.12142" lon="6.1751">
        <ele>1979</ele>
        <time>2011-07-14T14:12:30+02:00</time>
      </trkpt>
      <trkpt lat="45.12036" lon="6.17369">
        <ele>1950</ele>
        <time>2011-07-14T14:13:19+02:00</time>
      </trkpt>
      <trkpt lat="45.1164" lon="6.17236">
        <ele>1904</ele>
        <time>2011-07-14T14:15:55+02:00</time>
      </trkpt>
      <trkpt lat="45.11245" lon="6.16996">
        <ele>1873</ele>
        <time>2011-07-14T14:19:40+02:00</time>
      </trkpt>
      <trkpt lat="45.11243" lon="6.16904">
        <ele>1864</ele>
        <time>2011-07-14T14:20:34+02:00</time>
      </trkpt>
      <trkpt lat="45.11163" lon="6.1684">
        <ele>1858</ele>
        <time>2011-07-14T14:21:37+02:00</time>
      </trkpt>
      <trkpt lat="45.11046" lon="6.16891">
        <ele>1818</ele>
        <time>2011-07-14T14:23:23+02:00</time>
      </trkpt>
      <trkpt lat="45.10928" lon="6.16833">
        <ele>1800</ele>
        <time>2011-07-14T14:27:30+02:00</time>
      </trkpt>
      <trkpt lat="45.10882" lon="6.1677">
        <ele>1790</ele>
        <time>2011-07-14T14:27:49+02:00</time>
      </trkpt>
      <trkpt lat="45.10785" lon="6.16761">
        <ele>1765</ele>
        <time>2011-07-14T14:28:24+02:00</time>
      </trkpt>
      <trkpt lat="45.10824" lon="6.16721">
        <ele>1742</ele>
        <time>2011-07-14T14:29:15+02:00</time>
      </trkpt>
      <trkpt lat="45.10787" lon="6.16696">
        <ele>1731</ele>
        <time>2011-07-14T14:29:37+02:00</time>
      </trkpt>
      <trkpt lat="45.10798" lon="6.16667">
        <ele>1725</ele>
        <time>2011-07-14T14:29:45+02:00</time>
      </trkpt>
      <trkpt lat="45.10698" lon="6.16644">
        <ele>1740</ele>
        <time>2011-07-14T14:33:37+02:00</time>
      </trkpt>
      <trkpt lat="45.10631" lon="6.16485">
        <ele>1752</ele>
        <time>2011-07-14T14:34:40+02:00</time>
      </trkpt>
      <trkpt lat="45.10293" lon="6.16167">
        <ele>1728</ele>
        <time>2011-07-14T14:36:15+02:00</time>
      </trkpt>
      <trkpt lat="45.10006" lon="6.16016">
        <ele>1731</ele>
        <time>2011-07-14T14:37:36+02:00</time>
      </trkpt>
      <trkpt lat="45.09754" lon="6.15695">
        <ele>1768</ele>
        <time>2011-07-14T14:40:11+02:00</time>
      </trkpt>
      <trkpt lat="45.09604" lon="6.15607">
        <ele>1783</ele>
        <time>2011-07-14T14:41:25+02:00</time>
      </trkpt>
      <trkpt lat="45.09376" lon="6.15318">
        <ele>1818</ele>
        <time>2011-07-14T14:43:55+02:00</time>
      </trkpt>
      <trkpt lat="45.093" lon="6.15276">
        <ele>1824</ele>
        <time>2011-07-14T14:44:32+02:00</time>
      </trkpt>
      <trkpt lat="45.094" lon="6.15278">
        <ele>1834</ele>
        <time>2011-07-14T14:45:21+02:00</time>
      </trkpt>
      <trkpt lat="45.09731" lon="6.15454">
        <ele>1873</ele>
        <time>2011-07-14T14:48:33+02:00</time>
      </trkpt>
      <trkpt lat="45.09521" lon="6.15196">
        <ele>1903</ele>
        <time>2011-07-14T14:51:02+02:00</time>
      </trkpt>
      <trkpt lat="45.09193" lon="6.15028">
        <ele>1937</ele>
        <time>2011-07-14T14:54:26+02:00</time>
      </trkpt>
      <trkpt lat="45.09085" lon="6.14896">
        <ele>1955</ele>
        <time>2011-07-14T14:55:47+02:00</time>
      </trkpt>
      <trkpt lat="45.08998" lon="6.14949">
        <ele>1965</ele>
        <time>2011-07-14T14:56:38+02:00</time>
      </trkpt>
      <trkpt lat="45.09044" lon="6.14875">
        <ele>1973</ele>
        <time>2011-07-14T14:57:19+02:00</time>
      </trkpt>
      <trkpt lat="45.08863" lon="6.14941">
        <ele>1991</ele>
        <time>2011-07-14T14:58:55+02:00</time>
      </trkpt>
      <trkpt lat="45.08628" lon="6.14846">
        <ele>1993</ele>
        <time>2011-07-14T15:15:10+02:00</time>
      </trkpt>
      <trkpt lat="45.0851" lon="6.14709">
        <ele>1983</ele>
        <time>2011-07-14T15:15:28+02:00</time>
      </trkpt>
      <trkpt lat="45.08204" lon="6.1421">
        <ele>1939</ele>
        <time>2011-07-14T15:16:18+02:00</time>
      </trkpt>
      <trkpt lat="45.08107" lon="6.13869">
        <ele>1911</ele>
        <time>2011-07-14T15:16:44+02:00</time>
      </trkpt>
      <trkpt lat="45.08078" lon="6.13566">
        <ele>1887</ele>
        <time>2011-07-14T15:17:04+02:00</time>
      </trkpt>
      <trkpt lat="45.07976" lon="6.13189">
        <ele>1859</ele>
        <time>2011-07-14T15:17:34+02:00</time>
      </trkpt>
      <trkpt lat="45.0801" lon="6.13091">
        <ele>1851</ele>
        <time>2011-07-14T15:17:46+02:00</time>
      </trkpt>
      <trkpt lat="45.08068" lon="6.13214">
        <ele>1842</ele>
        <time>2011-07-14T15:18:09+02:00</time>
      </trkpt>
      <trkpt lat="45.08167" lon="6.13163">
        <ele>1834</ele>
        <time>2011-07-14T15:18:30+02:00</time>
      </trkpt>
      <trkpt lat="45.08151" lon="6.13077">
        <ele>1829</ele>
        <time>2011-07-14T15:18:42+02:00</time>
      </trkpt>
      <trkpt lat="45.08195" lon="6.12944">
        <ele>1821</ele>
        <time>2011-07-14T15:18:58+02:00</time>
      </trkpt>
      <trkpt lat="45.08138" lon="6.12654">
        <ele>1806</ele>
        <time>2011-07-14T15:19:25+02:00</time>
      </trkpt>
      <trkpt lat="45.07976" lon="6.12375">
        <ele>1786</ele>
        <time>2011-07-14T15:20:00+02:00</time>
      </trkpt>
      <trkpt lat="45.07891" lon="6.11905">
        <ele>1772</ele>
        <time>2011-07-14T15:20:43+02:00</time>
      </trkpt>
      <trkpt lat="45.08038" lon="6.11333">
        <ele>1790</ele>
        <time>2011-07-14T15:23:36+02:00</time>
      </trkpt>
      <trkpt lat="45.08031" lon="6.10978">
        <ele>1793</ele>
        <time>2011-07-14T15:24:57+02:00</time>
      </trkpt>
      <trkpt lat="45.08193" lon="6.10902">
        <ele>1806</ele>
        <time>2011-07-14T15:26:24+02:00</time>
      </trkpt>
      <trkpt lat="45.08392" lon="6.10738">
        <ele>1825</ele>
        <time>2011-07-14T15:28:32+02:00</time>
      </trkpt>
      <trkpt lat="45.08442" lon="6.10623">
        <ele>1834</ele>
        <time>2011-07-14T15:29:28+02:00</time>
      </trkpt>
      <trkpt lat="45.0853" lon="6.10574">
        <ele>1841</ele>
        <time>2011-07-14T15:30:20+02:00</time>
      </trkpt>
      <trkpt lat="45.08481" lon="6.10436">
        <ele>1845</ele>
        <time>2011-07-14T15:31:02+02:00</time>
      </trkpt>
      <trkpt lat="45.08475" lon="6.09802">
        <ele>1845</ele>
        <time>2011-07-14T15:35:28+02:00</time>
      </trkpt>
      <trkpt lat="45.08595" lon="6.09214">
        <ele>1841</ele>
        <time>2011-07-14T15:36:41+02:00</time>
      </trkpt>
      <trkpt lat="45.08518" lon="6.08474">
        <ele>1821</ele>
        <time>2011-07-14T15:38:59+02:00</time>
      </trkpt>
      <trkpt lat="45.08614" lon="6.0817">
        <ele>1815</ele>
        <time>2011-07-14T15:39:53+02:00</time>
      </trkpt>
      <trkpt lat="45.08561" lon="6.07971">
        <ele>1803</ele>
        <time>2011-07-14T15:40:18+02:00</time>
      </trkpt>
      <trkpt lat="45.08575" lon="6.07939">
        <ele>1805</ele>
        <time>2011-07-14T15:40:24+02:00</time>
      </trkpt>
      <trkpt lat="45.08707" lon="6.07985">
        <ele>1814</ele>
        <time>2011-07-14T15:41:10+02:00</time>
      </trkpt>
      <trkpt lat="45.08946" lon="6.07746">
        <ele>1811</ele>
        <time>2011-07-14T15:42:57+02:00</time>
      </trkpt>
      <trkpt lat="45.0893" lon="6.07687">
        <ele>1807</ele>
        <time>2011-07-14T15:43:17+02:00</time>
      </trkpt>
      <trkpt lat="45.08971" lon="6.07655">
        <ele>1807</ele>
        <time>2011-07-14T15:49:01+02:00</time>
      </trkpt>
      <trkpt lat="45.08995" lon="6.07496">
        <ele>1802</ele>
        <time>2011-07-14T16:04:25+02:00</time>
      </trkpt>
      <trkpt lat="45.09234" lon="6.07232">
        <ele>1818</ele>
        <time>2011-07-14T16:09:37+02:00</time>
      </trkpt>
      <trkpt lat="45.09901" lon="6.06859">
        <ele>1866</ele>
        <time>2011-07-14T16:15:42+02:00</time>
      </trkpt>
      <trkpt lat="45.1018" lon="6.06763">
        <ele>1888</ele>
        <time>2011-07-14T16:17:43+02:00</time>
      </trkpt>
      <trkpt lat="45.10317" lon="6.06677">
        <ele>1901</ele>
        <time>2011-07-14T16:18:53+02:00</time>
      </trkpt>
      <trkpt lat="45.10567" lon="6.06759">
        <ele>1929</ele>
        <time>2011-07-14T16:21:04+02:00</time>
      </trkpt>
      <trkpt lat="45.10817" lon="6.07061">
        <ele>1959</ele>
        <time>2011-07-14T16:23:49+02:00</time>
      </trkpt>
      <trkpt lat="45.1089" lon="6.07257">
        <ele>1964</ele>
        <time>2011-07-14T16:24:33+02:00</time>
      </trkpt>
      <trkpt lat="45.10808" lon="6.07313">
        <ele>1969</ele>
        <time>2011-07-14T16:24:56+02:00</time>
      </trkpt>
      <trkpt lat="45.10807" lon="6.07362">
        <ele>1970</ele>
        <time>2011-07-14T16:25:04+02:00</time>
      </trkpt>
      <trkpt lat="45.10865" lon="6.07434">
        <ele>1974</ele>
        <time>2011-07-14T16:25:26+02:00</time>
      </trkpt>
      <trkpt lat="45.10788" lon="6.0766">
        <ele>1988</ele>
        <time>2011-07-14T16:26:28+02:00</time>
      </trkpt>
      <trkpt lat="45.10864" lon="6.074">
        <ele>1974</ele>
        <time>2011-07-14T16:27:05+02:00</time>
      </trkpt>
      <trkpt lat="45.10823" lon="6.07388">
        <ele>1972</ele>
        <time>2011-07-14T16:27:11+02:00</time>
      </trkpt>
      <trkpt lat="45.10813" lon="6.07307">
        <ele>1970</ele>
        <time>2011-07-14T16:27:19+02:00</time>
      </trkpt>
      <trkpt lat="45.10895" lon="6.07243">
        <ele>1965</ele>
        <time>2011-07-14T16:27:32+02:00</time>
      </trkpt>
      <trkpt lat="45.10809" lon="6.07035">
        <ele>1959</ele>
        <time>2011-07-14T16:28:15+02:00</time>
      </trkpt>
      <trkpt lat="45.10887" lon="6.06977">
        <ele>1970</ele>
        <time>2011-07-14T16:29:18+02:00</time>
      </trkpt>
      <trkpt lat="45.10869" lon="6.0687">
        <ele>1976</ele>
        <time>2011-07-14T16:30:02+02:00</time>
      </trkpt>
      <trkpt lat="45.10749" lon="6.066">
        <ele>1985</ele>
        <time>2011-07-14T16:31:45+02:00</time>
      </trkpt>
      <trkpt lat="45.10654" lon="6.06498">
        <ele>1986</ele>
        <time>2011-07-14T16:32:24+02:00</time>
      </trkpt>
      <trkpt lat="45.10653" lon="6.06431">
        <ele>1987</ele>
        <time>2011-07-14T16:32:44+02:00</time>
      </trkpt>
      <trkpt lat="45.10796" lon="6.06501">
        <ele>1989</ele>
        <time>2011-07-14T16:37:42+02:00</time>
      </trkpt>
      <trkpt lat="45.11043" lon="6.06545">
        <ele>1954</ele>
        <time>2011-07-14T16:38:39+02:00</time>
      </trkpt>
      <trkpt lat="45.11231" lon="6.06516">
        <ele>1925</ele>
        <time>2011-07-14T16:39:23+02:00</time>
      </trkpt>
      <trkpt lat="45.11393" lon="6.06378">
        <ele>1865</ele>
        <time>2011-07-14T16:41:42+02:00</time>
      </trkpt>
      <trkpt lat="45.1159" lon="6.06294">
        <ele>1805</ele>
        <time>2011-07-14T16:44:49+02:00</time>
      </trkpt>
      <trkpt lat="45.1164" lon="6.06216">
        <ele>1783</ele>
        <time>2011-07-14T16:45:27+02:00</time>
      </trkpt>
      <trkpt lat="45.11628" lon="6.06168">
        <ele>1770</ele>
        <time>2011-07-14T16:46:24+02:00</time>
      </trkpt>
      <trkpt lat="45.11701" lon="6.06139">
        <ele>1740</ele>
        <time>2011-07-14T16:50:36+02:00</time>
      </trkpt>
      <trkpt lat="45.11653" lon="6.06073">
        <ele>1720</ele>
        <time>2011-07-14T16:51:56+02:00</time>
      </trkpt>
      <trkpt lat="45.11776" lon="6.05977">
        <ele>1660</ele>
        <time>2011-07-14T16:55:45+02:00</time>
      </trkpt>
      <trkpt lat="45.11774" lon="6.06005">
        <ele>1716</ele>
        <time>2011-07-14T16:58:02+02:00</time>
      </trkpt>
      <trkpt lat="45.11749" lon="6.0597">
        <ele>1632</ele>
        <time>2011-07-14T16:58:14+02:00</time>
      </trkpt>
      <trkpt lat="45.11774" lon="6.059">
        <ele>1626</ele>
        <time>2011-07-14T16:59:16+02:00</time>
      </trkpt>
      <trkpt lat="45.11754" lon="6.05884">
        <ele>1630</ele>
        <time>2011-07-14T16:59:35+02:00</time>
      </trkpt>
      <trkpt lat="45.11801" lon="6.0583">
        <ele>1622</ele>
        <time>2011-07-14T17:01:10+02:00</time>
      </trkpt>
      <trkpt lat="45.11786" lon="6.05808">
        <ele>1617</ele>
        <time>2011-07-14T17:01:23+02:00</time>
      </trkpt>
      <trkpt lat="45.11817" lon="6.05788">
        <ele>1605</ele>
        <time>2011-07-14T17:01:56+02:00</time>
      </trkpt>
      <trkpt lat="45.11805" lon="6.05764">
        <ele>1598</ele>
        <time>2011-07-14T17:02:10+02:00</time>
      </trkpt>
      <trkpt lat="45.11874" lon="6.05752">
        <ele>1576</ele>
        <time>2011-07-14T17:03:01+02:00</time>
      </trkpt>
      <trkpt lat="45.11762" lon="6.05573">
        <ele>1520</ele>
        <time>2011-07-14T17:05:55+02:00</time>
      </trkpt>
      <trkpt lat="45.11857" lon="6.05499">
        <ele>1494</ele>
        <time>2011-07-14T17:06:50+02:00</time>
      </trkpt>
      <trkpt lat="45.12017" lon="6.05723">
        <ele>1480</ele>
        <time>2011-07-14T17:09:04+02:00</time>
      </trkpt>
      <trkpt lat="45.11999" lon="6.05956">
        <ele>1467</ele>
        <time>2011-07-14T17:11:32+02:00</time>
      </trkpt>
      <trkpt lat="45.12096" lon="6.0611">
        <ele>1437</ele>
        <time>2011-07-14T17:12:54+02:00</time>
      </trkpt>
      <trkpt lat="45.12173" lon="6.06134">
        <ele>1424</ele>
        <time>2011-07-14T17:13:24+02:00</time>
      </trkpt>
      <trkpt lat="45.12344" lon="6.06042">
        <ele>1387</ele>
        <time>2011-07-14T17:14:25+02:00</time>
      </trkpt>
      <trkpt lat="45.12591" lon="6.06047">
        <ele>1376</ele>
        <time>2011-07-14T17:15:23+02:00</time>
      </trkpt>
      <trkpt lat="45.12646" lon="6.0608">
        <ele>1372</ele>
        <time>2011-07-14T17:15:34+02:00</time>
      </trkpt>
      <trkpt lat="45.12956" lon="6.06071">
        <ele>1346</ele>
        <time>2011-07-14T17:16:28+02:00</time>
      </trkpt>
      <trkpt lat="45.12987" lon="6.06137">
        <ele>1323</ele>
        <time>2011-07-14T17:21:46+02:00</time>
      </trkpt>
      <trkpt lat="45.12985" lon="6.06235">
        <ele>1318</ele>
        <time>2011-07-14T17:22:17+02:00</time>
      </trkpt>
      <trkpt lat="45.12925" lon="6.06402">
        <ele>1312</ele>
        <time>2011-07-14T17:23:12+02:00</time>
      </trkpt>
      <trkpt lat="45.129" lon="6.06721">
        <ele>1293</ele>
        <time>2011-07-14T17:25:44+02:00</time>
      </trkpt>
      <trkpt lat="45.12986" lon="6.06841">
        <ele>1282</ele>
        <time>2011-07-14T17:26:20+02:00</time>
      </trkpt>
      <trkpt lat="45.13131" lon="6.06948">
        <ele>1252</ele>
        <time>2011-07-14T17:27:43+02:00</time>
      </trkpt>
      <trkpt lat="45.13343" lon="6.06926">
        <ele>1213</ele>
        <time>2011-07-14T17:29:47+02:00</time>
      </trkpt>
      <trkpt lat="45.13535" lon="6.06785">
        <ele>1161</ele>
        <time>2011-07-14T17:30:57+02:00</time>
      </trkpt>
      <trkpt lat="45.13572" lon="6.06802">
        <ele>1159</ele>
        <time>2011-07-14T17:31:07+02:00</time>
      </trkpt>
      <trkpt lat="45.13577" lon="6.06721">
        <ele>1161</ele>
        <time>2011-07-14T17:32:00+02:00</time>
      </trkpt>
      <trkpt lat="45.13551" lon="6.06699">
        <ele>1162</ele>
        <time>2011-07-14T17:32:13+02:00</time>
      </trkpt>
      <trkpt lat="45.13564" lon="6.06554">
        <ele>1157</ele>
        <time>2011-07-14T17:32:39+02:00</time>
      </trkpt>
      <trkpt lat="45.1362" lon="6.06459">
        <ele>1153</ele>
        <time>2011-07-14T17:32:59+02:00</time>
      </trkpt>
      <trkpt lat="45.13595" lon="6.06515">
        <ele>1155</ele>
        <time>2011-07-14T17:33:29+02:00</time>
      </trkpt>
      <trkpt lat="45.13578" lon="6.06353">
        <ele>1123</ele>
        <time>2011-07-14T17:34:54+02:00</time>
      </trkpt>
      <trkpt lat="45.13653" lon="6.06045">
        <ele>1077</ele>
        <time>2011-07-14T17:37:00+02:00</time>
      </trkpt>
      <trkpt lat="45.13787" lon="6.05812">
        <ele>1023</ele>
        <time>2011-07-14T17:38:20+02:00</time>
      </trkpt>
      <trkpt lat="45.1392" lon="6.05767">
        <ele>994</ele>
        <time>2011-07-14T17:38:53+02:00</time>
      </trkpt>
      <trkpt lat="45.14034" lon="6.05545">
        <ele>936</ele>
        <time>2011-07-14T17:40:24+02:00</time>
      </trkpt>
      <trkpt lat="45.14027" lon="6.05454">
        <ele>911</ele>
        <time>2011-07-14T17:41:56+02:00</time>
      </trkpt>
      <trkpt lat="45.14093" lon="6.05312">
        <ele>885</ele>
        <time>2011-07-14T17:42:35+02:00</time>
      </trkpt>
      <trkpt lat="45.141" lon="6.05228">
        <ele>876</ele>
        <time>2011-07-14T17:42:52+02:00</time>
      </trkpt>
      <trkpt lat="45.14144" lon="6.05263">
        <ele>876</ele>
        <time>2011-07-14T17:55:13+02:00</time>
      </trkpt>
      <trkpt lat="45.14126" lon="6.05213">
        <ele>871</ele>
        <time>2011-07-14T17:56:22+02:00</time>
      </trkpt>
      <trkpt lat="45.14189" lon="6.05146">
        <ele>856</ele>
        <time>2011-07-14T17:56:57+02:00</time>
      </trkpt>
      <trkpt lat="45.14432" lon="6.05188">
        <ele>800</ele>
        <time>2011-07-14T17:58:22+02:00</time>
      </trkpt>
      <trkpt lat="45.14429" lon="6.05161">
        <ele>795</ele>
        <time>2011-07-14T17:58:34+02:00</time>
      </trkpt>
      <trkpt lat="45.14456" lon="6.05188">
        <ele>794</ele>
        <time>2011-07-14T17:58:50+02:00</time>
      </trkpt>
      <trkpt lat="45.14428" lon="6.05277">
        <ele>798</ele>
        <time>2011-07-14T17:59:21+02:00</time>
      </trkpt>
      <trkpt lat="45.14444" lon="6.05419">
        <ele>803</ele>
        <time>2011-07-14T18:00:00+02:00</time>
      </trkpt>
      <trkpt lat="45.14411" lon="6.05434">
        <ele>805</ele>
        <time>2011-07-14T18:00:19+02:00</time>
      </trkpt>
      <trkpt lat="45.14387" lon="6.05399">
        <ele>807</ele>
        <time>2011-07-14T18:00:31+02:00</time>
      </trkpt>
      <trkpt lat="45.14602" lon="6.05385">
        <ele>810</ele>
        <time>2011-07-14T18:00:57+02:00</time>
      </trkpt>
      <trkpt lat="45.14619" lon="6.05178">
        <ele>816</ele>
        <time>2011-07-14T18:01:48+02:00</time>
      </trkpt>
      <trkpt lat="45.14797" lon="6.04967">
        <ele>808</ele>
        <time>2011-07-14T18:02:40+02:00</time>
      </trkpt>
      <trkpt lat="45.14828" lon="6.04871">
        <ele>803</ele>
        <time>2011-07-14T18:02:48+02:00</time>
      </trkpt>
      <trkpt lat="45.14984" lon="6.04816">
        <ele>799</ele>
        <time>2011-07-14T18:03:04+02:00</time>
      </trkpt>
      <trkpt lat="45.15337" lon="6.04564">
        <ele>799</ele>
        <time>2011-07-14T18:03:51+02:00</time>
      </trkpt>
      <trkpt lat="45.15467" lon="6.0453">
        <ele>810</ele>
        <time>2011-07-14T18:04:36+02:00</time>
      </trkpt>
      <trkpt lat="45.15504" lon="6.0442">
        <ele>828</ele>
        <time>2011-07-14T18:05:46+02:00</time>
      </trkpt>
      <trkpt lat="45.15602" lon="6.04343">
        <ele>841</ele>
        <time>2011-07-14T18:06:44+02:00</time>
      </trkpt>
      <trkpt lat="45.15834" lon="6.04269">
        <ele>864</ele>
        <time>2011-07-14T18:08:21+02:00</time>
      </trkpt>
      <trkpt lat="45.15922" lon="6.0418">
        <ele>876</ele>
        <time>2011-07-14T18:09:24+02:00</time>
      </trkpt>
      <trkpt lat="45.16201" lon="6.0418">
        <ele>897</ele>
        <time>2011-07-14T18:11:18+02:00</time>
      </trkpt>
      <trkpt lat="45.16464" lon="6.04124">
        <ele>920</ele>
        <time>2011-07-14T18:13:04+02:00</time>
      </trkpt>
      <trkpt lat="45.16717" lon="6.04003">
        <ele>935</ele>
        <time>2011-07-14T18:14:08+02:00</time>
      </trkpt>
      <trkpt lat="45.16706" lon="6.03965">
        <ele>936</ele>
        <time>2011-07-14T18:14:19+02:00</time>
      </trkpt>
      <trkpt lat="45.16874" lon="6.03847">
        <ele>957</ele>
        <time>2011-07-14T18:15:41+02:00</time>
      </trkpt>
      <trkpt lat="45.16934" lon="6.03847">
        <ele>960</ele>
        <time>2011-07-14T18:15:55+02:00</time>
      </trkpt>
      <trkpt lat="45.17028" lon="6.03775">
        <ele>969</ele>
        <time>2011-07-14T18:16:38+02:00</time>
      </trkpt>
      <trkpt lat="45.17254" lon="6.03753">
        <ele>988</ele>
        <time>2011-07-14T18:17:58+02:00</time>
      </trkpt>
      <trkpt lat="45.17324" lon="6.03676">
        <ele>998</ele>
        <time>2011-07-14T18:18:37+02:00</time>
      </trkpt>
      <trkpt lat="45.17505" lon="6.03686">
        <ele>1005</ele>
        <time>2011-07-14T18:19:22+02:00</time>
      </trkpt>
      <trkpt lat="45.17588" lon="6.03627">
        <ele>1007</ele>
        <time>2011-07-14T18:19:48+02:00</time>
      </trkpt>
      <trkpt lat="45.17662" lon="6.03665">
        <ele>1014</ele>
        <time>2011-07-14T18:20:15+02:00</time>
      </trkpt>
      <trkpt lat="45.17896" lon="6.03631">
        <ele>1033</ele>
        <time>2011-07-14T18:21:41+02:00</time>
      </trkpt>
      <trkpt lat="45.17918" lon="6.03587">
        <ele>1038</ele>
        <time>2011-07-14T18:22:05+02:00</time>
      </trkpt>
      <trkpt lat="45.18184" lon="6.03498">
        <ele>1064</ele>
        <time>2011-07-14T18:24:07+02:00</time>
      </trkpt>
      <trkpt lat="45.18473" lon="6.03471">
        <ele>1092</ele>
        <time>2011-07-14T18:26:32+02:00</time>
      </trkpt>
      <trkpt lat="45.187" lon="6.03378">
        <ele>1120</ele>
        <time>2011-07-14T18:28:44+02:00</time>
      </trkpt>
      <trkpt lat="45.18869" lon="6.03488">
        <ele>1138</ele>
        <time>2011-07-14T18:30:20+02:00</time>
      </trkpt>
      <trkpt lat="45.19323" lon="6.03661">
        <ele>1188</ele>
        <time>2011-07-14T18:34:46+02:00</time>
      </trkpt>
      <trkpt lat="45.19407" lon="6.03742">
        <ele>1198</ele>
        <time>2011-07-14T18:35:44+02:00</time>
      </trkpt>
      <trkpt lat="45.19634" lon="6.03856">
        <ele>1222</ele>
        <time>2011-07-14T18:38:05+02:00</time>
      </trkpt>
      <trkpt lat="45.19907" lon="6.03914">
        <ele>1247</ele>
        <time>2011-07-14T18:40:29+02:00</time>
      </trkpt>
      <trkpt lat="45.20022" lon="6.03886">
        <ele>1251</ele>
        <time>2011-07-14T18:43:43+02:00</time>
      </trkpt>
      <trkpt lat="45.20078" lon="6.03933">
        <ele>1266</ele>
        <time>2011-07-15T08:08:56+02:00</time>
      </trkpt>
      <trkpt lat="45.20049" lon="6.03918">
        <ele>1265</ele>
        <time>2011-07-15T08:17:16+02:00</time>
      </trkpt>
      <trkpt lat="45.20085" lon="6.03947">
        <ele>1266</ele>
        <time>2011-07-15T08:17:40+02:00</time>
      </trkpt>
      <trkpt lat="45.20064" lon="6.03928">
        <ele>1265</ele>
        <time>2011-07-15T08:17:56+02:00</time>
      </trkpt>
      <trkpt lat="45.20149" lon="6.03953">
        <ele>1266</ele>
        <time>2011-07-15T08:22:27+02:00</time>
      </trkpt>
      <trkpt lat="45.20233" lon="6.04033">
        <ele>1270</ele>
        <time>2011-07-15T08:23:04+02:00</time>
      </trkpt>
      <trkpt lat="45.20325" lon="6.04021">
        <ele>1275</ele>
        <time>2011-07-15T08:23:47+02:00</time>
      </trkpt>
      <trkpt lat="45.2029" lon="6.04008">
        <ele>1277</ele>
        <time>2011-07-15T08:24:06+02:00</time>
      </trkpt>
      <trkpt lat="45.20332" lon="6.03984">
        <ele>1283</ele>
        <time>2011-07-15T08:24:36+02:00</time>
      </trkpt>
      <trkpt lat="45.20363" lon="6.04059">
        <ele>1285</ele>
        <time>2011-07-15T08:25:19+02:00</time>
      </trkpt>
      <trkpt lat="45.20421" lon="6.04056">
        <ele>1297</ele>
        <time>2011-07-15T08:26:15+02:00</time>
      </trkpt>
      <trkpt lat="45.20408" lon="6.04035">
        <ele>1298</ele>
        <time>2011-07-15T08:26:28+02:00</time>
      </trkpt>
      <trkpt lat="45.2057" lon="6.04045">
        <ele>1332</ele>
        <time>2011-07-15T08:30:13+02:00</time>
      </trkpt>
      <trkpt lat="45.2067" lon="6.04125">
        <ele>1352</ele>
        <time>2011-07-15T08:32:26+02:00</time>
      </trkpt>
      <trkpt lat="45.20751" lon="6.04068">
        <ele>1370</ele>
        <time>2011-07-15T08:34:25+02:00</time>
      </trkpt>
      <trkpt lat="45.20987" lon="6.04236">
        <ele>1422</ele>
        <time>2011-07-15T08:40:21+02:00</time>
      </trkpt>
      <trkpt lat="45.21024" lon="6.04227">
        <ele>1425</ele>
        <time>2011-07-15T08:40:44+02:00</time>
      </trkpt>
      <trkpt lat="45.21067" lon="6.04282">
        <ele>1426</ele>
        <time>2011-07-15T08:41:21+02:00</time>
      </trkpt>
      <trkpt lat="45.21228" lon="6.04193">
        <ele>1458</ele>
        <time>2011-07-15T08:44:51+02:00</time>
      </trkpt>
      <trkpt lat="45.21275" lon="6.04224">
        <ele>1465</ele>
        <time>2011-07-15T08:45:49+02:00</time>
      </trkpt>
      <trkpt lat="45.21268" lon="6.04258">
        <ele>1466</ele>
        <time>2011-07-15T08:50:07+02:00</time>
      </trkpt>
      <trkpt lat="45.21272" lon="6.04222">
        <ele>1466</ele>
        <time>2011-07-15T08:51:19+02:00</time>
      </trkpt>
      <trkpt lat="45.21324" lon="6.04259">
        <ele>1488</ele>
        <time>2011-07-15T09:13:01+02:00</time>
      </trkpt>
      <trkpt lat="45.21318" lon="6.04402">
        <ele>1509</ele>
        <time>2011-07-15T09:15:43+02:00</time>
      </trkpt>
      <trkpt lat="45.21407" lon="6.04446">
        <ele>1520</ele>
        <time>2011-07-15T09:17:31+02:00</time>
      </trkpt>
      <trkpt lat="45.21474" lon="6.04427">
        <ele>1531</ele>
        <time>2011-07-15T09:18:56+02:00</time>
      </trkpt>
      <trkpt lat="45.21402" lon="6.04434">
        <ele>1534</ele>
        <time>2011-07-15T09:19:51+02:00</time>
      </trkpt>
      <trkpt lat="45.2189" lon="6.04115">
        <ele>1622</ele>
        <time>2011-07-15T09:30:42+02:00</time>
      </trkpt>
      <trkpt lat="45.21798" lon="6.04107">
        <ele>1643</ele>
        <time>2011-07-15T09:32:46+02:00</time>
      </trkpt>
      <trkpt lat="45.21886" lon="6.04024">
        <ele>1672</ele>
        <time>2011-07-15T09:35:35+02:00</time>
      </trkpt>
      <trkpt lat="45.21579" lon="6.03991">
        <ele>1748</ele>
        <time>2011-07-15T09:53:05+02:00</time>
      </trkpt>
      <trkpt lat="45.21596" lon="6.03972">
        <ele>1753</ele>
        <time>2011-07-15T09:53:39+02:00</time>
      </trkpt>
      <trkpt lat="45.21537" lon="6.03909">
        <ele>1765</ele>
        <time>2011-07-15T09:55:13+02:00</time>
      </trkpt>
      <trkpt lat="45.21488" lon="6.03784">
        <ele>1791</ele>
        <time>2011-07-15T09:58:13+02:00</time>
      </trkpt>
      <trkpt lat="45.21414" lon="6.03696">
        <ele>1805</ele>
        <time>2011-07-15T10:00:07+02:00</time>
      </trkpt>
      <trkpt lat="45.21432" lon="6.03555">
        <ele>1829</ele>
        <time>2011-07-15T10:03:02+02:00</time>
      </trkpt>
      <trkpt lat="45.21448" lon="6.03576">
        <ele>1831</ele>
        <time>2011-07-15T10:03:24+02:00</time>
      </trkpt>
      <trkpt lat="45.21452" lon="6.03535">
        <ele>1835</ele>
        <time>2011-07-15T10:03:54+02:00</time>
      </trkpt>
      <trkpt lat="45.21474" lon="6.03551">
        <ele>1844</ele>
        <time>2011-07-15T10:04:51+02:00</time>
      </trkpt>
      <trkpt lat="45.21522" lon="6.03412">
        <ele>1868</ele>
        <time>2011-07-15T10:07:26+02:00</time>
      </trkpt>
      <trkpt lat="45.21559" lon="6.03383">
        <ele>1877</ele>
        <time>2011-07-15T10:08:27+02:00</time>
      </trkpt>
      <trkpt lat="45.2162" lon="6.03185">
        <ele>1917</ele>
        <time>2011-07-15T10:13:08+02:00</time>
      </trkpt>
      <trkpt lat="45.21588" lon="6.03111">
        <ele>1925</ele>
        <time>2011-07-15T10:14:38+02:00</time>
      </trkpt>
      <trkpt lat="45.21639" lon="6.03005">
        <ele>1949</ele>
        <time>2011-07-15T10:17:27+02:00</time>
      </trkpt>
      <trkpt lat="45.2171" lon="6.03096">
        <ele>1971</ele>
        <time>2011-07-15T10:20:04+02:00</time>
      </trkpt>
      <trkpt lat="45.21773" lon="6.03058">
        <ele>1984</ele>
        <time>2011-07-15T10:22:39+02:00</time>
      </trkpt>
      <trkpt lat="45.21772" lon="6.02945">
        <ele>1989</ele>
        <time>2011-07-15T10:47:23+02:00</time>
      </trkpt>
      <trkpt lat="45.21845" lon="6.02654">
        <ele>1952</ele>
        <time>2011-07-15T10:51:17+02:00</time>
      </trkpt>
      <trkpt lat="45.21849" lon="6.02482">
        <ele>1920</ele>
        <time>2011-07-15T10:55:56+02:00</time>
      </trkpt>
      <trkpt lat="45.21919" lon="6.02549">
        <ele>1900</ele>
        <time>2011-07-15T10:57:51+02:00</time>
      </trkpt>
      <trkpt lat="45.21876" lon="6.02431">
        <ele>1882</ele>
        <time>2011-07-15T11:00:30+02:00</time>
      </trkpt>
      <trkpt lat="45.22017" lon="6.02505">
        <ele>1840</ele>
        <time>2011-07-15T11:05:54+02:00</time>
      </trkpt>
      <trkpt lat="45.22004" lon="6.0245">
        <ele>1831</ele>
        <time>2011-07-15T11:06:27+02:00</time>
      </trkpt>
      <trkpt lat="45.22107" lon="6.02504">
        <ele>1812</ele>
        <time>2011-07-15T11:08:24+02:00</time>
      </trkpt>
      <trkpt lat="45.2208" lon="6.02424">
        <ele>1795</ele>
        <time>2011-07-15T11:09:53+02:00</time>
      </trkpt>
      <trkpt lat="45.22106" lon="6.02427">
        <ele>1788</ele>
        <time>2011-07-15T11:10:33+02:00</time>
      </trkpt>
      <trkpt lat="45.22099" lon="6.02397">
        <ele>1783</ele>
        <time>2011-07-15T11:11:02+02:00</time>
      </trkpt>
      <trkpt lat="45.22187" lon="6.02293">
        <ele>1753</ele>
        <time>2011-07-15T11:13:36+02:00</time>
      </trkpt>
      <trkpt lat="45.22236" lon="6.02173">
        <ele>1735</ele>
        <time>2011-07-15T11:22:49+02:00</time>
      </trkpt>
      <trkpt lat="45.22245" lon="6.01838">
        <ele>1697</ele>
        <time>2011-07-15T11:24:26+02:00</time>
      </trkpt>
      <trkpt lat="45.22218" lon="6.01766">
        <ele>1689</ele>
        <time>2011-07-15T11:24:47+02:00</time>
      </trkpt>
      <trkpt lat="45.22252" lon="6.01757">
        <ele>1681</ele>
        <time>2011-07-15T11:25:04+02:00</time>
      </trkpt>
      <trkpt lat="45.22268" lon="6.0168">
        <ele>1682</ele>
        <time>2011-07-15T11:25:28+02:00</time>
      </trkpt>
      <trkpt lat="45.22226" lon="6.01428">
        <ele>1680</ele>
        <time>2011-07-15T11:26:49+02:00</time>
      </trkpt>
      <trkpt lat="45.22291" lon="6.01305">
        <ele>1656</ele>
        <time>2011-07-15T11:27:52+02:00</time>
      </trkpt>
      <trkpt lat="45.22235" lon="6.0127">
        <ele>1640</ele>
        <time>2011-07-15T11:28:28+02:00</time>
      </trkpt>
      <trkpt lat="45.22275" lon="6.01193">
        <ele>1624</ele>
        <time>2011-07-15T11:29:09+02:00</time>
      </trkpt>
      <trkpt lat="45.22235" lon="6.01092">
        <ele>1609</ele>
        <time>2011-07-15T11:29:40+02:00</time>
      </trkpt>
      <trkpt lat="45.22231" lon="6.00933">
        <ele>1582</ele>
        <time>2011-07-15T11:30:39+02:00</time>
      </trkpt>
      <trkpt lat="45.22257" lon="6.00895">
        <ele>1569</ele>
        <time>2011-07-15T11:34:13+02:00</time>
      </trkpt>
      <trkpt lat="45.22207" lon="6.00796">
        <ele>1547</ele>
        <time>2011-07-15T11:34:59+02:00</time>
      </trkpt>
      <trkpt lat="45.22199" lon="6.0049">
        <ele>1496</ele>
        <time>2011-07-15T11:36:44+02:00</time>
      </trkpt>
      <trkpt lat="45.22243" lon="6.00514">
        <ele>1489</ele>
        <time>2011-07-15T11:36:59+02:00</time>
      </trkpt>
      <trkpt lat="45.22242" lon="6.00427">
        <ele>1472</ele>
        <time>2011-07-15T11:37:30+02:00</time>
      </trkpt>
      <trkpt lat="45.22335" lon="6.00415">
        <ele>1449</ele>
        <time>2011-07-15T11:38:32+02:00</time>
      </trkpt>
      <trkpt lat="45.22309" lon="6.00213">
        <ele>1415</ele>
        <time>2011-07-15T11:39:25+02:00</time>
      </trkpt>
      <trkpt lat="45.22421" lon="6.00094">
        <ele>1386</ele>
        <time>2011-07-15T11:41:50+02:00</time>
      </trkpt>
      <trkpt lat="45.22436" lon="5.99891">
        <ele>1349</ele>
        <time>2011-07-15T11:44:37+02:00</time>
      </trkpt>
      <trkpt lat="45.22464" lon="5.99837">
        <ele>1346</ele>
        <time>2011-07-15T11:45:13+02:00</time>
      </trkpt>
      <trkpt lat="45.22395" lon="5.99697">
        <ele>1316</ele>
        <time>2011-07-15T11:48:04+02:00</time>
      </trkpt>
      <trkpt lat="45.22401" lon="5.9965">
        <ele>1308</ele>
        <time>2011-07-15T11:48:48+02:00</time>
      </trkpt>
      <trkpt lat="45.2229" lon="5.99519">
        <ele>1319</ele>
        <time>2011-07-15T11:50:51+02:00</time>
      </trkpt>
      <trkpt lat="45.22187" lon="5.99484">
        <ele>1317</ele>
        <time>2011-07-15T11:51:32+02:00</time>
      </trkpt>
      <trkpt lat="45.2197" lon="5.99184">
        <ele>1312</ele>
        <time>2011-07-15T11:53:43+02:00</time>
      </trkpt>
      <trkpt lat="45.22007" lon="5.99048">
        <ele>1326</ele>
        <time>2011-07-15T11:54:52+02:00</time>
      </trkpt>
      <trkpt lat="45.21993" lon="5.98913">
        <ele>1339</ele>
        <time>2011-07-15T11:56:04+02:00</time>
      </trkpt>
      <trkpt lat="45.22091" lon="5.98349">
        <ele>1371</ele>
        <time>2011-07-15T12:01:27+02:00</time>
      </trkpt>
      <trkpt lat="45.22185" lon="5.98135">
        <ele>1358</ele>
        <time>2011-07-15T12:02:05+02:00</time>
      </trkpt>
      <trkpt lat="45.2219" lon="5.97478">
        <ele>1377</ele>
        <time>2011-07-15T12:06:11+02:00</time>
      </trkpt>
      <trkpt lat="45.22256" lon="5.9731">
        <ele>1385</ele>
        <time>2011-07-15T12:07:11+02:00</time>
      </trkpt>
      <trkpt lat="45.22308" lon="5.97316">
        <ele>1377</ele>
        <time>2011-07-15T12:07:45+02:00</time>
      </trkpt>
      <trkpt lat="45.2238" lon="5.97229">
        <ele>1372</ele>
        <time>2011-07-15T12:08:26+02:00</time>
      </trkpt>
      <trkpt lat="45.22465" lon="5.97188">
        <ele>1366</ele>
        <time>2011-07-15T12:08:57+02:00</time>
      </trkpt>
      <trkpt lat="45.22537" lon="5.97081">
        <ele>1360</ele>
        <time>2011-07-15T12:09:38+02:00</time>
      </trkpt>
      <trkpt lat="45.22581" lon="5.97066">
        <ele>1363</ele>
        <time>2011-07-15T12:10:11+02:00</time>
      </trkpt>
      <trkpt lat="45.22605" lon="5.96991">
        <ele>1362</ele>
        <time>2011-07-15T12:10:43+02:00</time>
      </trkpt>
      <trkpt lat="45.22699" lon="5.96976">
        <ele>1360</ele>
        <time>2011-07-15T12:11:26+02:00</time>
      </trkpt>
      <trkpt lat="45.22743" lon="5.96804">
        <ele>1360</ele>
        <time>2011-07-15T12:12:18+02:00</time>
      </trkpt>
      <trkpt lat="45.22865" lon="5.96686">
        <ele>1360</ele>
        <time>2011-07-15T12:15:55+02:00</time>
      </trkpt>
      <trkpt lat="45.22904" lon="5.96591">
        <ele>1360</ele>
        <time>2011-07-15T12:16:17+02:00</time>
      </trkpt>
      <trkpt lat="45.22914" lon="5.96301">
        <ele>1361</ele>
        <time>2011-07-15T12:17:13+02:00</time>
      </trkpt>
      <trkpt lat="45.22725" lon="5.95869">
        <ele>1347</ele>
        <time>2011-07-15T12:18:07+02:00</time>
      </trkpt>
      <trkpt lat="45.22564" lon="5.95754">
        <ele>1326</ele>
        <time>2011-07-15T12:18:37+02:00</time>
      </trkpt>
      <trkpt lat="45.22392" lon="5.9575">
        <ele>1321</ele>
        <time>2011-07-15T12:19:02+02:00</time>
      </trkpt>
      <trkpt lat="45.22268" lon="5.9568">
        <ele>1309</ele>
        <time>2011-07-15T12:19:19+02:00</time>
      </trkpt>
      <trkpt lat="45.22105" lon="5.95481">
        <ele>1311</ele>
        <time>2011-07-15T12:21:47+02:00</time>
      </trkpt>
      <trkpt lat="45.21987" lon="5.9548">
        <ele>1343</ele>
        <time>2011-07-15T12:24:18+02:00</time>
      </trkpt>
      <trkpt lat="45.21947" lon="5.95615">
        <ele>1352</ele>
        <time>2011-07-15T12:30:35+02:00</time>
      </trkpt>
      <trkpt lat="45.21842" lon="5.95648">
        <ele>1344</ele>
        <time>2011-07-15T12:31:21+02:00</time>
      </trkpt>
      <trkpt lat="45.2173" lon="5.95754">
        <ele>1341</ele>
        <time>2011-07-15T12:31:43+02:00</time>
      </trkpt>
      <trkpt lat="45.21684" lon="5.95847">
        <ele>1356</ele>
        <time>2011-07-15T12:32:50+02:00</time>
      </trkpt>
      <trkpt lat="45.21443" lon="5.95876">
        <ele>1364</ele>
        <time>2011-07-15T12:36:03+02:00</time>
      </trkpt>
      <trkpt lat="45.21303" lon="5.95823">
        <ele>1358</ele>
        <time>2011-07-15T12:36:46+02:00</time>
      </trkpt>
      <trkpt lat="45.2113" lon="5.95905">
        <ele>1340</ele>
        <time>2011-07-15T12:37:31+02:00</time>
      </trkpt>
      <trkpt lat="45.21124" lon="5.95847">
        <ele>1328</ele>
        <time>2011-07-15T12:37:47+02:00</time>
      </trkpt>
      <trkpt lat="45.21287" lon="5.95546">
        <ele>1274</ele>
        <time>2011-07-15T12:39:10+02:00</time>
      </trkpt>
      <trkpt lat="45.21164" lon="5.95622">
        <ele>1278</ele>
        <time>2011-07-15T12:44:09+02:00</time>
      </trkpt>
      <trkpt lat="45.21126" lon="5.95598">
        <ele>1279</ele>
        <time>2011-07-15T12:44:23+02:00</time>
      </trkpt>
      <trkpt lat="45.21085" lon="5.95464">
        <ele>1284</ele>
        <time>2011-07-15T12:45:04+02:00</time>
      </trkpt>
      <trkpt lat="45.21025" lon="5.95445">
        <ele>1285</ele>
        <time>2011-07-15T12:45:32+02:00</time>
      </trkpt>
      <trkpt lat="45.21058" lon="5.95445">
        <ele>1284</ele>
        <time>2011-07-15T12:49:29+02:00</time>
      </trkpt>
      <trkpt lat="45.21138" lon="5.95317">
        <ele>1257</ele>
        <time>2011-07-15T12:51:08+02:00</time>
      </trkpt>
      <trkpt lat="45.21177" lon="5.95395">
        <ele>1246</ele>
        <time>2011-07-15T12:51:52+02:00</time>
      </trkpt>
      <trkpt lat="45.21253" lon="5.9523">
        <ele>1211</ele>
        <time>2011-07-15T12:53:04+02:00</time>
      </trkpt>
      <trkpt lat="45.21257" lon="5.95155">
        <ele>1201</ele>
        <time>2011-07-15T12:53:26+02:00</time>
      </trkpt>
      <trkpt lat="45.21207" lon="5.95091">
        <ele>1201</ele>
        <time>2011-07-15T12:59:43+02:00</time>
      </trkpt>
      <trkpt lat="45.21138" lon="5.95084">
        <ele>1204</ele>
        <time>2011-07-15T13:00:18+02:00</time>
      </trkpt>
      <trkpt lat="45.21078" lon="5.95185">
        <ele>1205</ele>
        <time>2011-07-15T13:01:07+02:00</time>
      </trkpt>
      <trkpt lat="45.20992" lon="5.95192">
        <ele>1200</ele>
        <time>2011-07-15T13:01:41+02:00</time>
      </trkpt>
      <trkpt lat="45.20887" lon="5.95318">
        <ele>1190</ele>
        <time>2011-07-15T13:02:48+02:00</time>
      </trkpt>
      <trkpt lat="45.20819" lon="5.95303">
        <ele>1182</ele>
        <time>2011-07-15T13:03:24+02:00</time>
      </trkpt>
      <trkpt lat="45.20682" lon="5.95356">
        <ele>1157</ele>
        <time>2011-07-15T13:05:01+02:00</time>
      </trkpt>
      <trkpt lat="45.20664" lon="5.9527">
        <ele>1151</ele>
        <time>2011-07-15T13:05:42+02:00</time>
      </trkpt>
      <trkpt lat="45.2089" lon="5.94953">
        <ele>1090</ele>
        <time>2011-07-15T13:08:31+02:00</time>
      </trkpt>
      <trkpt lat="45.21029" lon="5.94626">
        <ele>1040</ele>
        <time>2011-07-15T13:12:37+02:00</time>
      </trkpt>
      <trkpt lat="45.21113" lon="5.94564">
        <ele>1026</ele>
        <time>2011-07-15T13:12:58+02:00</time>
      </trkpt>
      <trkpt lat="45.21178" lon="5.94585">
        <ele>1012</ele>
        <time>2011-07-15T13:13:18+02:00</time>
      </trkpt>
      <trkpt lat="45.21279" lon="5.94353">
        <ele>982</ele>
        <time>2011-07-15T13:14:07+02:00</time>
      </trkpt>
      <trkpt lat="45.21316" lon="5.94342">
        <ele>977</ele>
        <time>2011-07-15T13:15:19+02:00</time>
      </trkpt>
      <trkpt lat="45.21261" lon="5.9428">
        <ele>973</ele>
        <time>2011-07-15T13:17:22+02:00</time>
      </trkpt>
      <trkpt lat="45.21308" lon="5.94256">
        <ele>964</ele>
        <time>2011-07-15T13:18:48+02:00</time>
      </trkpt>
      <trkpt lat="45.21343" lon="5.94318">
        <ele>973</ele>
        <time>2011-07-15T13:20:17+02:00</time>
      </trkpt>
      <trkpt lat="45.21412" lon="5.94194">
        <ele>955</ele>
        <time>2011-07-15T13:21:08+02:00</time>
      </trkpt>
      <trkpt lat="45.21484" lon="5.94147">
        <ele>942</ele>
        <time>2011-07-15T13:21:31+02:00</time>
      </trkpt>
      <trkpt lat="45.2155" lon="5.93952">
        <ele>922</ele>
        <time>2011-07-15T13:22:42+02:00</time>
      </trkpt>
      <trkpt lat="45.21498" lon="5.93978">
        <ele>925</ele>
        <time>2011-07-15T13:23:16+02:00</time>
      </trkpt>
      <trkpt lat="45.21662" lon="5.93868">
        <ele>901</ele>
        <time>2011-07-15T13:25:39+02:00</time>
      </trkpt>
      <trkpt lat="45.21694" lon="5.93789">
        <ele>888</ele>
        <time>2011-07-15T13:26:16+02:00</time>
      </trkpt>
      <trkpt lat="45.22017" lon="5.93712">
        <ele>842</ele>
        <time>2011-07-15T13:28:28+02:00</time>
      </trkpt>
      <trkpt lat="45.22146" lon="5.93779">
        <ele>836</ele>
        <time>2011-07-15T13:29:07+02:00</time>
      </trkpt>
      <trkpt lat="45.22269" lon="5.937">
        <ele>824</ele>
        <time>2011-07-15T13:29:30+02:00</time>
      </trkpt>
      <trkpt lat="45.22329" lon="5.93703">
        <ele>820</ele>
        <time>2011-07-15T13:29:49+02:00</time>
      </trkpt>
      <trkpt lat="45.22232" lon="5.93725">
        <ele>828</ele>
        <time>2011-07-15T13:30:29+02:00</time>
      </trkpt>
      <trkpt lat="45.22176" lon="5.9367">
        <ele>824</ele>
        <time>2011-07-15T13:30:47+02:00</time>
      </trkpt>
      <trkpt lat="45.22235" lon="5.93497">
        <ele>804</ele>
        <time>2011-07-15T13:31:17+02:00</time>
      </trkpt>
      <trkpt lat="45.22476" lon="5.93449">
        <ele>781</ele>
        <time>2011-07-15T13:31:57+02:00</time>
      </trkpt>
      <trkpt lat="45.22403" lon="5.93357">
        <ele>774</ele>
        <time>2011-07-15T13:32:30+02:00</time>
      </trkpt>
      <trkpt lat="45.22241" lon="5.93292">
        <ele>767</ele>
        <time>2011-07-15T13:33:24+02:00</time>
      </trkpt>
      <trkpt lat="45.22182" lon="5.93355">
        <ele>766</ele>
        <time>2011-07-15T13:33:36+02:00</time>
      </trkpt>
      <trkpt lat="45.2198" lon="5.93227">
        <ele>770</ele>
        <time>2011-07-15T13:34:52+02:00</time>
      </trkpt>
      <trkpt lat="45.21748" lon="5.93387">
        <ele>771</ele>
        <time>2011-07-15T13:35:57+02:00</time>
      </trkpt>
      <trkpt lat="45.21654" lon="5.93366">
        <ele>774</ele>
        <time>2011-07-15T13:36:24+02:00</time>
      </trkpt>
      <trkpt lat="45.21519" lon="5.93505">
        <ele>771</ele>
        <time>2011-07-15T13:36:54+02:00</time>
      </trkpt>
      <trkpt lat="45.2144" lon="5.93519">
        <ele>771</ele>
        <time>2011-07-15T13:37:09+02:00</time>
      </trkpt>
      <trkpt lat="45.21387" lon="5.93438">
        <ele>773</ele>
        <time>2011-07-15T13:37:28+02:00</time>
      </trkpt>
      <trkpt lat="45.21364" lon="5.93325">
        <ele>772</ele>
        <time>2011-07-15T13:37:48+02:00</time>
      </trkpt>
      <trkpt lat="45.21574" lon="5.93204">
        <ele>772</ele>
        <time>2011-07-15T13:38:43+02:00</time>
      </trkpt>
      <trkpt lat="45.21665" lon="5.93104">
        <ele>768</ele>
        <time>2011-07-15T13:39:36+02:00</time>
      </trkpt>
      <trkpt lat="45.21611" lon="5.93163">
        <ele>768</ele>
        <time>2011-07-15T13:48:11+02:00</time>
      </trkpt>
      <trkpt lat="45.21587" lon="5.93121">
        <ele>771</ele>
        <time>2011-07-15T13:48:28+02:00</time>
      </trkpt>
      <trkpt lat="45.21514" lon="5.9311">
        <ele>777</ele>
        <time>2011-07-15T13:49:07+02:00</time>
      </trkpt>
      <trkpt lat="45.21549" lon="5.93011">
        <ele>781</ele>
        <time>2011-07-15T13:49:37+02:00</time>
      </trkpt>
      <trkpt lat="45.21732" lon="5.92768">
        <ele>800</ele>
        <time>2011-07-15T13:51:25+02:00</time>
      </trkpt>
      <trkpt lat="45.2175" lon="5.92696">
        <ele>806</ele>
        <time>2011-07-15T13:51:52+02:00</time>
      </trkpt>
      <trkpt lat="45.2187" lon="5.92623">
        <ele>818</ele>
        <time>2011-07-15T13:52:57+02:00</time>
      </trkpt>
      <trkpt lat="45.21795" lon="5.92629">
        <ele>823</ele>
        <time>2011-07-15T13:53:32+02:00</time>
      </trkpt>
      <trkpt lat="45.21974" lon="5.92521">
        <ele>839</ele>
        <time>2011-07-15T13:55:00+02:00</time>
      </trkpt>
      <trkpt lat="45.22057" lon="5.92379">
        <ele>849</ele>
        <time>2011-07-15T13:55:57+02:00</time>
      </trkpt>
      <trkpt lat="45.22362" lon="5.92193">
        <ele>878</ele>
        <time>2011-07-15T13:58:25+02:00</time>
      </trkpt>
      <trkpt lat="45.22128" lon="5.92232">
        <ele>890</ele>
        <time>2011-07-15T13:59:52+02:00</time>
      </trkpt>
      <trkpt lat="45.22049" lon="5.92175">
        <ele>893</ele>
        <time>2011-07-15T14:00:20+02:00</time>
      </trkpt>
      <trkpt lat="45.22004" lon="5.92">
        <ele>919</ele>
        <time>2011-07-15T14:02:41+02:00</time>
      </trkpt>
      <trkpt lat="45.22157" lon="5.91863">
        <ele>937</ele>
        <time>2011-07-15T14:04:27+02:00</time>
      </trkpt>
      <trkpt lat="45.22278" lon="5.91873">
        <ele>956</ele>
        <time>2011-07-15T14:07:11+02:00</time>
      </trkpt>
      <trkpt lat="45.22299" lon="5.91832">
        <ele>962</ele>
        <time>2011-07-15T14:07:41+02:00</time>
      </trkpt>
      <trkpt lat="45.22213" lon="5.91659">
        <ele>993</ele>
        <time>2011-07-15T14:10:52+02:00</time>
      </trkpt>
      <trkpt lat="45.22128" lon="5.91581">
        <ele>1019</ele>
        <time>2011-07-15T14:13:41+02:00</time>
      </trkpt>
      <trkpt lat="45.2209" lon="5.91434">
        <ele>1023</ele>
        <time>2011-07-15T14:22:53+02:00</time>
      </trkpt>
      <trkpt lat="45.21855" lon="5.91278">
        <ele>1005</ele>
        <time>2011-07-15T14:23:51+02:00</time>
      </trkpt>
      <trkpt lat="45.21694" lon="5.91071">
        <ele>992</ele>
        <time>2011-07-15T14:24:34+02:00</time>
      </trkpt>
      <trkpt lat="45.21616" lon="5.90914">
        <ele>975</ele>
        <time>2011-07-15T14:25:02+02:00</time>
      </trkpt>
      <trkpt lat="45.2152" lon="5.90839">
        <ele>966</ele>
        <time>2011-07-15T14:26:03+02:00</time>
      </trkpt>
      <trkpt lat="45.21506" lon="5.90615">
        <ele>928</ele>
        <time>2011-07-15T14:27:09+02:00</time>
      </trkpt>
      <trkpt lat="45.21462" lon="5.90606">
        <ele>917</ele>
        <time>2011-07-15T14:28:35+02:00</time>
      </trkpt>
      <trkpt lat="45.21475" lon="5.9025">
        <ele>857</ele>
        <time>2011-07-15T14:30:42+02:00</time>
      </trkpt>
      <trkpt lat="45.21402" lon="5.90245">
        <ele>852</ele>
        <time>2011-07-15T14:31:02+02:00</time>
      </trkpt>
      <trkpt lat="45.21244" lon="5.90112">
        <ele>808</ele>
        <time>2011-07-15T14:32:11+02:00</time>
      </trkpt>
      <trkpt lat="45.21203" lon="5.90034">
        <ele>791</ele>
        <time>2011-07-15T14:33:04+02:00</time>
      </trkpt>
      <trkpt lat="45.21037" lon="5.89972">
        <ele>772</ele>
        <time>2011-07-15T14:33:34+02:00</time>
      </trkpt>
      <trkpt lat="45.21097" lon="5.89907">
        <ele>764</ele>
        <time>2011-07-15T14:33:49+02:00</time>
      </trkpt>
      <trkpt lat="45.21107" lon="5.89801">
        <ele>758</ele>
        <time>2011-07-15T14:34:02+02:00</time>
      </trkpt>
      <trkpt lat="45.2097" lon="5.89778">
        <ele>755</ele>
        <time>2011-07-15T14:38:14+02:00</time>
      </trkpt>
      <trkpt lat="45.21025" lon="5.89634">
        <ele>758</ele>
        <time>2011-07-15T14:38:45+02:00</time>
      </trkpt>
      <trkpt lat="45.2104" lon="5.89468">
        <ele>759</ele>
        <time>2011-07-15T14:39:14+02:00</time>
      </trkpt>
      <trkpt lat="45.21216" lon="5.89203">
        <ele>767</ele>
        <time>2011-07-15T14:40:28+02:00</time>
      </trkpt>
      <trkpt lat="45.21328" lon="5.89117">
        <ele>776</ele>
        <time>2011-07-15T14:41:24+02:00</time>
      </trkpt>
      <trkpt lat="45.21301" lon="5.89119">
        <ele>785</ele>
        <time>2011-07-15T14:43:26+02:00</time>
      </trkpt>
      <trkpt lat="45.21336" lon="5.89067">
        <ele>797</ele>
        <time>2011-07-15T14:45:08+02:00</time>
      </trkpt>
      <trkpt lat="45.21277" lon="5.89038">
        <ele>824</ele>
        <time>2011-07-15T14:48:10+02:00</time>
      </trkpt>
      <trkpt lat="45.21277" lon="5.88993">
        <ele>836</ele>
        <time>2011-07-15T14:49:33+02:00</time>
      </trkpt>
      <trkpt lat="45.21193" lon="5.8893">
        <ele>851</ele>
        <time>2011-07-15T14:51:49+02:00</time>
      </trkpt>
      <trkpt lat="45.21077" lon="5.88935">
        <ele>860</ele>
        <time>2011-07-15T14:53:19+02:00</time>
      </trkpt>
      <trkpt lat="45.20936" lon="5.8884">
        <ele>845</ele>
        <time>2011-07-15T14:54:26+02:00</time>
      </trkpt>
      <trkpt lat="45.20826" lon="5.88857">
        <ele>836</ele>
        <time>2011-07-15T14:55:08+02:00</time>
      </trkpt>
      <trkpt lat="45.2075" lon="5.88807">
        <ele>829</ele>
        <time>2011-07-15T14:55:26+02:00</time>
      </trkpt>
      <trkpt lat="45.20664" lon="5.88847">
        <ele>840</ele>
        <time>2011-07-15T14:57:00+02:00</time>
      </trkpt>
      <trkpt lat="45.20457" lon="5.88763">
        <ele>851</ele>
        <time>2011-07-15T14:58:28+02:00</time>
      </trkpt>
      <trkpt lat="45.20377" lon="5.88677">
        <ele>855</ele>
        <time>2011-07-15T14:58:59+02:00</time>
      </trkpt>
      <trkpt lat="45.20188" lon="5.88803">
        <ele>858</ele>
        <time>2011-07-15T14:59:59+02:00</time>
      </trkpt>
      <trkpt lat="45.19995" lon="5.8877">
        <ele>862</ele>
        <time>2011-07-15T15:00:47+02:00</time>
      </trkpt>
      <trkpt lat="45.19805" lon="5.88595">
        <ele>886</ele>
        <time>2011-07-15T15:02:36+02:00</time>
      </trkpt>
      <trkpt lat="45.1961" lon="5.88571">
        <ele>895</ele>
        <time>2011-07-15T15:04:07+02:00</time>
      </trkpt>
      <trkpt lat="45.19486" lon="5.88663">
        <ele>883</ele>
        <time>2011-07-15T15:04:31+02:00</time>
      </trkpt>
      <trkpt lat="45.19509" lon="5.88514">
        <ele>874</ele>
        <time>2011-07-15T15:04:50+02:00</time>
      </trkpt>
      <trkpt lat="45.19402" lon="5.88201">
        <ele>855</ele>
        <time>2011-07-15T15:05:45+02:00</time>
      </trkpt>
      <trkpt lat="45.19361" lon="5.88397">
        <ele>845</ele>
        <time>2011-07-15T15:06:13+02:00</time>
      </trkpt>
      <trkpt lat="45.19213" lon="5.88462">
        <ele>833</ele>
        <time>2011-07-15T15:06:27+02:00</time>
      </trkpt>
      <trkpt lat="45.18854" lon="5.88474">
        <ele>811</ele>
        <time>2011-07-15T15:06:58+02:00</time>
      </trkpt>
      <trkpt lat="45.18719" lon="5.88274">
        <ele>810</ele>
        <time>2011-07-15T15:07:23+02:00</time>
      </trkpt>
      <trkpt lat="45.18723" lon="5.88089">
        <ele>800</ele>
        <time>2011-07-15T15:07:40+02:00</time>
      </trkpt>
      <trkpt lat="45.18633" lon="5.87883">
        <ele>783</ele>
        <time>2011-07-15T15:08:56+02:00</time>
      </trkpt>
      <trkpt lat="45.1847" lon="5.8779">
        <ele>765</ele>
        <time>2011-07-15T15:09:11+02:00</time>
      </trkpt>
      <trkpt lat="45.18392" lon="5.87821">
        <ele>758</ele>
        <time>2011-07-15T15:09:18+02:00</time>
      </trkpt>
      <trkpt lat="45.1809" lon="5.88259">
        <ele>738</ele>
        <time>2011-07-15T15:09:57+02:00</time>
      </trkpt>
      <trkpt lat="45.18035" lon="5.88423">
        <ele>744</ele>
        <time>2011-07-15T15:10:24+02:00</time>
      </trkpt>
      <trkpt lat="45.17824" lon="5.88539">
        <ele>751</ele>
        <time>2011-07-15T15:11:19+02:00</time>
      </trkpt>
      <trkpt lat="45.17633" lon="5.88481">
        <ele>757</ele>
        <time>2011-07-15T15:12:02+02:00</time>
      </trkpt>
      <trkpt lat="45.17508" lon="5.88571">
        <ele>762</ele>
        <time>2011-07-15T15:12:38+02:00</time>
      </trkpt>
      <trkpt lat="45.17231" lon="5.88583">
        <ele>772</ele>
        <time>2011-07-15T15:13:44+02:00</time>
      </trkpt>
      <trkpt lat="45.17099" lon="5.88715">
        <ele>775</ele>
        <time>2011-07-15T15:14:19+02:00</time>
      </trkpt>
      <trkpt lat="45.17023" lon="5.88662">
        <ele>778</ele>
        <time>2011-07-15T15:14:38+02:00</time>
      </trkpt>
      <trkpt lat="45.16732" lon="5.88744">
        <ele>782</ele>
        <time>2011-07-15T15:15:38+02:00</time>
      </trkpt>
      <trkpt lat="45.16562" lon="5.88721">
        <ele>775</ele>
        <time>2011-07-15T15:16:01+02:00</time>
      </trkpt>
      <trkpt lat="45.16512" lon="5.88658">
        <ele>774</ele>
        <time>2011-07-15T15:16:10+02:00</time>
      </trkpt>
      <trkpt lat="45.16536" lon="5.88531">
        <ele>776</ele>
        <time>2011-07-15T15:16:27+02:00</time>
      </trkpt>
      <trkpt lat="45.16759" lon="5.88476">
        <ele>783</ele>
        <time>2011-07-15T15:17:18+02:00</time>
      </trkpt>
      <trkpt lat="45.16848" lon="5.88334">
        <ele>790</ele>
        <time>2011-07-15T15:17:50+02:00</time>
      </trkpt>
      <trkpt lat="45.17158" lon="5.88212">
        <ele>785</ele>
        <time>2011-07-15T15:19:41+02:00</time>
      </trkpt>
      <trkpt lat="45.17144" lon="5.88188">
        <ele>785</ele>
        <time>2011-07-15T15:19:57+02:00</time>
      </trkpt>
      <trkpt lat="45.17423" lon="5.87925">
        <ele>776</ele>
        <time>2011-07-15T15:22:44+02:00</time>
      </trkpt>
      <trkpt lat="45.17512" lon="5.87464">
        <ele>758</ele>
        <time>2011-07-15T15:26:54+02:00</time>
      </trkpt>
      <trkpt lat="45.17453" lon="5.87527">
        <ele>758</ele>
        <time>2011-07-15T15:30:18+02:00</time>
      </trkpt>
      <trkpt lat="45.17435" lon="5.87468">
        <ele>748</ele>
        <time>2011-07-15T15:31:24+02:00</time>
      </trkpt>
      <trkpt lat="45.1757" lon="5.87252">
        <ele>693</ele>
        <time>2011-07-15T15:34:11+02:00</time>
      </trkpt>
      <trkpt lat="45.17584" lon="5.87161">
        <ele>675</ele>
        <time>2011-07-15T15:35:01+02:00</time>
      </trkpt>
      <trkpt lat="45.1764" lon="5.87201">
        <ele>667</ele>
        <time>2011-07-15T15:35:20+02:00</time>
      </trkpt>
      <trkpt lat="45.17779" lon="5.87171">
        <ele>662</ele>
        <time>2011-07-15T15:35:26+02:00</time>
      </trkpt>
      <trkpt lat="45.17814" lon="5.87325">
        <ele>649</ele>
        <time>2011-07-15T15:35:39+02:00</time>
      </trkpt>
      <trkpt lat="45.17851" lon="5.87374">
        <ele>641</ele>
        <time>2011-07-15T15:36:11+02:00</time>
      </trkpt>
      <trkpt lat="45.17825" lon="5.87319">
        <ele>633</ele>
        <time>2011-07-15T15:38:07+02:00</time>
      </trkpt>
      <trkpt lat="45.17842" lon="5.87016">
        <ele>605</ele>
        <time>2011-07-15T15:38:36+02:00</time>
      </trkpt>
      <trkpt lat="45.17902" lon="5.86867">
        <ele>591</ele>
        <time>2011-07-15T15:38:55+02:00</time>
      </trkpt>
      <trkpt lat="45.17811" lon="5.86513">
        <ele>563</ele>
        <time>2011-07-15T15:39:28+02:00</time>
      </trkpt>
      <trkpt lat="45.17852" lon="5.86374">
        <ele>560</ele>
        <time>2011-07-15T15:43:10+02:00</time>
      </trkpt>
      <trkpt lat="45.18005" lon="5.86369">
        <ele>561</ele>
        <time>2011-07-15T15:44:15+02:00</time>
      </trkpt>
      <trkpt lat="45.18033" lon="5.86736">
        <ele>574</ele>
        <time>2011-07-15T16:02:50+02:00</time>
      </trkpt>
      <trkpt lat="45.18017" lon="5.86677">
        <ele>573</ele>
        <time>2011-07-15T16:03:59+02:00</time>
      </trkpt>
      <trkpt lat="45.18104" lon="5.86396">
        <ele>552</ele>
        <time>2011-07-15T16:04:30+02:00</time>
      </trkpt>
      <trkpt lat="45.18151" lon="5.86028">
        <ele>523</ele>
        <time>2011-07-15T16:04:57+02:00</time>
      </trkpt>
      <trkpt lat="45.18201" lon="5.85926">
        <ele>514</ele>
        <time>2011-07-15T16:05:10+02:00</time>
      </trkpt>
      <trkpt lat="45.181" lon="5.85851">
        <ele>508</ele>
        <time>2011-07-15T16:05:29+02:00</time>
      </trkpt>
      <trkpt lat="45.18191" lon="5.8576">
        <ele>507</ele>
        <time>2011-07-15T16:06:09+02:00</time>
      </trkpt>
      <trkpt lat="45.18239" lon="5.85614">
        <ele>504</ele>
        <time>2011-07-15T16:06:40+02:00</time>
      </trkpt>
      <trkpt lat="45.18334" lon="5.85532">
        <ele>499</ele>
        <time>2011-07-15T16:06:59+02:00</time>
      </trkpt>
      <trkpt lat="45.18382" lon="5.85436">
        <ele>490</ele>
        <time>2011-07-15T16:07:09+02:00</time>
      </trkpt>
      <trkpt lat="45.18762" lon="5.85097">
        <ele>529</ele>
        <time>2011-07-15T16:11:16+02:00</time>
      </trkpt>
      <trkpt lat="45.18693" lon="5.84777">
        <ele>545</ele>
        <time>2011-07-15T16:13:48+02:00</time>
      </trkpt>
      <trkpt lat="45.18731" lon="5.84743">
        <ele>550</ele>
        <time>2011-07-15T16:14:06+02:00</time>
      </trkpt>
      <trkpt lat="45.18767" lon="5.84611">
        <ele>554</ele>
        <time>2011-07-15T16:14:48+02:00</time>
      </trkpt>
      <trkpt lat="45.18908" lon="5.84542">
        <ele>567</ele>
        <time>2011-07-15T16:15:47+02:00</time>
      </trkpt>
      <trkpt lat="45.18894" lon="5.84383">
        <ele>556</ele>
        <time>2011-07-15T16:19:24+02:00</time>
      </trkpt>
      <trkpt lat="45.18931" lon="5.84149">
        <ele>551</ele>
        <time>2011-07-15T16:19:47+02:00</time>
      </trkpt>
      <trkpt lat="45.1904" lon="5.84048">
        <ele>550</ele>
        <time>2011-07-15T16:20:16+02:00</time>
      </trkpt>
      <trkpt lat="45.19013" lon="5.83876">
        <ele>539</ele>
        <time>2011-07-15T16:20:40+02:00</time>
      </trkpt>
      <trkpt lat="45.18955" lon="5.8375">
        <ele>533</ele>
        <time>2011-07-15T16:21:44+02:00</time>
      </trkpt>
      <trkpt lat="45.18981" lon="5.83801">
        <ele>535</ele>
        <time>2011-07-15T16:22:20+02:00</time>
      </trkpt>
      <trkpt lat="45.18899" lon="5.83594">
        <ele>505</ele>
        <time>2011-07-15T16:23:32+02:00</time>
      </trkpt>
      <trkpt lat="45.18994" lon="5.83455">
        <ele>466</ele>
        <time>2011-07-15T16:25:51+02:00</time>
      </trkpt>
      <trkpt lat="45.1891" lon="5.83431">
        <ele>448</ele>
        <time>2011-07-15T16:27:07+02:00</time>
      </trkpt>
      <trkpt lat="45.19093" lon="5.83157">
        <ele>396</ele>
        <time>2011-07-15T16:28:55+02:00</time>
      </trkpt>
      <trkpt lat="45.19093" lon="5.83099">
        <ele>387</ele>
        <time>2011-07-15T16:29:14+02:00</time>
      </trkpt>
      <trkpt lat="45.19149" lon="5.82994">
        <ele>380</ele>
        <time>2011-07-15T16:30:03+02:00</time>
      </trkpt>
      <trkpt lat="45.19081" lon="5.82805">
        <ele>351</ele>
        <time>2011-07-15T16:31:22+02:00</time>
      </trkpt>
      <trkpt lat="45.19043" lon="5.82462">
        <ele>297</ele>
        <time>2011-07-15T16:32:39+02:00</time>
      </trkpt>
      <trkpt lat="45.19046" lon="5.82222">
        <ele>260</ele>
        <time>2011-07-15T16:34:03+02:00</time>
      </trkpt>
      <trkpt lat="45.19004" lon="5.82086">
        <ele>254</ele>
        <time>2011-07-15T16:34:38+02:00</time>
      </trkpt>
      <trkpt lat="45.1902" lon="5.81936">
        <ele>241</ele>
        <time>2011-07-15T16:35:04+02:00</time>
      </trkpt>
      <trkpt lat="45.19119" lon="5.8187">
        <ele>233</ele>
        <time>2011-07-15T16:35:20+02:00</time>
      </trkpt>
      <trkpt lat="45.19211" lon="5.81708">
        <ele>223</ele>
        <time>2011-07-15T16:35:59+02:00</time>
      </trkpt>
      <trkpt lat="45.1877" lon="5.8074">
        <ele>216</ele>
        <time>2011-07-15T16:38:23+02:00</time>
      </trkpt>
      <trkpt lat="45.18857" lon="5.80684">
        <ele>216</ele>
        <time>2011-07-15T16:38:58+02:00</time>
      </trkpt>
      <trkpt lat="45.18729" lon="5.806">
        <ele>217</ele>
        <time>2011-07-15T16:39:23+02:00</time>
      </trkpt>
      <trkpt lat="45.18676" lon="5.80477">
        <ele>217</ele>
        <time>2011-07-15T16:39:38+02:00</time>
      </trkpt>
      <trkpt lat="45.18654" lon="5.80334">
        <ele>217</ele>
        <time>2011-07-15T16:39:53+02:00</time>
      </trkpt>
      <trkpt lat="45.18705" lon="5.80069">
        <ele>216</ele>
        <time>2011-07-15T16:40:23+02:00</time>
      </trkpt>
      <trkpt lat="45.18877" lon="5.79651">
        <ele>216</ele>
        <time>2011-07-15T16:41:22+02:00</time>
      </trkpt>
      <trkpt lat="45.18907" lon="5.79407">
        <ele>216</ele>
        <time>2011-07-15T16:41:51+02:00</time>
      </trkpt>
      <trkpt lat="45.18899" lon="5.78924">
        <ele>216</ele>
        <time>2011-07-15T16:42:46+02:00</time>
      </trkpt>
      <trkpt lat="45.19031" lon="5.78334">
        <ele>216</ele>
        <time>2011-07-15T16:43:53+02:00</time>
      </trkpt>
      <trkpt lat="45.19139" lon="5.78095">
        <ele>215</ele>
        <time>2011-07-15T16:44:24+02:00</time>
      </trkpt>
      <trkpt lat="45.19245" lon="5.7798">
        <ele>215</ele>
        <time>2011-07-15T16:44:41+02:00</time>
      </trkpt>
      <trkpt lat="45.19474" lon="5.77955">
        <ele>215</ele>
        <time>2011-07-15T16:45:11+02:00</time>
      </trkpt>
      <trkpt lat="45.19933" lon="5.77765">
        <ele>215</ele>
        <time>2011-07-15T16:46:08+02:00</time>
      </trkpt>
      <trkpt lat="45.20035" lon="5.77603">
        <ele>215</ele>
        <time>2011-07-15T16:46:27+02:00</time>
      </trkpt>
      <trkpt lat="45.20053" lon="5.77467">
        <ele>215</ele>
        <time>2011-07-15T16:46:39+02:00</time>
      </trkpt>
      <trkpt lat="45.19981" lon="5.77183">
        <ele>215</ele>
        <time>2011-07-15T16:47:04+02:00</time>
      </trkpt>
      <trkpt lat="45.19825" lon="5.77036">
        <ele>215</ele>
        <time>2011-07-15T16:47:29+02:00</time>
      </trkpt>
      <trkpt lat="45.19903" lon="5.76922">
        <ele>215</ele>
        <time>2011-07-15T16:48:04+02:00</time>
      </trkpt>
    </trkseg>
  </trk>
</gpx>